Darstellungsparameter: Aktuell verwendete Einstellungen:
Skalierung der Graphiken ... ?
xyx+y,   Skalierungsfaktor:      Skalierung: Modus: x, Faktor: 1
Darstellungszeitraum ... ?
Vom - - bis: - -   Zeitraum: 20.08.2020 - 17.09.2020
Min/Max/Avg-Anzeige ... ?
Zeige MMA aktuell
Zeige MMA Monat
Zeige MMA alles
Zeige --A aktuell
Zeige --A Monat
Zeige --A alles
Keine MMA-Anzeige
MMA:
Keine MMA-Graphiken
MMA-Basis: 20.08.2020 - 17.09.2020
Quicknavigation für Darstellung... ?
Tage:      1T, 2T, 3T, 5T -1T -2T -3T -5T +1T +2T +3T +5T
Wochen: 1W, 2W, 3W -1W -2W -3W +1W +2W +3W
Monate: 1M, 3M, 6M -1M -3M -6M +1M +3M +6M
Jahre:    1J, 3J, 5J, 10J -1J -3J -5J -10J +1J +3J +5J +10J
Nutze für die Darstellung ... ?
Originaldaten oder Mittelwerte auf ...
Stundenbasis Tagesbasis Wochenbasis
Monatsbasis Jahresbasis      Datenbasis: Original-Daten
Darstellen als:
Statistik (Auto) Statistik J:M      Darstellung:
Zur Graphik,    zurück zur Übersicht aller Sensoren.
 
Tabellarische Datenbersicht: ?
 
Sensor: Nr:Datum:Temp:Feuchte:
Aussen-T/F 1 20-08-2020 00:03:18 20.1 C 34 %
2 20-08-2020 00:13:18 20.1 C 34 %
3 20-08-2020 00:23:17 20.3 C 34 %
4 20-08-2020 00:33:17 20.4 C 34 %
5 20-08-2020 00:43:17 20.3 C 34 %
6 20-08-2020 00:53:18 20.3 C 34 %
7 20-08-2020 01:03:18 20.4 C 33 %
8 20-08-2020 01:13:18 20.7 C 32 %
9 20-08-2020 01:23:17 20.5 C 33 %
10 20-08-2020 01:33:18 20.7 C 33 %
11 20-08-2020 01:43:18 20.4 C 34 %
12 20-08-2020 01:53:17 20.2 C 34 %
13 20-08-2020 02:03:18 19.9 C 35 %
14 20-08-2020 02:13:18 19.2 C 37 %
15 20-08-2020 02:23:17 19 C 38 %
16 20-08-2020 02:33:18 19 C 39 %
17 20-08-2020 02:43:18 19 C 38 %
18 20-08-2020 02:53:17 19.1 C 38 %
19 20-08-2020 03:03:17 19.1 C 37 %
20 20-08-2020 03:13:18 19.1 C 37 %
21 20-08-2020 03:23:17 19 C 38 %
22 20-08-2020 03:33:17 19 C 37 %
23 20-08-2020 03:43:17 18.9 C 38 %
24 20-08-2020 03:53:17 19.1 C 37 %
25 20-08-2020 04:03:17 19.1 C 38 %
Sensor: Nr:Datum:Temp:Feuchte:
Aussen-T/F 26 20-08-2020 04:13:17 19.1 C 37 %
27 20-08-2020 04:23:17 19.1 C 37 %
28 20-08-2020 04:33:17 19 C 38 %
29 20-08-2020 04:43:17 18.6 C 40 %
30 20-08-2020 04:53:18 18.6 C 41 %
31 20-08-2020 05:03:17 18.5 C 41 %
32 20-08-2020 05:13:17 18.4 C 41 %
33 20-08-2020 05:23:17 18.4 C 41 %
34 20-08-2020 05:33:17 18.4 C 41 %
35 20-08-2020 05:43:17 18.5 C 41 %
36 20-08-2020 05:53:18 18.4 C 41 %
37 20-08-2020 06:03:18 18.5 C 41 %
38 20-08-2020 06:13:18 18.4 C 41 %
39 20-08-2020 06:23:17 18.5 C 40 %
40 20-08-2020 06:33:17 18.3 C 40 %
41 20-08-2020 06:43:17 18.3 C 40 %
42 20-08-2020 06:53:17 18.3 C 40 %
43 20-08-2020 07:03:17 18.2 C 40 %
44 20-08-2020 07:13:17 18.5 C 40 %
45 20-08-2020 07:23:17 18.4 C 40 %
46 20-08-2020 07:33:17 18.4 C 40 %
47 20-08-2020 07:43:17 18.7 C 40 %
48 20-08-2020 07:53:18 19 C 40 %
49 20-08-2020 08:03:17 19 C 39 %
50 20-08-2020 08:13:17 18.9 C 40 %
Sensor: Nr:Datum:Temp:Feuchte:
Aussen-T/F 51 20-08-2020 08:23:17 19.1 C 40 %
52 20-08-2020 08:33:17 19.3 C 40 %
53 20-08-2020 08:43:18 19.3 C 40 %
54 20-08-2020 08:53:17 19.6 C 40 %
55 20-08-2020 09:03:18 20.4 C 40 %
56 20-08-2020 09:13:18 20.8 C 37 %
57 20-08-2020 09:23:17 21.4 C 35 %
58 20-08-2020 09:33:17 21.8 C 35 %
59 20-08-2020 09:43:17 21.2 C 36 %
60 20-08-2020 09:53:17 21.6 C 36 %
61 20-08-2020 10:03:18 21.6 C 36 %
62 20-08-2020 10:13:18 21.2 C 37 %
63 20-08-2020 10:23:18 22.2 C 33 %
64 20-08-2020 10:33:18 23.6 C 31 %
65 20-08-2020 10:43:18 23.2 C 31 %
66 20-08-2020 10:53:17 22.8 C 34 %
67 20-08-2020 11:03:17 22.9 C 34 %
68 20-08-2020 11:13:17 24.1 C 31 %
69 20-08-2020 11:23:17 24.5 C 31 %
70 20-08-2020 11:33:18 26.2 C 30 %
71 20-08-2020 11:43:18 27.9 C 26 %
72 20-08-2020 11:53:17 28.2 C 25 %
73 20-08-2020 12:03:17 30.4 C 24 %
74 20-08-2020 12:13:17 27.8 C 25 %
75 20-08-2020 12:23:17 26.7 C 25 %
Sensor: Nr:Datum:Temp:Feuchte:
Aussen-T/F 76 20-08-2020 12:33:17 25.9 C 27 %
77 20-08-2020 12:43:17 26.1 C 26 %
78 20-08-2020 12:53:17 26.2 C 26 %
79 20-08-2020 13:03:18 26.9 C 26 %
80 20-08-2020 13:13:18 27.6 C 25 %
81 20-08-2020 13:23:17 28 C 24 %
82 20-08-2020 13:33:17 28 C 24 %
83 20-08-2020 13:43:17 28.4 C 24 %
84 20-08-2020 13:53:17 28.9 C 24 %
85 20-08-2020 14:03:17 29.7 C 23 %
86 20-08-2020 14:13:17 30.2 C 22 %
87 20-08-2020 14:23:17 30.9 C 21 %
88 20-08-2020 14:33:17 34.8 C 20 %
89 20-08-2020 14:43:17 36.6 C 20 %
90 20-08-2020 14:53:17 36.5 C 20 %
91 20-08-2020 15:03:17 36.7 C 20 %
92 20-08-2020 15:13:17 35.4 C 20 %
93 20-08-2020 15:23:17 37.2 C 20 %
94 20-08-2020 15:33:18 37.5 C 20 %
95 20-08-2020 15:43:18 37.2 C 20 %
96 20-08-2020 15:53:17 36.9 C 20 %
97 20-08-2020 16:03:17 36.5 C 20 %
98 20-08-2020 16:13:17 36.2 C 20 %
99 20-08-2020 16:23:18 36.2 C 20 %
100 20-08-2020 16:33:18 33.9 C 20 %
Sensor: Nr:Datum:Temp:Feuchte:
Aussen-T/F 101 20-08-2020 16:43:18 37 C 20 %
102 20-08-2020 16:53:18 35.8 C 20 %
103 20-08-2020 17:03:18 37.4 C 20 %
104 20-08-2020 17:13:18 35.4 C 20 %
105 20-08-2020 17:23:17 33.4 C 20 %
106 20-08-2020 17:33:17 34.2 C 20 %
107 20-08-2020 17:43:17 34.7 C 20 %
108 20-08-2020 17:53:17 35.7 C 20 %
109 20-08-2020 18:03:18 34.7 C 20 %
110 20-08-2020 18:13:18 33.6 C 20 %
111 20-08-2020 18:23:17 32.8 C 20 %
112 20-08-2020 18:33:18 33.4 C 20 %
113 20-08-2020 18:43:18 33.2 C 20 %
114 20-08-2020 18:53:17 33 C 20 %
115 20-08-2020 19:03:18 32.2 C 20 %
116 20-08-2020 19:13:18 31.8 C 20 %
117 20-08-2020 19:23:17 30.8 C 20 %
118 20-08-2020 19:33:17 29.1 C 22 %
119 20-08-2020 19:43:17 27.8 C 24 %
120 20-08-2020 19:53:17 27.4 C 23 %
121 20-08-2020 20:03:18 26.6 C 25 %
122 20-08-2020 20:13:18 26.3 C 25 %
123 20-08-2020 20:23:17 25.7 C 26 %
124 20-08-2020 20:33:17 25.4 C 26 %
125 20-08-2020 20:43:17 25.2 C 26 %
Sensor: Nr:Datum:Temp:Feuchte:
Aussen-T/F 126 20-08-2020 20:53:18 25.1 C 26 %
127 20-08-2020 21:03:18 24.8 C 27 %
128 20-08-2020 21:13:18 24.7 C 27 %
129 20-08-2020 21:23:17 24.4 C 27 %
130 20-08-2020 21:33:17 24.3 C 28 %
131 20-08-2020 21:43:17 24.2 C 27 %
132 20-08-2020 21:53:17 24 C 27 %
133 20-08-2020 22:03:17 24.1 C 27 %
134 20-08-2020 22:13:17 23.7 C 29 %
135 20-08-2020 22:23:17 23.6 C 29 %
136 20-08-2020 22:33:17 23.7 C 28 %
137 20-08-2020 22:43:17 23.3 C 29 %
138 20-08-2020 22:53:17 23.3 C 29 %
139 20-08-2020 23:03:17 23.4 C 28 %
140 20-08-2020 23:13:17 23.3 C 29 %
141 20-08-2020 23:23:17 23.3 C 29 %
142 20-08-2020 23:33:18 23.7 C 28 %
143 20-08-2020 23:43:18 23.4 C 29 %
144 20-08-2020 23:53:17 23.3 C 29 %
145 21-08-2020 00:03:17 23.8 C 28 %
146 21-08-2020 00:13:17 23.7 C 28 %
147 21-08-2020 00:23:17 23.3 C 29 %
148 21-08-2020 00:33:17 24.4 C 27 %
149 21-08-2020 00:43:18 23.5 C 28 %
150 21-08-2020 00:53:18 23.3 C 29 %
Sensor: Nr:Datum:Temp:Feuchte:
Aussen-T/F 151 21-08-2020 01:03:18 23.1 C 29 %
152 21-08-2020 01:13:18 23.4 C 29 %
153 21-08-2020 01:23:17 24.3 C 27 %
154 21-08-2020 01:33:17 23.5 C 29 %
155 21-08-2020 01:43:17 23 C 29 %
156 21-08-2020 01:53:18 23.4 C 29 %
157 21-08-2020 02:03:18 23.6 C 29 %
158 21-08-2020 02:13:18 23.8 C 28 %
159 21-08-2020 02:23:17 23.7 C 28 %
160 21-08-2020 02:33:17 24.4 C 26 %
161 21-08-2020 02:43:17 25.2 C 26 %
162 21-08-2020 02:53:18 24.7 C 26 %
163 21-08-2020 03:03:17 24.9 C 26 %
164 21-08-2020 03:13:17 25.1 C 26 %
165 21-08-2020 03:23:17 25.3 C 25 %
166 21-08-2020 03:33:17 25.1 C 25 %
167 21-08-2020 03:43:17 24.6 C 26 %
168 21-08-2020 03:53:17 24.8 C 26 %
169 21-08-2020 04:03:17 24.6 C 26 %
170 21-08-2020 04:13:18 24.4 C 26 %
171 21-08-2020 04:23:18 24.8 C 26 %
172 21-08-2020 04:33:18 23.9 C 28 %
173 21-08-2020 04:43:18 23.8 C 27 %
174 21-08-2020 04:53:17 23.5 C 29 %
175 21-08-2020 05:03:17 23.1 C 29 %
Sensor: Nr:Datum:Temp:Feuchte:
Aussen-T/F 176 21-08-2020 05:13:17 23 C 29 %
177 21-08-2020 05:23:17 22.9 C 30 %
178 21-08-2020 05:33:17 22.6 C 30 %
179 21-08-2020 05:43:17 22.6 C 30 %
180 21-08-2020 05:53:17 22.4 C 31 %
181 21-08-2020 06:03:18 22.5 C 30 %
182 21-08-2020 06:13:18 22.4 C 31 %
183 21-08-2020 06:23:17 22.3 C 31 %
184 21-08-2020 06:33:17 22.4 C 31 %
185 21-08-2020 06:43:17 22.5 C 30 %
186 21-08-2020 06:53:17 22.7 C 30 %
187 21-08-2020 07:03:17 22.6 C 30 %
188 21-08-2020 07:13:17 22.9 C 30 %
189 21-08-2020 07:23:17 22.7 C 30 %
190 21-08-2020 07:33:17 22.9 C 30 %
191 21-08-2020 07:43:17 22.9 C 30 %
192 21-08-2020 07:53:17 23.4 C 29 %
193 21-08-2020 08:03:17 23.8 C 29 %
194 21-08-2020 08:13:17 24 C 28 %
195 21-08-2020 08:23:17 24.2 C 28 %
196 21-08-2020 08:33:17 24.7 C 28 %
197 21-08-2020 08:43:17 24.7 C 28 %
198 21-08-2020 08:53:17 24.8 C 28 %
199 21-08-2020 09:03:17 25.3 C 27 %
200 21-08-2020 09:13:17 26.4 C 26 %
Sensor: Nr:Datum:Temp:Feuchte:
Aussen-T/F 201 21-08-2020 09:23:17 25.9 C 27 %
202 21-08-2020 09:33:18 25.6 C 27 %
203 21-08-2020 09:43:18 25.2 C 27 %
204 21-08-2020 09:53:17 25.2 C 27 %
205 21-08-2020 10:03:18 26 C 26 %
206 21-08-2020 10:13:18 26.8 C 24 %
207 21-08-2020 10:23:17 26.5 C 25 %
208 21-08-2020 10:33:18 26.6 C 25 %
209 21-08-2020 10:43:18 27 C 24 %
210 21-08-2020 10:53:18 27.3 C 24 %
211 21-08-2020 11:03:17 27.6 C 23 %
212 21-08-2020 11:13:17 27.9 C 23 %
213 21-08-2020 11:23:17 28 C 22 %
214 21-08-2020 11:33:17 27.3 C 23 %
215 21-08-2020 11:43:17 26.9 C 23 %
216 21-08-2020 11:53:17 26.6 C 24 %
217 21-08-2020 12:03:18 26.9 C 23 %
218 21-08-2020 12:13:18 27.4 C 23 %
219 21-08-2020 12:23:18 27.6 C 24 %
220 21-08-2020 12:33:17 27.8 C 23 %
221 21-08-2020 12:43:17 27.8 C 23 %
222 21-08-2020 12:53:17 28.6 C 22 %
223 21-08-2020 13:03:18 29.4 C 21 %
224 21-08-2020 13:13:18 29.5 C 21 %
225 21-08-2020 13:23:17 29.3 C 21 %
Sensor: Nr:Datum:Temp:Feuchte:
Aussen-T/F 226 21-08-2020 13:33:17 29.2 C 21 %
227 21-08-2020 13:43:17 29.5 C 21 %
228 21-08-2020 13:53:17 28.9 C 22 %
229 21-08-2020 14:03:17 28.1 C 22 %
230 21-08-2020 14:13:17 28 C 22 %
231 21-08-2020 14:23:17 28.1 C 24 %
232 21-08-2020 14:33:17 28.3 C 23 %
233 21-08-2020 14:43:17 29 C 22 %
234 21-08-2020 14:53:17 30.1 C 21 %
235 21-08-2020 15:03:17 30.8 C 21 %
236 21-08-2020 15:13:17 32.1 C 20 %
237 21-08-2020 15:23:17 32.4 C 20 %
238 21-08-2020 15:33:17 30.8 C 20 %
239 21-08-2020 15:43:17 30.6 C 20 %
240 21-08-2020 15:53:17 30.1 C 20 %
241 21-08-2020 16:03:17 29.8 C 21 %
242 21-08-2020 16:13:18 29.7 C 21 %
243 21-08-2020 16:23:18 29 C 21 %
244 21-08-2020 16:33:17 28.4 C 23 %
245 21-08-2020 16:43:18 28.7 C 22 %
246 21-08-2020 16:53:17 27.6 C 25 %
247 21-08-2020 17:03:17 27.5 C 25 %
248 21-08-2020 17:13:17 27.3 C 25 %
249 21-08-2020 17:23:17 27.3 C 26 %
250 21-08-2020 17:33:17 27.3 C 26 %
Sensor: Nr:Datum:Temp:Feuchte:
Aussen-T/F 251 21-08-2020 17:43:17 27.9 C 25 %
252 21-08-2020 17:53:17 27.9 C 26 %
253 21-08-2020 18:03:18 28.2 C 25 %
254 21-08-2020 18:13:18 28.3 C 23 %
255 21-08-2020 18:23:17 28.2 C 22 %
256 21-08-2020 18:33:18 29 C 21 %
257 21-08-2020 18:43:18 29.2 C 21 %
258 21-08-2020 18:53:17 29.2 C 21 %
259 21-08-2020 19:03:17 29 C 21 %
260 21-08-2020 19:13:18 28.3 C 22 %
261 21-08-2020 19:24:17 27.7 C 23 %
262 21-08-2020 19:33:17 27 C 23 %
263 21-08-2020 19:43:18 26.3 C 25 %
264 21-08-2020 19:54:17 26.4 C 25 %
265 21-08-2020 20:03:18 26.5 C 25 %
266 21-08-2020 20:13:18 26 C 25 %
267 21-08-2020 20:23:17 25.4 C 26 %
268 21-08-2020 20:33:17 24.9 C 27 %
269 21-08-2020 20:43:17 24.6 C 27 %
270 21-08-2020 20:53:18 24.6 C 27 %
271 21-08-2020 21:03:18 24.7 C 27 %
272 21-08-2020 21:13:18 24.7 C 26 %
273 21-08-2020 21:23:18 24.4 C 26 %
274 21-08-2020 21:33:17 24.3 C 27 %
275 21-08-2020 21:43:17 24.5 C 26 %
Sensor: Nr:Datum:Temp:Feuchte:
Aussen-T/F 276 21-08-2020 21:53:17 23.8 C 28 %
277 21-08-2020 22:03:17 23.7 C 28 %
278 21-08-2020 22:13:17 23.5 C 28 %
279 21-08-2020 22:23:17 23.2 C 29 %
280 21-08-2020 22:34:17 23.2 C 29 %
281 21-08-2020 22:44:17 22.9 C 31 %
282 21-08-2020 22:53:18 22.4 C 31 %
283 21-08-2020 23:03:18 22.3 C 31 %
284 21-08-2020 23:13:18 22.3 C 31 %
285 21-08-2020 23:24:17 22.2 C 32 %
286 21-08-2020 23:33:18 22 C 32 %
287 21-08-2020 23:43:18 21.9 C 32 %
288 21-08-2020 23:53:18 21.9 C 33 %
289 22-08-2020 00:04:17 21.9 C 33 %
290 22-08-2020 00:14:17 21.9 C 33 %
291 22-08-2020 00:24:17 22.2 C 32 %
292 22-08-2020 00:33:18 22 C 32 %
293 22-08-2020 00:43:18 21.9 C 33 %
294 22-08-2020 00:53:17 21.8 C 33 %
295 22-08-2020 01:03:18 21.7 C 33 %
296 22-08-2020 01:13:18 21.9 C 33 %
297 22-08-2020 01:23:17 21.9 C 33 %
298 22-08-2020 01:33:18 22.1 C 31 %
299 22-08-2020 01:43:18 21.9 C 32 %
300 22-08-2020 01:53:17 21.8 C 33 %
Sensor: Nr:Datum:Temp:Feuchte:
Aussen-T/F 301 22-08-2020 02:03:18 21.7 C 33 %
302 22-08-2020 02:13:18 21.6 C 33 %
303 22-08-2020 02:23:18 21.4 C 33 %
304 22-08-2020 02:34:17 21.4 C 33 %
305 22-08-2020 02:43:18 21.7 C 33 %
306 22-08-2020 02:54:17 21.7 C 33 %
307 22-08-2020 03:04:18 21.7 C 33 %
308 22-08-2020 03:14:18 21.5 C 33 %
309 22-08-2020 03:24:17 21.3 C 33 %
310 22-08-2020 03:34:17 21.1 C 33 %
311 22-08-2020 03:44:17 21.1 C 33 %
312 22-08-2020 03:54:17 20.9 C 34 %
313 22-08-2020 04:04:17 20.7 C 34 %
314 22-08-2020 04:14:17 20.8 C 34 %
315 22-08-2020 04:24:17 20.6 C 34 %
316 22-08-2020 04:34:17 20.6 C 34 %
317 22-08-2020 04:44:17 20.7 C 34 %
318 22-08-2020 04:54:17 20.7 C 34 %
319 22-08-2020 05:04:17 20.5 C 34 %
320 22-08-2020 05:14:17 20.6 C 35 %
321 22-08-2020 05:24:17 20.5 C 35 %
322 22-08-2020 05:34:17 20.6 C 35 %
323 22-08-2020 05:44:17 21.4 C 33 %
324 22-08-2020 05:54:17 21.5 C 32 %
325 22-08-2020 06:04:17 21.3 C 33 %
Sensor: Nr:Datum:Temp:Feuchte:
Aussen-T/F 326 22-08-2020 06:14:17 21.3 C 33 %
327 22-08-2020 06:24:17 21.2 C 33 %
328 22-08-2020 06:34:17 21.6 C 32 %
329 22-08-2020 06:44:17 21.6 C 32 %
330 22-08-2020 06:54:18 21.7 C 32 %
331 22-08-2020 07:04:17 21.9 C 32 %
332 22-08-2020 07:14:17 21.8 C 32 %
333 22-08-2020 07:24:17 21.8 C 32 %
334 22-08-2020 07:34:17 21.8 C 32 %
335 22-08-2020 07:44:17 21.7 C 32 %
336 22-08-2020 07:54:17 21.8 C 32 %
337 22-08-2020 08:04:17 21.9 C 32 %
338 22-08-2020 08:14:17 21.8 C 32 %
339 22-08-2020 08:24:17 21.8 C 32 %
340 22-08-2020 08:34:17 21.9 C 31 %
341 22-08-2020 08:44:18 21.9 C 31 %
342 22-08-2020 08:54:16 22 C 30 %
343 22-08-2020 09:04:17 22.1 C 29 %
344 22-08-2020 09:14:17 22.3 C 29 %
345 22-08-2020 09:24:16 22.3 C 28 %
346 22-08-2020 09:34:16 22.3 C 27 %
347 22-08-2020 09:44:16 22.4 C 27 %
348 22-08-2020 09:54:17 22.1 C 27 %
349 22-08-2020 10:04:17 22.3 C 27 %
350 22-08-2020 10:14:17 22.5 C 27 %
Sensor: Nr:Datum:Temp:Feuchte:
Aussen-T/F 351 22-08-2020 10:24:16 22.4 C 26 %
352 22-08-2020 10:34:16 22.3 C 26 %
353 22-08-2020 10:44:16 22.2 C 26 %
354 22-08-2020 10:54:16 22.6 C 26 %
355 22-08-2020 11:04:17 23 C 25 %
356 22-08-2020 11:14:17 23.1 C 25 %
357 22-08-2020 11:24:17 24.2 C 23 %
358 22-08-2020 11:34:16 24 C 23 %
359 22-08-2020 11:44:16 23.7 C 24 %
360 22-08-2020 11:54:17 24.3 C 22 %
361 22-08-2020 12:04:16 24.4 C 22 %
362 22-08-2020 12:14:16 23.6 C 23 %
363 22-08-2020 12:24:16 24 C 22 %
364 22-08-2020 12:34:17 23.9 C 23 %
365 22-08-2020 12:44:17 23.9 C 23 %
366 22-08-2020 12:54:16 24.5 C 22 %
367 22-08-2020 13:04:16 24.5 C 22 %
368 22-08-2020 13:14:16 24.5 C 22 %
369 22-08-2020 13:24:16 24.6 C 22 %
370 22-08-2020 13:34:17 25.1 C 21 %
371 22-08-2020 13:44:17 25.2 C 21 %
372 22-08-2020 13:54:16 26 C 20 %
373 22-08-2020 14:04:16 26.6 C 20 %
374 22-08-2020 14:14:16 25.9 C 20 %
375 22-08-2020 14:24:17 26.8 C 20 %
Sensor: Nr:Datum:Temp:Feuchte:
Aussen-T/F 376 22-08-2020 14:34:17 28.5 C 20 %
377 22-08-2020 14:44:17 27.9 C 20 %
378 22-08-2020 14:54:16 29.5 C 20 %
379 22-08-2020 15:04:16 27.1 C 20 %
380 22-08-2020 15:14:16 29.6 C 20 %
381 22-08-2020 15:24:17 26.8 C 20 %
382 22-08-2020 15:34:17 27.1 C 20 %
383 22-08-2020 15:44:17 29.1 C 20 %
384 22-08-2020 15:54:17 28.3 C 20 %
385 22-08-2020 16:04:16 28.8 C 20 %
386 22-08-2020 16:14:16 30.2 C 20 %
387 22-08-2020 16:24:17 29.6 C 20 %
388 22-08-2020 16:34:17 30.2 C 20 %
389 22-08-2020 16:44:17 30 C 20 %
390 22-08-2020 16:54:16 30.7 C 20 %
391 22-08-2020 17:04:16 29.2 C 20 %
392 22-08-2020 17:14:16 29.1 C 20 %
393 22-08-2020 17:24:16 26.9 C 20 %
394 22-08-2020 17:34:16 26.7 C 20 %
395 22-08-2020 17:44:16 26.1 C 20 %
396 22-08-2020 17:54:16 26.8 C 20 %
397 22-08-2020 18:04:17 26.1 C 20 %
398 22-08-2020 18:14:17 25.5 C 20 %
399 22-08-2020 18:24:16 25.5 C 20 %
400 22-08-2020 18:34:17 25.2 C 20 %
Sensor: Nr:Datum:Temp:Feuchte:
Aussen-T/F 401 22-08-2020 18:44:17 25.5 C 20 %
402 22-08-2020 18:54:16 25.6 C 20 %
403 22-08-2020 19:04:16 24.9 C 20 %
404 22-08-2020 19:14:16 24.6 C 20 %
405 22-08-2020 19:24:16 24.4 C 20 %
406 22-08-2020 19:34:16 24.1 C 20 %
407 22-08-2020 19:44:16 24.2 C 20 %
408 22-08-2020 19:54:16 24 C 20 %
409 22-08-2020 20:04:16 23.5 C 20 %
410 22-08-2020 20:14:16 22.4 C 22 %
411 22-08-2020 20:24:16 22.4 C 22 %
412 22-08-2020 20:34:16 22.1 C 22 %
413 22-08-2020 20:44:16 21.7 C 24 %
414 22-08-2020 20:54:16 21.2 C 25 %
415 22-08-2020 21:04:17 20.9 C 25 %
416 22-08-2020 21:14:17 20.5 C 26 %
417 22-08-2020 21:24:16 20.4 C 26 %
418 22-08-2020 21:34:16 20.5 C 26 %
419 22-08-2020 21:44:16 20.4 C 26 %
420 22-08-2020 21:54:16 20.2 C 27 %
421 22-08-2020 22:04:16 20.3 C 27 %
422 22-08-2020 22:14:16 20.1 C 28 %
423 22-08-2020 22:24:16 20.1 C 27 %
424 22-08-2020 22:34:16 19.8 C 27 %
425 22-08-2020 22:44:16 19.4 C 28 %
Sensor: Nr:Datum:Temp:Feuchte:
Aussen-T/F 426 22-08-2020 22:54:16 19 C 28 %
427 22-08-2020 23:04:16 18.7 C 29 %
428 22-08-2020 23:14:16 18.8 C 29 %
429 22-08-2020 23:24:16 19 C 28 %
430 22-08-2020 23:34:15 19.1 C 29 %
431 22-08-2020 23:44:15 18.7 C 30 %
432 22-08-2020 23:54:16 18.9 C 30 %
433 23-08-2020 00:04:16 19.1 C 29 %
434 23-08-2020 00:14:17 19.6 C 28 %
435 23-08-2020 00:24:16 19.7 C 28 %
436 23-08-2020 00:34:16 19.7 C 28 %
437 23-08-2020 00:44:16 19.6 C 28 %
438 23-08-2020 00:54:16 19.4 C 29 %
439 23-08-2020 01:04:16 19.1 C 30 %
440 23-08-2020 01:14:17 18.9 C 31 %
441 23-08-2020 01:24:16 19 C 30 %
442 23-08-2020 01:34:16 18.6 C 31 %
443 23-08-2020 01:44:16 18.7 C 31 %
444 23-08-2020 01:54:16 18.7 C 31 %
445 23-08-2020 02:04:15 18.6 C 31 %
446 23-08-2020 02:14:15 18.3 C 31 %
447 23-08-2020 02:24:15 18.4 C 32 %
448 23-08-2020 02:34:16 18.5 C 32 %
449 23-08-2020 02:44:17 18.4 C 32 %
450 23-08-2020 02:54:17 18.1 C 33 %
Sensor: Nr:Datum:Temp:Feuchte:
Aussen-T/F 451 23-08-2020 03:04:18 17.8 C 33 %
452 23-08-2020 03:14:18 17.4 C 33 %
453 23-08-2020 03:24:17 17.4 C 33 %
454 23-08-2020 03:34:18 17.3 C 34 %
455 23-08-2020 03:44:18 17.3 C 34 %
456 23-08-2020 03:54:17 17.4 C 34 %
457 23-08-2020 04:04:18 17.4 C 34 %
458 23-08-2020 04:14:18 17.5 C 33 %
459 23-08-2020 04:24:17 17.3 C 34 %
460 23-08-2020 04:34:17 17.4 C 33 %
461 23-08-2020 04:44:17 17.2 C 34 %
462 23-08-2020 04:54:17 17.3 C 34 %
463 23-08-2020 05:04:18 17.4 C 33 %
464 23-08-2020 05:14:18 17.8 C 32 %
465 23-08-2020 05:24:17 17.8 C 32 %
466 23-08-2020 05:34:18 17.6 C 33 %
467 23-08-2020 05:44:18 17.4 C 33 %
468 23-08-2020 05:54:17 17.4 C 33 %
469 23-08-2020 06:04:17 17.3 C 33 %
470 23-08-2020 06:14:17 17.2 C 33 %
471 23-08-2020 06:24:18 17 C 33 %
472 23-08-2020 06:34:18 16.9 C 34 %
473 23-08-2020 06:44:18 16.7 C 34 %
474 23-08-2020 06:54:18 16.4 C 34 %
475 23-08-2020 07:04:17 16.4 C 34 %
Sensor: Nr:Datum:Temp:Feuchte:
Aussen-T/F 476 23-08-2020 07:14:17 16.4 C 34 %
477 23-08-2020 07:24:17 17 C 33 %
478 23-08-2020 07:34:17 17.4 C 34 %
479 23-08-2020 07:44:17 17.8 C 34 %
480 23-08-2020 07:54:17 18 C 33 %
481 23-08-2020 08:04:18 18.2 C 32 %
482 23-08-2020 08:14:18 18.7 C 32 %
483 23-08-2020 08:24:17 19 C 31 %
484 23-08-2020 08:34:17 19.3 C 31 %
485 23-08-2020 08:44:17 19.4 C 31 %
486 23-08-2020 08:54:17 19.6 C 31 %
487 23-08-2020 09:04:17 19.4 C 31 %
488 23-08-2020 09:14:17 19.3 C 31 %
489 23-08-2020 09:24:17 19.3 C 31 %
490 23-08-2020 09:34:18 20.2 C 30 %
491 23-08-2020 09:44:18 20.3 C 29 %
492 23-08-2020 09:54:17 20.5 C 29 %
493 23-08-2020 10:04:17 20.7 C 29 %
494 23-08-2020 10:14:17 20.7 C 29 %
495 23-08-2020 10:24:17 21.2 C 27 %
496 23-08-2020 10:34:17 21.1 C 26 %
497 23-08-2020 10:44:17 20.6 C 27 %
498 23-08-2020 10:54:17 20.4 C 26 %
499 23-08-2020 11:04:17 21.9 C 25 %
500 23-08-2020 11:14:17 21.7 C 25 %
Sensor: Nr:Datum:Temp:Feuchte:
Aussen-T/F 501 23-08-2020 11:24:17 21.3 C 25 %
502 23-08-2020 11:34:18 21.1 C 25 %
503 23-08-2020 11:44:18 21.6 C 25 %
504 23-08-2020 11:54:17 21.3 C 25 %
505 23-08-2020 12:04:17 21.6 C 25 %
506 23-08-2020 12:14:17 21.6 C 25 %
507 23-08-2020 12:24:17 21.3 C 25 %
508 23-08-2020 12:34:17 21.6 C 25 %
509 23-08-2020 12:44:17 22.3 C 24 %
510 23-08-2020 12:54:17 22.1 C 23 %
511 23-08-2020 13:04:18 21.1 C 23 %
512 23-08-2020 13:14:18 21.6 C 24 %
513 23-08-2020 13:24:17 22.7 C 22 %
514 23-08-2020 13:34:17 21.8 C 22 %
515 23-08-2020 13:44:17 22.3 C 21 %
516 23-08-2020 13:54:18 23.2 C 20 %
517 23-08-2020 14:04:18 24 C 20 %
518 23-08-2020 14:14:18 22.4 C 20 %
519 23-08-2020 14:24:17 23.6 C 20 %
520 23-08-2020 14:34:18 22.9 C 20 %
521 23-08-2020 14:44:18 23 C 20 %
522 23-08-2020 14:54:18 22.9 C 20 %
523 23-08-2020 15:04:17 23.3 C 20 %
524 23-08-2020 15:14:17 22.9 C 20 %
525 23-08-2020 15:24:18 23 C 20 %
Sensor: Nr:Datum:Temp:Feuchte:
Aussen-T/F 526 23-08-2020 15:34:17 23.4 C 20 %
527 23-08-2020 15:44:17 22.9 C 20 %
528 23-08-2020 15:54:17 22.8 C 20 %
529 23-08-2020 16:04:18 24.4 C 20 %
530 23-08-2020 16:14:18 25.9 C 20 %
531 23-08-2020 16:24:18 23 C 20 %
532 23-08-2020 16:34:18 22.5 C 20 %
533 23-08-2020 16:44:18 22.3 C 20 %
534 23-08-2020 16:54:17 22.1 C 20 %
535 23-08-2020 17:04:17 22.1 C 20 %
536 23-08-2020 17:14:18 22.8 C 20 %
537 23-08-2020 17:24:17 23.1 C 20 %
538 23-08-2020 17:34:17 22.9 C 20 %
539 23-08-2020 17:44:18 22.7 C 20 %
540 23-08-2020 17:54:17 22 C 21 %
541 23-08-2020 18:04:17 21.5 C 22 %
542 23-08-2020 18:14:17 21.3 C 22 %
543 23-08-2020 18:24:17 21 C 23 %
544 23-08-2020 18:34:18 20.4 C 25 %
545 23-08-2020 18:44:18 19.8 C 26 %
546 23-08-2020 18:54:17 19.8 C 26 %
547 23-08-2020 19:04:18 19.4 C 27 %
548 23-08-2020 19:14:18 19 C 28 %
549 23-08-2020 19:24:17 18.9 C 29 %
550 23-08-2020 19:34:17 19 C 29 %
Sensor: Nr:Datum:Temp:Feuchte:
Aussen-T/F 551 23-08-2020 19:44:17 18.7 C 30 %
552 23-08-2020 19:54:17 18.7 C 30 %
553 23-08-2020 20:04:18 18.5 C 30 %
554 23-08-2020 20:14:18 18.4 C 30 %
555 23-08-2020 20:24:17 18.3 C 30 %
556 23-08-2020 20:34:17 18.4 C 30 %
557 23-08-2020 20:44:18 18.2 C 30 %
558 23-08-2020 20:54:17 18.2 C 30 %
559 23-08-2020 21:04:18 18.3 C 30 %
560 23-08-2020 21:14:18 18 C 30 %
561 23-08-2020 21:24:17 18 C 30 %
562 23-08-2020 21:34:17 17.8 C 31 %
563 23-08-2020 21:44:17 17.9 C 31 %
564 23-08-2020 21:54:17 17.8 C 31 %
565 23-08-2020 22:04:18 17.8 C 31 %
566 23-08-2020 22:14:18 17.7 C 31 %
567 23-08-2020 22:24:17 17.5 C 31 %
568 23-08-2020 22:34:18 17.4 C 31 %
569 23-08-2020 22:44:18 17.3 C 31 %
570 23-08-2020 22:54:17 17.2 C 31 %
571 23-08-2020 23:04:18 17.2 C 31 %
572 23-08-2020 23:14:18 17 C 31 %
573 23-08-2020 23:24:17 16.9 C 32 %
574 23-08-2020 23:34:18 16.6 C 33 %
575 23-08-2020 23:44:18 16.9 C 32 %
Sensor: Nr:Datum:Temp:Feuchte:
Aussen-T/F 576 23-08-2020 23:54:17 17.1 C 32 %
577 24-08-2020 00:04:17 17.2 C 32 %
578 24-08-2020 00:14:17 17.1 C 32 %
579 24-08-2020 00:24:17 17.1 C 32 %
580 24-08-2020 00:34:17 17 C 32 %
581 24-08-2020 00:44:17 16.6 C 32 %
582 24-08-2020 00:54:17 16.2 C 33 %
583 24-08-2020 01:04:17 16.3 C 33 %
584 24-08-2020 01:14:17 16.5 C 33 %
585 24-08-2020 01:24:17 16.6 C 33 %
586 24-08-2020 01:34:17 16.5 C 33 %
587 24-08-2020 01:44:17 16.4 C 33 %
588 24-08-2020 01:54:17 16.6 C 33 %
589 24-08-2020 02:04:17 16.6 C 33 %
590 24-08-2020 02:14:17 16.7 C 33 %
591 24-08-2020 02:24:17 16.7 C 33 %
592 24-08-2020 02:34:17 16.7 C 33 %
593 24-08-2020 02:44:17 16.8 C 33 %
594 24-08-2020 02:54:17 16.7 C 33 %
595 24-08-2020 03:04:17 16.4 C 33 %
596 24-08-2020 03:14:17 16.3 C 34 %
597 24-08-2020 03:24:17 16.3 C 34 %
598 24-08-2020 03:34:17 16.4 C 34 %
599 24-08-2020 03:44:17 16.4 C 34 %
600 24-08-2020 03:54:17 16.1 C 34 %
Sensor: Nr:Datum:Temp:Feuchte:
Aussen-T/F 601 24-08-2020 04:04:17 16.4 C 34 %
602 24-08-2020 04:14:17 16.5 C 33 %
603 24-08-2020 04:24:17 16.4 C 33 %
604 24-08-2020 04:34:17 16.5 C 33 %
605 24-08-2020 04:44:17 16.4 C 33 %
606 24-08-2020 04:54:17 16.4 C 34 %
607 24-08-2020 05:04:17 16.3 C 34 %
608 24-08-2020 05:14:17 15.8 C 35 %
609 24-08-2020 05:24:17 16.1 C 34 %
610 24-08-2020 05:34:17 15.7 C 35 %
611 24-08-2020 05:44:17 15.9 C 35 %
612 24-08-2020 05:54:17 15.8 C 35 %
613 24-08-2020 06:04:18 15.8 C 35 %
614 24-08-2020 06:14:18 15.8 C 35 %
615 24-08-2020 06:24:17 15.8 C 35 %
616 24-08-2020 06:34:17 15.6 C 35 %
617 24-08-2020 06:44:17 15.2 C 35 %
618 24-08-2020 06:54:17 14.7 C 36 %
619 24-08-2020 07:04:18 14.5 C 36 %
620 24-08-2020 07:14:18 14.7 C 36 %
621 24-08-2020 07:24:17 14.5 C 36 %
622 24-08-2020 07:34:18 14.4 C 36 %
623 24-08-2020 07:44:18 14.2 C 37 %
624 24-08-2020 07:54:17 14.3 C 36 %
625 24-08-2020 08:04:18 14.5 C 36 %
Sensor: Nr:Datum:Temp:Feuchte:
Aussen-T/F 626 24-08-2020 08:14:18 14.5 C 36 %
627 24-08-2020 08:24:18 15.2 C 35 %
628 24-08-2020 08:34:18 15.3 C 34 %
629 24-08-2020 08:44:18 15.4 C 34 %
630 24-08-2020 08:54:18 15.9 C 33 %
631 24-08-2020 09:04:17 16.5 C 32 %
632 24-08-2020 09:14:17 16.4 C 32 %
633 24-08-2020 09:24:17 16.6 C 32 %
634 24-08-2020 09:34:17 16.8 C 32 %
635 24-08-2020 09:44:17 17 C 31 %
636 24-08-2020 09:54:17 17.3 C 31 %
637 24-08-2020 10:04:18 17.7 C 31 %
638 24-08-2020 10:14:18 18.3 C 30 %
639 24-08-2020 10:24:17 18.5 C 30 %
640 24-08-2020 10:34:17 18.5 C 30 %
641 24-08-2020 10:44:17 19 C 28 %
642 24-08-2020 10:54:17 18.9 C 29 %
643 24-08-2020 11:04:18 19.6 C 28 %
644 24-08-2020 11:14:18 19.6 C 27 %
645 24-08-2020 11:24:17 19.5 C 28 %
646 24-08-2020 11:34:17 19.7 C 28 %
647 24-08-2020 11:44:17 19.9 C 27 %
648 24-08-2020 11:54:17 19.5 C 27 %
649 24-08-2020 12:04:18 20.4 C 27 %
650 24-08-2020 12:14:18 20.6 C 27 %
Sensor: Nr:Datum:Temp:Feuchte:
Aussen-T/F 651 24-08-2020 12:24:18 19.8 C 27 %
652 24-08-2020 12:34:17 19.4 C 27 %
653 24-08-2020 12:44:17 20.8 C 27 %
654 24-08-2020 12:54:17 21 C 26 %
655 24-08-2020 13:04:18 21.6 C 25 %
656 24-08-2020 13:14:18 20.5 C 26 %
657 24-08-2020 13:24:17 20.4 C 26 %
658 24-08-2020 13:34:17 19.9 C 27 %
659 24-08-2020 13:44:17 18.4 C 29 %
660 24-08-2020 13:54:17 20.2 C 27 %
661 24-08-2020 14:04:17 22.2 C 25 %
662 24-08-2020 14:14:17 21.2 C 25 %
663 24-08-2020 14:24:18 20.7 C 26 %
664 24-08-2020 14:34:18 21.2 C 25 %
665 24-08-2020 14:44:18 21.9 C 25 %
666 24-08-2020 14:54:17 22 C 24 %
667 24-08-2020 15:04:17 20.9 C 25 %
668 24-08-2020 15:14:17 23 C 21 %
669 24-08-2020 15:24:17 22.5 C 22 %
670 24-08-2020 15:34:17 25.7 C 20 %
671 24-08-2020 15:44:18 23.9 C 20 %
672 24-08-2020 15:54:18 23.2 C 20 %
673 24-08-2020 16:04:17 24.5 C 20 %
674 24-08-2020 16:14:17 22 C 21 %
675 24-08-2020 16:24:18 23.7 C 20 %
Sensor: Nr:Datum:Temp:Feuchte:
Aussen-T/F 676 24-08-2020 16:34:17 23.3 C 20 %
677 24-08-2020 16:44:17 23.7 C 20 %
678 24-08-2020 16:54:17 22.6 C 20 %
679 24-08-2020 17:04:17 22.8 C 20 %
680 24-08-2020 17:14:17 23.4 C 20 %
681 24-08-2020 17:24:17 24.9 C 20 %
682 24-08-2020 17:34:17 25.9 C 20 %
683 24-08-2020 17:44:17 24.7 C 20 %
684 24-08-2020 17:54:17 24.7 C 20 %
685 24-08-2020 18:04:17 23.1 C 20 %
686 24-08-2020 18:14:17 23.1 C 20 %
687 24-08-2020 18:24:18 22.3 C 20 %
688 24-08-2020 18:34:18 22 C 20 %
689 24-08-2020 18:44:18 21.6 C 21 %
690 24-08-2020 18:54:17 22.2 C 20 %
691 24-08-2020 19:04:17 21.4 C 22 %
692 24-08-2020 19:14:17 20.7 C 23 %
693 24-08-2020 19:24:17 20.6 C 24 %
694 24-08-2020 19:34:17 20.8 C 23 %
695 24-08-2020 19:44:17 20.8 C 23 %
696 24-08-2020 19:54:18 20.8 C 23 %
697 24-08-2020 20:04:17 20.7 C 23 %
698 24-08-2020 20:14:18 20.6 C 25 %
699 24-08-2020 20:24:17 20.4 C 24 %
700 24-08-2020 20:34:17 19.7 C 26 %
Sensor: Nr:Datum:Temp:Feuchte:
Aussen-T/F 701 24-08-2020 20:44:17 19.1 C 27 %
702 24-08-2020 20:54:18 18.8 C 28 %
703 24-08-2020 21:04:17 18.5 C 29 %
704 24-08-2020 21:14:17 18.3 C 29 %
705 24-08-2020 21:24:17 18 C 30 %
706 24-08-2020 21:34:17 18.1 C 30 %
707 24-08-2020 21:44:17 17.9 C 31 %
708 24-08-2020 21:54:17 17.3 C 31 %
709 24-08-2020 22:04:17 17.1 C 31 %
710 24-08-2020 22:14:17 17.2 C 31 %
711 24-08-2020 22:24:17 17.1 C 31 %
712 24-08-2020 22:34:17 16.8 C 32 %
713 24-08-2020 22:44:17 17 C 31 %
714 24-08-2020 22:54:18 17.1 C 31 %
715 24-08-2020 23:04:17 17.2 C 31 %
716 24-08-2020 23:14:17 17.5 C 31 %
717 24-08-2020 23:24:17 17.6 C 31 %
718 24-08-2020 23:34:17 17.4 C 31 %
719 24-08-2020 23:44:18 17.2 C 32 %
720 24-08-2020 23:54:17 17.1 C 31 %
721 25-08-2020 00:04:18 17.1 C 31 %
722 25-08-2020 00:14:18 17 C 32 %
723 25-08-2020 00:24:17 17 C 32 %
724 25-08-2020 00:34:18 17.3 C 31 %
725 25-08-2020 00:44:18 17.4 C 31 %
Sensor: Nr:Datum:Temp:Feuchte:
Aussen-T/F 726 25-08-2020 00:54:18 17.6 C 31 %
727 25-08-2020 01:04:17 17.7 C 31 %
728 25-08-2020 01:14:17 17.4 C 31 %
729 25-08-2020 01:24:17 17.2 C 32 %
730 25-08-2020 01:34:18 17.1 C 32 %
731 25-08-2020 01:44:18 17 C 32 %
732 25-08-2020 01:54:17 16.9 C 32 %
733 25-08-2020 02:04:18 16.9 C 32 %
734 25-08-2020 02:14:18 16.9 C 32 %
735 25-08-2020 02:24:17 16.1 C 35 %
736 25-08-2020 02:34:18 16.2 C 35 %
737 25-08-2020 02:44:18 16.2 C 36 %
738 25-08-2020 02:54:17 16.1 C 36 %
739 25-08-2020 03:04:17 16.1 C 35 %
740 25-08-2020 03:14:17 16 C 35 %
741 25-08-2020 03:24:17 15.9 C 36 %
742 25-08-2020 03:34:18 15.8 C 36 %
743 25-08-2020 03:44:18 15.4 C 36 %
744 25-08-2020 03:54:18 15.2 C 36 %
745 25-08-2020 04:04:17 14.8 C 36 %
746 25-08-2020 04:14:17 14.5 C 37 %
747 25-08-2020 04:24:17 14.4 C 37 %
748 25-08-2020 04:34:17 14.2 C 37 %
749 25-08-2020 04:44:17 13.8 C 38 %
750 25-08-2020 04:54:17 13.7 C 39 %
Sensor: Nr:Datum:Temp:Feuchte:
Aussen-T/F 751 25-08-2020 05:04:18 13.2 C 40 %
752 25-08-2020 05:14:18 13.4 C 40 %
753 25-08-2020 05:24:17 13.3 C 40 %
754 25-08-2020 05:34:18 12.9 C 41 %
755 25-08-2020 05:44:18 12.5 C 42 %
756 25-08-2020 05:54:17 12.6 C 43 %
757 25-08-2020 06:04:17 12.6 C 42 %
758 25-08-2020 06:14:17 12.3 C 42 %
759 25-08-2020 06:24:17 12.4 C 42 %
760 25-08-2020 06:34:18 12.2 C 42 %
761 25-08-2020 06:44:18 12.3 C 43 %
762 25-08-2020 06:54:17 12.5 C 43 %
763 25-08-2020 07:04:18 12.8 C 43 %
764 25-08-2020 07:14:18 13.1 C 41 %
765 25-08-2020 07:24:17 13.2 C 41 %
766 25-08-2020 07:34:18 13.7 C 41 %
767 25-08-2020 07:44:18 14.1 C 39 %
768 25-08-2020 07:54:17 14.4 C 39 %
769 25-08-2020 08:04:17 14.9 C 37 %
770 25-08-2020 08:14:17 15.3 C 36 %
771 25-08-2020 08:24:17 15.6 C 36 %
772 25-08-2020 08:34:17 15.6 C 35 %
773 25-08-2020 08:44:17 16 C 35 %
774 25-08-2020 08:54:17 16.3 C 35 %
775 25-08-2020 09:04:17 16.5 C 35 %
Sensor: Nr:Datum:Temp:Feuchte:
Aussen-T/F 776 25-08-2020 09:14:17 16.5 C 35 %
777 25-08-2020 09:24:17 16.8 C 34 %
778 25-08-2020 09:34:18 17 C 33 %
779 25-08-2020 09:44:18 17.4 C 33 %
780 25-08-2020 09:54:18 17.7 C 33 %
781 25-08-2020 10:04:18 18 C 32 %
782 25-08-2020 10:14:18 18 C 32 %
783 25-08-2020 10:24:17 18 C 32 %
784 25-08-2020 10:34:18 18.4 C 32 %
785 25-08-2020 10:44:18 19.1 C 31 %
786 25-08-2020 10:54:17 19.6 C 31 %
787 25-08-2020 11:04:18 20.5 C 30 %
788 25-08-2020 11:14:18 20.7 C 30 %
789 25-08-2020 11:24:17 21.6 C 28 %
790 25-08-2020 11:34:18 23.1 C 25 %
791 25-08-2020 11:44:18 23 C 23 %
792 25-08-2020 11:54:18 23.4 C 23 %
793 25-08-2020 12:04:17 23 C 23 %
794 25-08-2020 12:14:17 22.9 C 24 %
795 25-08-2020 12:24:17 22.9 C 23 %
796 25-08-2020 12:34:18 23.5 C 23 %
797 25-08-2020 12:44:18 23.9 C 22 %
798 25-08-2020 12:54:17 24.5 C 22 %
799 25-08-2020 13:04:18 24 C 22 %
800 25-08-2020 13:14:18 23.8 C 22 %
Sensor: Nr:Datum:Temp:Feuchte:
Aussen-T/F 801 25-08-2020 13:24:17 24.6 C 21 %
802 25-08-2020 13:34:17 24.9 C 21 %
803 25-08-2020 13:44:17 24.4 C 21 %
804 25-08-2020 13:54:17 23.8 C 22 %
805 25-08-2020 14:04:17 23.6 C 22 %
806 25-08-2020 14:14:18 23.1 C 22 %
807 25-08-2020 14:24:17 22.7 C 22 %
808 25-08-2020 14:34:18 22.9 C 22 %
809 25-08-2020 14:44:18 23.2 C 22 %
810 25-08-2020 14:54:17 23.1 C 22 %
811 25-08-2020 15:04:17 23.3 C 22 %
812 25-08-2020 15:14:17 23.2 C 22 %
813 25-08-2020 15:24:18 23.1 C 23 %
814 25-08-2020 15:34:17 22.8 C 24 %
815 25-08-2020 15:44:17 22.3 C 25 %
816 25-08-2020 15:54:17 21 C 29 %
817 25-08-2020 16:04:17 19.9 C 33 %
818 25-08-2020 16:14:18 19.6 C 35 %
819 25-08-2020 16:24:17 20.1 C 34 %
820 25-08-2020 16:34:17 21.6 C 30 %
821 25-08-2020 16:44:17 21.7 C 31 %
822 25-08-2020 16:54:17 21.6 C 31 %
823 25-08-2020 17:04:18 21.6 C 31 %
824 25-08-2020 17:14:18 21.9 C 31 %
825 25-08-2020 17:24:17 22.2 C 28 %
Sensor: Nr:Datum:Temp:Feuchte:
Aussen-T/F 826 25-08-2020 17:34:17 22.5 C 29 %
827 25-08-2020 17:44:17 23.8 C 25 %
828 25-08-2020 17:54:17 28.4 C 20 %
829 25-08-2020 18:04:17 26.5 C 20 %
830 25-08-2020 18:14:17 25.3 C 20 %
831 25-08-2020 18:24:18 24.7 C 21 %
832 25-08-2020 18:34:17 25.3 C 20 %
833 25-08-2020 18:44:18 25.1 C 20 %
834 25-08-2020 18:54:17 25.2 C 20 %
835 25-08-2020 19:04:18 25.1 C 20 %
836 25-08-2020 19:14:18 24.6 C 21 %
837 25-08-2020 19:24:17 23.8 C 22 %
838 25-08-2020 19:34:17 22.9 C 24 %
839 25-08-2020 19:44:17 22.5 C 25 %
840 25-08-2020 19:54:17 22.5 C 24 %
841 25-08-2020 20:04:17 22.5 C 24 %
842 25-08-2020 20:14:18 22.3 C 24 %
843 25-08-2020 20:24:17 22.8 C 22 %
844 25-08-2020 20:34:18 22.5 C 22 %
845 25-08-2020 20:44:18 22.6 C 23 %
846 25-08-2020 20:54:18 22.2 C 23 %
847 25-08-2020 21:04:18 21.8 C 24 %
848 25-08-2020 21:14:18 21.6 C 24 %
849 25-08-2020 21:24:17 20.3 C 25 %
850 25-08-2020 21:34:18 20.3 C 25 %
Sensor: Nr:Datum:Temp:Feuchte:
Aussen-T/F 851 25-08-2020 21:44:18 20.2 C 25 %
852 25-08-2020 21:54:17 20 C 25 %
853 25-08-2020 22:04:17 20.8 C 25 %
854 25-08-2020 22:14:17 20.4 C 25 %
855 25-08-2020 22:24:17 20.8 C 24 %
856 25-08-2020 22:34:17 20.8 C 24 %
857 25-08-2020 22:44:18 21.2 C 23 %
858 25-08-2020 22:54:17 20.6 C 24 %
859 25-08-2020 23:04:17 20.9 C 25 %
860 25-08-2020 23:14:17 21 C 23 %
861 25-08-2020 23:24:17 20.7 C 25 %
862 25-08-2020 23:34:17 20.3 C 25 %
863 25-08-2020 23:44:17 20.4 C 25 %
864 25-08-2020 23:54:17 20.2 C 25 %
865 26-08-2020 00:04:17 21.2 C 24 %
866 26-08-2020 00:14:17 21.4 C 24 %
867 26-08-2020 00:24:17 21.7 C 24 %
868 26-08-2020 00:34:18 21.5 C 24 %
869 26-08-2020 00:44:18 21.2 C 25 %
870 26-08-2020 00:54:18 20.8 C 26 %
871 26-08-2020 01:04:18 21.4 C 25 %
872 26-08-2020 01:14:18 21.9 C 25 %
873 26-08-2020 01:24:17 21.4 C 25 %
874 26-08-2020 01:34:17 21.9 C 25 %
875 26-08-2020 01:44:17 22.7 C 25 %
Sensor: Nr:Datum:Temp:Feuchte:
Aussen-T/F 876 26-08-2020 01:54:17 22.7 C 25 %
877 26-08-2020 02:04:17 22.9 C 25 %
878 26-08-2020 02:14:17 22.7 C 25 %
879 26-08-2020 02:24:17 22.9 C 25 %
880 26-08-2020 02:34:17 22.4 C 25 %
881 26-08-2020 02:44:18 22 C 25 %
882 26-08-2020 02:54:17 22.6 C 25 %
883 26-08-2020 03:04:18 22.3 C 25 %
884 26-08-2020 03:14:18 22.3 C 25 %
885 26-08-2020 03:24:17 21.9 C 26 %
886 26-08-2020 03:34:17 21.9 C 25 %
887 26-08-2020 03:44:17 21.4 C 25 %
888 26-08-2020 03:54:17 21.1 C 25 %
889 26-08-2020 04:04:18 21 C 25 %
890 26-08-2020 04:14:18 20.8 C 26 %
891 26-08-2020 04:24:17 20.6 C 26 %
892 26-08-2020 04:34:17 20.2 C 26 %
893 26-08-2020 04:44:17 20.5 C 25 %
894 26-08-2020 04:54:17 20.5 C 25 %
895 26-08-2020 05:04:17 20.4 C 25 %
896 26-08-2020 05:14:17 20.3 C 25 %
897 26-08-2020 05:24:17 20.2 C 25 %
898 26-08-2020 05:34:17 20 C 25 %
899 26-08-2020 05:44:17 20 C 24 %
900 26-08-2020 05:54:17 20 C 24 %
Sensor: Nr:Datum:Temp:Feuchte:
Aussen-T/F 901 26-08-2020 06:04:17 19.9 C 25 %
902 26-08-2020 06:14:17 19.8 C 25 %
903 26-08-2020 06:24:17 19.7 C 25 %
904 26-08-2020 06:34:18 19.6 C 25 %
905 26-08-2020 06:44:18 19.4 C 25 %
906 26-08-2020 06:54:17 19.4 C 25 %
907 26-08-2020 07:04:17 19.4 C 25 %
908 26-08-2020 07:14:17 19.4 C 25 %
909 26-08-2020 07:24:17 19.4 C 24 %
910 26-08-2020 07:34:17 19.4 C 25 %
911 26-08-2020 07:44:17 19.4 C 25 %
912 26-08-2020 07:54:17 19.4 C 25 %
913 26-08-2020 08:04:17 19.5 C 25 %
914 26-08-2020 08:14:17 19.4 C 25 %
915 26-08-2020 08:24:17 19.5 C 25 %
916 26-08-2020 08:34:18 19.5 C 25 %
917 26-08-2020 08:44:18 19.6 C 25 %
918 26-08-2020 08:54:17 19.6 C 25 %
919 26-08-2020 09:04:17 19.5 C 25 %
920 26-08-2020 09:14:17 19.5 C 25 %
921 26-08-2020 09:24:17 19.7 C 25 %
922 26-08-2020 09:34:17 19.8 C 25 %
923 26-08-2020 09:44:17 19.6 C 25 %
924 26-08-2020 09:54:18 19.7 C 25 %
925 26-08-2020 10:04:18 19.7 C 25 %
Sensor: Nr:Datum:Temp:Feuchte:
Aussen-T/F 926 26-08-2020 10:14:18 19.8 C 25 %
927 26-08-2020 10:24:17 20 C 25 %
928 26-08-2020 10:34:18 19.8 C 25 %
929 26-08-2020 10:44:18 19.7 C 25 %
930 26-08-2020 10:54:17 19.8 C 25 %
931 26-08-2020 11:04:18 19.7 C 25 %
932 26-08-2020 11:14:18 19.7 C 25 %
933 26-08-2020 11:24:17 20 C 24 %
934 26-08-2020 11:34:18 20.2 C 24 %
935 26-08-2020 11:44:18 20.7 C 24 %
936 26-08-2020 11:54:17 20.7 C 24 %
937 26-08-2020 12:04:18 20.4 C 24 %
938 26-08-2020 12:14:18 20.4 C 25 %
939 26-08-2020 12:24:17 20.2 C 25 %
940 26-08-2020 12:34:17 20.2 C 25 %
941 26-08-2020 12:44:17 20.5 C 25 %
942 26-08-2020 12:54:17 20.7 C 25 %
943 26-08-2020 13:04:18 21.2 C 24 %
944 26-08-2020 13:14:18 21.7 C 23 %
945 26-08-2020 13:24:18 21.4 C 24 %
946 26-08-2020 13:34:17 22 C 22 %
947 26-08-2020 13:44:17 22.5 C 22 %
948 26-08-2020 13:54:17 22.5 C 22 %
949 26-08-2020 14:04:18 22 C 22 %
950 26-08-2020 14:14:18 22.4 C 22 %
Sensor: Nr:Datum:Temp:Feuchte:
Aussen-T/F 951 26-08-2020 14:24:17 22 C 21 %
952 26-08-2020 14:34:18 24.2 C 20 %
953 26-08-2020 14:44:18 22.4 C 21 %
954 26-08-2020 14:54:17 22.3 C 21 %
955 26-08-2020 15:04:17 22.7 C 21 %
956 26-08-2020 15:14:17 22.9 C 21 %
957 26-08-2020 15:24:17 24.5 C 20 %
958 26-08-2020 15:34:17 24.9 C 20 %
959 26-08-2020 15:44:17 24.3 C 20 %
960 26-08-2020 15:54:17 24.3 C 20 %
961 26-08-2020 16:04:18 23.3 C 20 %
962 26-08-2020 16:14:18 23.7 C 20 %
963 26-08-2020 16:24:17 23.3 C 20 %
964 26-08-2020 16:34:17 24.6 C 20 %
965 26-08-2020 16:44:17 23.8 C 20 %
966 26-08-2020 16:54:18 23.3 C 20 %
967 26-08-2020 17:04:18 23.2 C 20 %
968 26-08-2020 17:14:18 23.2 C 20 %
969 26-08-2020 17:24:17 23.2 C 20 %
970 26-08-2020 17:34:17 23.1 C 20 %
971 26-08-2020 17:44:17 23 C 20 %
972 26-08-2020 17:54:17 22.9 C 20 %
973 26-08-2020 18:04:17 22.9 C 20 %
974 26-08-2020 18:14:17 22.9 C 20 %
975 26-08-2020 18:24:17 22.7 C 20 %
Sensor: Nr:Datum:Temp:Feuchte:
Aussen-T/F 976 26-08-2020 18:34:17 22.6 C 21 %
977 26-08-2020 18:44:17 22.3 C 21 %
978 26-08-2020 18:54:17 22.3 C 21 %
979 26-08-2020 19:04:18 22.1 C 21 %
980 26-08-2020 19:14:18 21.9 C 22 %
981 26-08-2020 19:24:17 21.8 C 22 %
982 26-08-2020 19:34:18 21.7 C 22 %
983 26-08-2020 19:44:18 21.4 C 22 %
984 26-08-2020 19:54:17 21.2 C 23 %
985 26-08-2020 20:04:17 21 C 23 %
986 26-08-2020 20:14:17 20.9 C 24 %
987 26-08-2020 20:24:18 20.7 C 25 %
988 26-08-2020 20:34:17 20.4 C 25 %
989 26-08-2020 20:44:17 20.3 C 25 %
990 26-08-2020 20:54:17 20.2 C 25 %
991 26-08-2020 21:04:17 20 C 25 %
992 26-08-2020 21:14:17 20 C 25 %
993 26-08-2020 21:24:17 20 C 25 %
994 26-08-2020 21:34:18 19.9 C 25 %
995 26-08-2020 21:44:18 19.7 C 26 %
996 26-08-2020 21:54:17 19.7 C 25 %
997 26-08-2020 22:04:18 19.6 C 25 %
998 26-08-2020 22:14:18 19.6 C 26 %
999 26-08-2020 22:24:18 19.3 C 26 %
1000 26-08-2020 22:34:17 19.3 C 26 %
Sensor: Nr:Datum:Temp:Feuchte:
Aussen-T/F 1001 26-08-2020 22:44:17 19.1 C 26 %
1002 26-08-2020 22:54:17 19 C 26 %
1003 26-08-2020 23:04:17 19 C 26 %
1004 26-08-2020 23:14:17 18.9 C 27 %
1005 26-08-2020 23:24:17 18.6 C 27 %
1006 26-08-2020 23:34:18 18.7 C 27 %
1007 26-08-2020 23:44:18 18.6 C 27 %
1008 26-08-2020 23:54:18 18.4 C 27 %
1009 27-08-2020 00:04:17 18.4 C 27 %
1010 27-08-2020 00:14:17 18.3 C 27 %
1011 27-08-2020 00:24:17 18 C 28 %
1012 27-08-2020 00:34:17 17.8 C 29 %
1013 27-08-2020 00:44:17 17.8 C 29 %
1014 27-08-2020 00:54:17 17.8 C 29 %
1015 27-08-2020 01:04:18 17.8 C 29 %
1016 27-08-2020 01:14:18 17.6 C 29 %
1017 27-08-2020 01:24:18 16.9 C 30 %
1018 27-08-2020 01:34:18 16.4 C 31 %
1019 27-08-2020 01:44:18 15.9 C 32 %
1020 27-08-2020 01:54:17 16 C 32 %
1021 27-08-2020 02:04:17 15.6 C 33 %
1022 27-08-2020 02:14:17 16.4 C 32 %
1023 27-08-2020 02:24:17 16.4 C 32 %
1024 27-08-2020 02:34:17 16.7 C 32 %
1025 27-08-2020 02:44:17 16.4 C 32 %
Sensor: Nr:Datum:Temp:Feuchte:
Aussen-T/F 1026 27-08-2020 02:54:18 16.2 C 32 %
1027 27-08-2020 03:04:18 15.7 C 33 %
1028 27-08-2020 03:14:18 14.8 C 35 %
1029 27-08-2020 03:24:17 14.7 C 35 %
1030 27-08-2020 03:34:17 14.4 C 35 %
1031 27-08-2020 03:44:18 14 C 36 %
1032 27-08-2020 03:54:17 14.1 C 36 %
1033 27-08-2020 04:04:17 13.7 C 38 %
1034 27-08-2020 04:14:17 13.4 C 38 %
1035 27-08-2020 04:24:17 13.2 C 39 %
1036 27-08-2020 04:34:18 13.3 C 38 %
1037 27-08-2020 04:44:18 13.4 C 38 %
1038 27-08-2020 04:54:17 13.3 C 39 %
1039 27-08-2020 05:04:17 13 C 39 %
1040 27-08-2020 05:14:17 12.6 C 40 %
1041 27-08-2020 05:24:18 12.4 C 41 %
1042 27-08-2020 05:34:18 12.9 C 41 %
1043 27-08-2020 05:44:18 12.8 C 41 %
1044 27-08-2020 05:54:17 12.5 C 41 %
1045 27-08-2020 06:04:17 12.5 C 41 %
1046 27-08-2020 06:14:17 12.5 C 41 %
1047 27-08-2020 06:24:17 12.7 C 41 %
1048 27-08-2020 06:34:18 12.5 C 41 %
1049 27-08-2020 06:44:18 12.5 C 41 %
1050 27-08-2020 06:54:17 12.4 C 41 %
Sensor: Nr:Datum:Temp:Feuchte:
Aussen-T/F 1051 27-08-2020 07:04:18 12.2 C 42 %
1052 27-08-2020 07:14:18 12.2 C 42 %
1053 27-08-2020 07:24:17 12.8 C 41 %
1054 27-08-2020 07:34:17 12.6 C 40 %
1055 27-08-2020 07:44:18 12.7 C 40 %
1056 27-08-2020 07:54:17 13 C 39 %
1057 27-08-2020 08:04:17 13 C 39 %
1058 27-08-2020 08:14:17 13.1 C 39 %
1059 27-08-2020 08:24:17 13.8 C 38 %
1060 27-08-2020 08:34:18 14.1 C 36 %
1061 27-08-2020 08:44:18 14.5 C 36 %
1062 27-08-2020 08:54:17 15.4 C 35 %
1063 27-08-2020 09:04:18 15.9 C 34 %
1064 27-08-2020 09:14:18 16.3 C 33 %
1065 27-08-2020 09:24:18 16.4 C 33 %
1066 27-08-2020 09:34:17 17 C 32 %
1067 27-08-2020 09:44:17 17.5 C 31 %
1068 27-08-2020 09:54:17 17.3 C 32 %
1069 27-08-2020 10:04:17 16.8 C 32 %
1070 27-08-2020 10:14:17 16.9 C 32 %
1071 27-08-2020 10:24:17 17.5 C 32 %
1072 27-08-2020 10:34:17 18 C 31 %
1073 27-08-2020 10:44:17 19.2 C 30 %
1074 27-08-2020 10:54:17 19.7 C 30 %
1075 27-08-2020 11:04:17 20.8 C 28 %
Sensor: Nr:Datum:Temp:Feuchte:
Aussen-T/F 1076 27-08-2020 11:14:17 20 C 28 %
1077 27-08-2020 11:24:18 20.3 C 28 %
1078 27-08-2020 11:34:17 19.7 C 28 %
1079 27-08-2020 11:44:18 20.4 C 28 %
1080 27-08-2020 11:54:17 20.6 C 27 %
1081 27-08-2020 12:04:17 20.4 C 27 %
1082 27-08-2020 12:14:17 20.6 C 27 %
1083 27-08-2020 12:24:17 20.9 C 27 %
1084 27-08-2020 12:34:18 20.6 C 26 %
1085 27-08-2020 12:44:18 21.3 C 26 %
1086 27-08-2020 12:54:17 21.6 C 25 %
1087 27-08-2020 13:04:17 21.7 C 25 %
1088 27-08-2020 13:14:17 21.2 C 25 %
1089 27-08-2020 13:24:17 20.4 C 26 %
1090 27-08-2020 13:34:18 21.1 C 25 %
1091 27-08-2020 13:44:18 21.2 C 25 %
1092 27-08-2020 13:54:17 21.7 C 25 %
1093 27-08-2020 14:04:17 22.3 C 23 %
1094 27-08-2020 14:14:17 22.1 C 23 %
1095 27-08-2020 14:24:18 23.6 C 22 %
1096 27-08-2020 14:34:17 25.6 C 20 %
1097 27-08-2020 14:44:18 25.3 C 20 %
1098 27-08-2020 14:54:17 27.5 C 20 %
1099 27-08-2020 15:04:18 26.2 C 20 %
1100 27-08-2020 15:14:18 28.3 C 20 %
Sensor: Nr:Datum:Temp:Feuchte:
Aussen-T/F 1101 27-08-2020 15:24:17 27.6 C 20 %
1102 27-08-2020 15:34:17 29.9 C 20 %
1103 27-08-2020 15:44:17 29.5 C 20 %
1104 27-08-2020 15:54:17 29.4 C 20 %
1105 27-08-2020 16:04:17 31 C 20 %
1106 27-08-2020 16:14:17 29.2 C 20 %
1107 27-08-2020 16:24:17 29.2 C 20 %
1108 27-08-2020 16:34:17 29.8 C 20 %
1109 27-08-2020 16:44:17 30.5 C 20 %
1110 27-08-2020 16:54:18 27.9 C 20 %
1111 27-08-2020 17:04:18 29.4 C 20 %
1112 27-08-2020 17:14:18 29.5 C 20 %
1113 27-08-2020 17:24:17 29.6 C 20 %
1114 27-08-2020 17:34:18 28.7 C 20 %
1115 27-08-2020 17:44:18 28.8 C 20 %
1116 27-08-2020 17:54:17 28.1 C 20 %
1117 27-08-2020 18:04:18 26 C 20 %
1118 27-08-2020 18:14:18 25.3 C 20 %
1119 27-08-2020 18:24:17 24.8 C 20 %
1120 27-08-2020 18:34:17 25 C 20 %
1121 27-08-2020 18:44:17 24.7 C 20 %
1122 27-08-2020 18:54:17 24.6 C 20 %
1123 27-08-2020 19:04:17 24.4 C 20 %
1124 27-08-2020 19:14:17 24 C 20 %
1125 27-08-2020 19:24:17 23.7 C 20 %
Sensor: Nr:Datum:Temp:Feuchte:
Aussen-T/F 1126 27-08-2020 19:34:17 23.1 C 20 %
1127 27-08-2020 19:44:18 22.5 C 20 %
1128 27-08-2020 19:54:17 20.9 C 23 %
1129 27-08-2020 20:04:18 20.2 C 24 %
1130 27-08-2020 20:14:18 19.8 C 25 %
1131 27-08-2020 20:24:18 19.5 C 25 %
1132 27-08-2020 20:34:17 19 C 25 %
1133 27-08-2020 20:44:17 18.8 C 26 %
1134 27-08-2020 20:54:17 18.5 C 26 %
1135 27-08-2020 21:04:18 18.5 C 26 %
1136 27-08-2020 21:14:18 18.2 C 26 %
1137 27-08-2020 21:24:17 18.2 C 26 %
1138 27-08-2020 21:34:17 18.2 C 26 %
1139 27-08-2020 21:44:17 18.3 C 26 %
1140 27-08-2020 21:54:17 18 C 26 %
1141 27-08-2020 22:04:17 18.1 C 26 %
1142 27-08-2020 22:14:17 17.7 C 27 %
1143 27-08-2020 22:24:17 17.7 C 27 %
1144 27-08-2020 22:34:17 17.2 C 28 %
1145 27-08-2020 22:44:17 17.4 C 29 %
1146 27-08-2020 22:54:18 18 C 27 %
1147 27-08-2020 23:04:17 18.2 C 27 %
1148 27-08-2020 23:14:17 17.4 C 31 %
1149 27-08-2020 23:24:17 17.7 C 31 %
1150 27-08-2020 23:34:17 16.8 C 35 %
Sensor: Nr:Datum:Temp:Feuchte:
Aussen-T/F 1151 27-08-2020 23:44:17 16.4 C 36 %
1152 27-08-2020 23:54:17 16.6 C 36 %
1153 28-08-2020 00:04:18 16.9 C 35 %
1154 28-08-2020 00:14:18 17 C 34 %
1155 28-08-2020 00:24:17 17 C 34 %
1156 28-08-2020 00:34:17 17.1 C 34 %
1157 28-08-2020 00:44:17 17.2 C 32 %
1158 28-08-2020 00:54:17 17.1 C 33 %
1159 28-08-2020 01:04:18 17 C 34 %
1160 28-08-2020 01:14:18 17.1 C 33 %
1161 28-08-2020 01:24:17 17.2 C 33 %
1162 28-08-2020 01:34:18 16.7 C 35 %
1163 28-08-2020 01:44:18 15.9 C 39 %
1164 28-08-2020 01:54:17 15.9 C 41 %
1165 28-08-2020 02:04:18 16.1 C 41 %
1166 28-08-2020 02:14:18 16 C 41 %
1167 28-08-2020 02:24:18 16 C 42 %
1168 28-08-2020 02:34:18 16 C 42 %
1169 28-08-2020 02:44:18 15.8 C 43 %
1170 28-08-2020 02:54:17 15.6 C 42 %
1171 28-08-2020 03:04:18 15.6 C 42 %
1172 28-08-2020 03:14:18 15.5 C 42 %
1173 28-08-2020 03:24:17 15.6 C 42 %
1174 28-08-2020 03:34:17 15.6 C 42 %
1175 28-08-2020 03:44:17 15.6 C 42 %
Sensor: Nr:Datum:Temp:Feuchte:
Aussen-T/F 1176 28-08-2020 03:54:17 15.5 C 42 %
1177 28-08-2020 04:04:17 15.4 C 42 %
1178 28-08-2020 04:14:17 15.5 C 42 %
1179 28-08-2020 04:24:17 15.5 C 42 %
1180 28-08-2020 04:34:17 15.6 C 42 %
1181 28-08-2020 04:44:17 15.5 C 42 %
1182 28-08-2020 04:54:17 15.8 C 41 %
1183 28-08-2020 05:04:18 15.9 C 41 %
1184 28-08-2020 05:14:18 16 C 40 %
1185 28-08-2020 05:24:17 15.6 C 42 %
1186 28-08-2020 05:34:18 15.4 C 42 %
1187 28-08-2020 05:44:18 15.2 C 43 %
1188 28-08-2020 05:54:18 15.3 C 43 %
1189 28-08-2020 06:04:17 15.3 C 42 %
1190 28-08-2020 06:14:17 15.5 C 42 %
1191 28-08-2020 06:24:17 15.5 C 42 %
1192 28-08-2020 06:34:18 15.5 C 42 %
1193 28-08-2020 06:44:18 15.6 C 41 %
1194 28-08-2020 06:54:17 15.5 C 42 %
1195 28-08-2020 07:04:18 15.5 C 42 %
1196 28-08-2020 07:14:18 15.5 C 42 %
1197 28-08-2020 07:24:17 15.5 C 42 %
1198 28-08-2020 07:34:18 15.9 C 40 %
1199 28-08-2020 07:44:18 15.8 C 41 %
1200 28-08-2020 07:54:18 16 C 40 %
Sensor: Nr:Datum:Temp:Feuchte:
Aussen-T/F 1201 28-08-2020 08:04:18 16.4 C 39 %
1202 28-08-2020 08:14:18 16.6 C 38 %
1203 28-08-2020 08:24:18 16.9 C 36 %
1204 28-08-2020 08:34:17 17 C 36 %
1205 28-08-2020 08:44:17 17.5 C 35 %
1206 28-08-2020 08:54:17 17.5 C 35 %
1207 28-08-2020 09:04:17 17.6 C 35 %
1208 28-08-2020 09:14:17 17.9 C 34 %
1209 28-08-2020 09:24:18 17.8 C 34 %
1210 28-08-2020 09:34:17 18.1 C 33 %
1211 28-08-2020 09:44:17 18.1 C 33 %
1212 28-08-2020 09:54:17 18.2 C 33 %
1213 28-08-2020 10:04:18 18.8 C 32 %
1214 28-08-2020 10:14:18 19.4 C 31 %
1215 28-08-2020 10:24:17 19.8 C 30 %
1216 28-08-2020 10:34:17 19.8 C 29 %
1217 28-08-2020 10:44:18 20 C 28 %
1218 28-08-2020 10:54:17 20.4 C 28 %
1219 28-08-2020 11:04:18 21.2 C 27 %
1220 28-08-2020 11:14:18 20.7 C 28 %
1221 28-08-2020 11:24:18 20.6 C 28 %
1222 28-08-2020 11:34:18 21.9 C 27 %
1223 28-08-2020 11:44:18 22.5 C 25 %
1224 28-08-2020 11:54:17 22.8 C 25 %
1225 28-08-2020 12:04:17 22.9 C 25 %
Sensor: Nr:Datum:Temp:Feuchte:
Aussen-T/F 1226 28-08-2020 12:14:17 22 C 25 %
1227 28-08-2020 12:24:17 22.4 C 25 %
1228 28-08-2020 12:34:17 21.5 C 26 %
1229 28-08-2020 12:44:17 21.3 C 26 %
1230 28-08-2020 12:54:17 21.8 C 26 %
1231 28-08-2020 13:04:18 22.1 C 25 %
1232 28-08-2020 13:14:18 21.8 C 26 %
1233 28-08-2020 13:24:17 21.5 C 26 %
1234 28-08-2020 13:34:18 21.6 C 26 %
1235 28-08-2020 13:44:18 21.7 C 25 %
1236 28-08-2020 13:54:17 21.5 C 26 %
1237 28-08-2020 14:04:17 22.2 C 25 %
1238 28-08-2020 14:14:17 22.5 C 25 %
1239 28-08-2020 14:24:17 22.9 C 25 %
1240 28-08-2020 14:34:18 22.7 C 25 %
1241 28-08-2020 14:44:18 22.5 C 25 %
1242 28-08-2020 14:54:17 22.5 C 25 %
1243 28-08-2020 15:04:18 21.9 C 25 %
1244 28-08-2020 15:14:18 22.7 C 25 %
1245 28-08-2020 15:24:18 22.7 C 25 %
1246 28-08-2020 15:34:17 23.8 C 23 %
1247 28-08-2020 15:44:18 24.5 C 22 %
1248 28-08-2020 15:54:18 22.9 C 24 %
1249 28-08-2020 16:04:17 23 C 23 %
1250 28-08-2020 16:14:18 22.9 C 24 %
Sensor: Nr:Datum:Temp:Feuchte:
Aussen-T/F 1251 28-08-2020 16:24:17 22 C 24 %
1252 28-08-2020 16:34:18 23.7 C 23 %
1253 28-08-2020 16:44:18 24.7 C 22 %
1254 28-08-2020 16:54:17 24.6 C 22 %
1255 28-08-2020 17:04:17 26 C 21 %
1256 28-08-2020 17:14:17 23.9 C 22 %
1257 28-08-2020 17:24:17 23.4 C 22 %
1258 28-08-2020 17:34:18 23.7 C 21 %
1259 28-08-2020 17:44:18 23 C 22 %
1260 28-08-2020 17:54:17 23.4 C 21 %
1261 28-08-2020 18:04:18 23.1 C 21 %
1262 28-08-2020 18:14:18 22 C 22 %
1263 28-08-2020 18:24:18 21.6 C 23 %
1264 28-08-2020 18:34:18 21.3 C 23 %
1265 28-08-2020 18:44:18 20.9 C 24 %
1266 28-08-2020 18:54:17 20.7 C 25 %
1267 28-08-2020 19:04:18 20.7 C 23 %
1268 28-08-2020 19:14:18 20.5 C 23 %
1269 28-08-2020 19:24:17 20.4 C 23 %
1270 28-08-2020 19:34:18 20.5 C 23 %
1271 28-08-2020 19:44:18 20.5 C 23 %
1272 28-08-2020 19:54:18 19.7 C 25 %
1273 28-08-2020 20:04:18 19.5 C 25 %
1274 28-08-2020 20:14:18 19.3 C 26 %
1275 28-08-2020 20:24:17 19.1 C 25 %
Sensor: Nr:Datum:Temp:Feuchte:
Aussen-T/F 1276 28-08-2020 20:34:17 18.2 C 26 %
1277 28-08-2020 20:44:17 16.2 C 30 %
1278 28-08-2020 20:54:17 15 C 34 %
1279 28-08-2020 21:04:18 14.2 C 37 %
1280 28-08-2020 21:14:18 13.8 C 40 %
1281 28-08-2020 21:24:17 14.2 C 38 %
1282 28-08-2020 21:34:18 14.1 C 38 %
1283 28-08-2020 21:44:18 13.6 C 40 %
1284 28-08-2020 21:54:18 13.3 C 41 %
1285 28-08-2020 22:04:17 13.2 C 40 %
1286 28-08-2020 22:14:17 13.4 C 39 %
1287 28-08-2020 22:24:18 13.5 C 38 %
1288 28-08-2020 22:34:17 13.4 C 39 %
1289 28-08-2020 22:44:17 13 C 40 %
1290 28-08-2020 22:54:17 13.2 C 40 %
1291 28-08-2020 23:04:18 12.9 C 41 %
1292 28-08-2020 23:14:18 12.3 C 41 %
1293 28-08-2020 23:24:17 12.6 C 41 %
1294 28-08-2020 23:34:17 12.4 C 41 %
1295 28-08-2020 23:44:17 12.5 C 41 %
1296 28-08-2020 23:54:17 12.4 C 41 %
1297 29-08-2020 00:04:18 12.5 C 41 %
1298 29-08-2020 00:14:18 12.5 C 40 %
1299 29-08-2020 00:24:17 12.7 C 40 %
1300 29-08-2020 00:34:18 12.6 C 41 %
Sensor: Nr:Datum:Temp:Feuchte:
Aussen-T/F 1301 29-08-2020 00:44:18 12.8 C 40 %
1302 29-08-2020 00:54:17 12.5 C 41 %
1303 29-08-2020 01:04:18 12.7 C 41 %
1304 29-08-2020 01:14:18 12.7 C 40 %
1305 29-08-2020 01:24:17 12.2 C 41 %
1306 29-08-2020 01:34:18 12.5 C 41 %
1307 29-08-2020 01:44:18 12.2 C 41 %
1308 29-08-2020 01:54:18 11.7 C 42 %
1309 29-08-2020 02:04:17 11.8 C 44 %
1310 29-08-2020 02:14:17 12.1 C 42 %
1311 29-08-2020 02:24:17 12.1 C 41 %
1312 29-08-2020 02:34:18 11.8 C 43 %
1313 29-08-2020 02:44:18 11.7 C 44 %
1314 29-08-2020 02:54:17 12 C 42 %
1315 29-08-2020 03:04:17 12 C 41 %
1316 29-08-2020 03:14:17 11.5 C 42 %
1317 29-08-2020 03:24:18 11.2 C 43 %
1318 29-08-2020 03:34:17 11.3 C 45 %
1319 29-08-2020 03:44:17 11.7 C 44 %
1320 29-08-2020 03:54:17 12 C 41 %
1321 29-08-2020 04:04:17 12 C 41 %
1322 29-08-2020 04:14:17 11.7 C 42 %
1323 29-08-2020 04:24:17 11.5 C 43 %
1324 29-08-2020 04:34:18 11.3 C 43 %
1325 29-08-2020 04:44:18 11.2 C 43 %
Sensor: Nr:Datum:Temp:Feuchte:
Aussen-T/F 1326 29-08-2020 04:54:17 10.9 C 45 %
1327 29-08-2020 05:04:17 10.8 C 45 %
1328 29-08-2020 05:14:17 11 C 44 %
1329 29-08-2020 05:24:17 11.1 C 43 %
1330 29-08-2020 05:34:18 10.7 C 45 %
1331 29-08-2020 05:44:18 10.5 C 46 %
1332 29-08-2020 05:54:17 10.4 C 46 %
1333 29-08-2020 06:04:18 10.6 C 46 %
1334 29-08-2020 06:14:18 10.4 C 46 %
1335 29-08-2020 06:24:18 10.6 C 46 %
1336 29-08-2020 06:34:17 10.7 C 45 %
1337 29-08-2020 06:44:17 10.8 C 45 %
1338 29-08-2020 06:54:18 10.9 C 45 %
1339 29-08-2020 07:04:17 11 C 44 %
1340 29-08-2020 07:14:17 10.8 C 45 %
1341 29-08-2020 07:24:17 11 C 44 %
1342 29-08-2020 07:34:17 11.1 C 44 %
1343 29-08-2020 07:44:17 11 C 44 %
1344 29-08-2020 07:54:17 11.4 C 45 %
1345 29-08-2020 08:04:17 11.8 C 45 %
1346 29-08-2020 08:14:17 12.1 C 43 %
1347 29-08-2020 08:24:18 12.4 C 43 %
1348 29-08-2020 08:34:18 12.7 C 41 %
1349 29-08-2020 08:44:18 13.4 C 39 %
1350 29-08-2020 08:54:18 13.8 C 38 %
Sensor: Nr:Datum:Temp:Feuchte:
Aussen-T/F 1351 29-08-2020 09:04:17 14.5 C 36 %
1352 29-08-2020 09:14:17 15 C 35 %
1353 29-08-2020 09:24:17 15.4 C 34 %
1354 29-08-2020 09:34:17 15.2 C 34 %
1355 29-08-2020 09:44:18 15.7 C 34 %
1356 29-08-2020 09:54:17 16 C 33 %
1357 29-08-2020 10:04:17 16.5 C 32 %
1358 29-08-2020 10:14:17 16.7 C 32 %
1359 29-08-2020 10:24:17 16.7 C 32 %
1360 29-08-2020 10:34:17 16.6 C 32 %
1361 29-08-2020 10:44:17 17.1 C 32 %
1362 29-08-2020 10:54:17 17.6 C 31 %
1363 29-08-2020 11:04:18 18.1 C 31 %
1364 29-08-2020 11:14:18 17.8 C 31 %
1365 29-08-2020 11:24:17 18.4 C 30 %
1366 29-08-2020 11:34:18 18.5 C 30 %
1367 29-08-2020 11:44:18 19.1 C 29 %
1368 29-08-2020 11:54:18 19.7 C 29 %
1369 29-08-2020 12:04:17 19.7 C 28 %
1370 29-08-2020 12:14:17 19 C 28 %
1371 29-08-2020 12:24:17 18.7 C 29 %
1372 29-08-2020 12:34:18 19.4 C 28 %
1373 29-08-2020 12:44:18 19.1 C 28 %
1374 29-08-2020 12:54:17 20 C 27 %
1375 29-08-2020 13:04:17 19.4 C 28 %
Sensor: Nr:Datum:Temp:Feuchte:
Aussen-T/F 1376 29-08-2020 13:14:17 19.7 C 28 %
1377 29-08-2020 13:24:17 20.2 C 27 %
1378 29-08-2020 13:34:18 20 C 27 %
1379 29-08-2020 13:44:18 20 C 27 %
1380 29-08-2020 13:54:17 19.7 C 27 %
1381 29-08-2020 14:04:18 20.5 C 26 %
1382 29-08-2020 14:14:18 20.6 C 26 %
1383 29-08-2020 14:24:18 21.3 C 25 %
1384 29-08-2020 14:34:18 25.2 C 20 %
1385 29-08-2020 14:44:18 25.9 C 20 %
1386 29-08-2020 14:54:17 26.1 C 20 %
1387 29-08-2020 15:04:18 24.7 C 20 %
1388 29-08-2020 15:14:18 26.6 C 20 %
1389 29-08-2020 15:24:17 28.3 C 20 %
1390 29-08-2020 15:34:18 23.2 C 20 %
1391 29-08-2020 15:44:18 23.3 C 20 %
1392 29-08-2020 15:54:17 25.9 C 20 %
1393 29-08-2020 16:04:17 27.7 C 20 %
1394 29-08-2020 16:14:17 27.9 C 20 %
1395 29-08-2020 16:24:17 27.1 C 20 %
1396 29-08-2020 16:34:18 27.9 C 20 %
1397 29-08-2020 16:44:18 24.1 C 20 %
1398 29-08-2020 16:54:17 23.7 C 20 %
1399 29-08-2020 17:04:17 26.8 C 20 %
1400 29-08-2020 17:14:17 29.2 C 20 %
Sensor: Nr:Datum:Temp:Feuchte:
Aussen-T/F 1401 29-08-2020 17:24:17 24 C 20 %
1402 29-08-2020 17:34:18 23.5 C 20 %
1403 29-08-2020 17:44:18 22.5 C 20 %
1404 29-08-2020 17:54:17 25.2 C 20 %
1405 29-08-2020 18:04:17 22.3 C 20 %
1406 29-08-2020 18:14:17 21.5 C 22 %
1407 29-08-2020 18:24:17 21.1 C 21 %
1408 29-08-2020 18:34:18 21.1 C 23 %
1409 29-08-2020 18:44:18 20.4 C 25 %
1410 29-08-2020 18:54:17 21.4 C 22 %
1411 29-08-2020 19:04:17 21.2 C 22 %
1412 29-08-2020 19:14:17 21.4 C 22 %
1413 29-08-2020 19:24:17 21.3 C 23 %
1414 29-08-2020 19:34:17 21 C 23 %
1415 29-08-2020 19:44:17 20.8 C 25 %
1416 29-08-2020 19:54:17 20.5 C 25 %
1417 29-08-2020 20:04:17 19.5 C 26 %
1418 29-08-2020 20:14:17 19.5 C 26 %
1419 29-08-2020 20:24:17 19.4 C 27 %
1420 29-08-2020 20:34:17 19.1 C 27 %
1421 29-08-2020 20:44:17 19 C 27 %
1422 29-08-2020 20:54:17 19 C 27 %
1423 29-08-2020 21:04:17 18.9 C 28 %
1424 29-08-2020 21:14:17 17.5 C 30 %
1425 29-08-2020 21:24:17 16.9 C 33 %
Sensor: Nr:Datum:Temp:Feuchte:
Aussen-T/F 1426 29-08-2020 21:34:17 15.3 C 37 %
1427 29-08-2020 21:44:17 15 C 37 %
1428 29-08-2020 21:54:17 14.4 C 39 %
1429 29-08-2020 22:04:18 14.3 C 39 %
1430 29-08-2020 22:14:18 14.1 C 41 %
1431 29-08-2020 22:24:18 14.1 C 42 %
1432 29-08-2020 22:34:17 13.7 C 41 %
1433 29-08-2020 22:44:18 13.4 C 41 %
1434 29-08-2020 22:54:17 13.1 C 41 %
1435 29-08-2020 23:04:17 13.1 C 42 %
1436 29-08-2020 23:14:17 13 C 42 %
1437 29-08-2020 23:24:18 13.2 C 43 %
1438 29-08-2020 23:34:18 13.2 C 43 %
1439 29-08-2020 23:44:18 13.4 C 42 %
1440 29-08-2020 23:54:17 13.4 C 41 %
1441 30-08-2020 00:04:18 12.9 C 43 %
1442 30-08-2020 00:14:18 12.7 C 44 %
1443 30-08-2020 00:24:18 12.5 C 44 %
1444 30-08-2020 00:34:17 12.7 C 44 %
1445 30-08-2020 00:44:18 12.7 C 44 %
1446 30-08-2020 00:54:17 12.4 C 44 %
1447 30-08-2020 01:04:18 11.8 C 45 %
1448 30-08-2020 01:14:18 12.1 C 44 %
1449 30-08-2020 01:24:18 12 C 44 %
1450 30-08-2020 01:34:18 11.7 C 45 %
Sensor: Nr:Datum:Temp:Feuchte:
Aussen-T/F 1451 30-08-2020 01:44:18 11.7 C 45 %
1452 30-08-2020 01:54:17 11.6 C 45 %
1453 30-08-2020 02:04:17 11.2 C 45 %
1454 30-08-2020 02:14:18 11 C 45 %
1455 30-08-2020 02:24:17 11.4 C 45 %
1456 30-08-2020 02:34:18 11.1 C 45 %
1457 30-08-2020 02:44:18 11 C 45 %
1458 30-08-2020 02:54:17 10.8 C 45 %
1459 30-08-2020 03:04:17 10.8 C 45 %
1460 30-08-2020 03:14:18 10.6 C 45 %
1461 30-08-2020 03:24:17 10.6 C 45 %
1462 30-08-2020 03:34:18 10.6 C 45 %
1463 30-08-2020 03:44:18 10.5 C 45 %
1464 30-08-2020 03:54:17 10.1 C 45 %
1465 30-08-2020 04:04:18 10.1 C 45 %
1466 30-08-2020 04:14:18 10.1 C 45 %
1467 30-08-2020 04:24:17 10.1 C 45 %
1468 30-08-2020 04:34:18 10.5 C 45 %
1469 30-08-2020 04:44:18 10.4 C 45 %
1470 30-08-2020 04:54:17 10.6 C 45 %
1471 30-08-2020 05:04:17 10.8 C 45 %
1472 30-08-2020 05:14:17 10.9 C 45 %
1473 30-08-2020 05:24:18 10.8 C 45 %
1474 30-08-2020 05:34:18 10.6 C 45 %
1475 30-08-2020 05:44:18 10.2 C 45 %
Sensor: Nr:Datum:Temp:Feuchte:
Aussen-T/F 1476 30-08-2020 05:54:18 10.1 C 45 %
1477 30-08-2020 06:04:17 10.2 C 45 %
1478 30-08-2020 06:14:18 10.3 C 45 %
1479 30-08-2020 06:24:17 10.5 C 45 %
1480 30-08-2020 06:34:17 10.5 C 45 %
1481 30-08-2020 06:44:18 10.4 C 45 %
1482 30-08-2020 06:54:18 10.5 C 45 %
1483 30-08-2020 07:04:17 10.7 C 45 %
1484 30-08-2020 07:14:17 10.9 C 45 %
1485 30-08-2020 07:24:17 10.8 C 45 %
1486 30-08-2020 07:34:17 11.2 C 44 %
1487 30-08-2020 07:44:18 11.4 C 44 %
1488 30-08-2020 07:54:17 11.5 C 44 %
1489 30-08-2020 08:04:18 11.6 C 44 %
1490 30-08-2020 08:14:18 11.8 C 44 %
1491 30-08-2020 08:24:18 11.8 C 44 %
1492 30-08-2020 08:34:17 12 C 43 %
1493 30-08-2020 08:44:17 12.4 C 43 %
1494 30-08-2020 08:54:17 12.6 C 43 %
1495 30-08-2020 09:04:17 13.2 C 41 %
1496 30-08-2020 09:14:17 13.5 C 41 %
1497 30-08-2020 09:24:17 14.2 C 39 %
1498 30-08-2020 09:34:17 14.3 C 37 %
1499 30-08-2020 09:44:17 14.7 C 37 %
1500 30-08-2020 09:54:17 15 C 36 %
Sensor: Nr:Datum:Temp:Feuchte:
Aussen-T/F 1501 30-08-2020 10:04:17 15.5 C 36 %
1502 30-08-2020 10:14:17 15.8 C 35 %
1503 30-08-2020 10:24:17 15.8 C 35 %
1504 30-08-2020 10:34:17 16.3 C 34 %
1505 30-08-2020 10:44:17 16.5 C 33 %
1506 30-08-2020 10:54:17 16.5 C 34 %
1507 30-08-2020 11:04:17 16.3 C 34 %
1508 30-08-2020 11:14:18 17.1 C 33 %
1509 30-08-2020 11:24:18 17.3 C 32 %
1510 30-08-2020 11:34:17 17.8 C 32 %
1511 30-08-2020 11:44:17 18 C 31 %
1512 30-08-2020 11:54:17 17.8 C 32 %
1513 30-08-2020 12:04:17 17.7 C 32 %
1514 30-08-2020 12:14:17 18.1 C 31 %
1515 30-08-2020 12:24:17 17.8 C 31 %
1516 30-08-2020 12:34:18 18.5 C 30 %
1517 30-08-2020 12:44:18 18.7 C 31 %
1518 30-08-2020 12:54:17 18.9 C 30 %
1519 30-08-2020 13:04:17 19.3 C 30 %
1520 30-08-2020 13:14:18 19.9 C 30 %
1521 30-08-2020 13:24:17 19.6 C 30 %
1522 30-08-2020 13:34:18 19.8 C 29 %
1523 30-08-2020 13:44:18 20.1 C 29 %
1524 30-08-2020 13:54:18 19.4 C 29 %
1525 30-08-2020 14:04:17 20.6 C 28 %
Sensor: Nr:Datum:Temp:Feuchte:
Aussen-T/F 1526 30-08-2020 14:14:17 21 C 27 %
1527 30-08-2020 14:24:18 20.9 C 28 %
1528 30-08-2020 14:34:17 21.4 C 26 %
1529 30-08-2020 14:44:17 21.8 C 26 %
1530 30-08-2020 14:54:17 22.7 C 25 %
1531 30-08-2020 15:04:17 23.1 C 24 %
1532 30-08-2020 15:14:17 22.7 C 24 %
1533 30-08-2020 15:24:17 23.7 C 23 %
1534 30-08-2020 15:34:18 24.8 C 21 %
1535 30-08-2020 15:44:18 26.1 C 20 %
1536 30-08-2020 15:54:17 28.7 C 20 %
1537 30-08-2020 16:04:18 28.1 C 20 %
1538 30-08-2020 16:14:18 24.8 C 20 %
1539 30-08-2020 16:24:17 22.9 C 20 %
1540 30-08-2020 16:34:17 22.8 C 20 %
1541 30-08-2020 16:44:18 23.3 C 20 %
1542 30-08-2020 16:54:17 23.4 C 20 %
1543 30-08-2020 17:04:17 22.8 C 21 %
1544 30-08-2020 17:14:17 22.1 C 21 %
1545 30-08-2020 17:24:17 23.3 C 20 %
1546 30-08-2020 17:34:17 23.9 C 20 %
1547 30-08-2020 17:44:18 24.7 C 20 %
1548 30-08-2020 17:54:17 23.7 C 20 %
1549 30-08-2020 18:04:17 22 C 20 %
1550 30-08-2020 18:14:18 22.6 C 20 %
Sensor: Nr:Datum:Temp:Feuchte:
Aussen-T/F 1551 30-08-2020 18:24:17 22.5 C 20 %
1552 30-08-2020 18:34:17 22 C 21 %
1553 30-08-2020 18:44:17 21.8 C 21 %
1554 30-08-2020 18:54:17 21.3 C 21 %
1555 30-08-2020 19:04:17 21.2 C 21 %
1556 30-08-2020 19:14:17 21 C 22 %
1557 30-08-2020 19:24:17 20.6 C 25 %
1558 30-08-2020 19:34:17 20.3 C 25 %
1559 30-08-2020 19:44:17 19.5 C 25 %
1560 30-08-2020 19:54:17 18.9 C 27 %
1561 30-08-2020 20:04:18 18.4 C 28 %
1562 30-08-2020 20:14:18 18.3 C 28 %
1563 30-08-2020 20:24:18 17.9 C 29 %
1564 30-08-2020 20:34:18 18.6 C 28 %
1565 30-08-2020 20:44:18 19.1 C 27 %
1566 30-08-2020 20:54:18 19.1 C 28 %
1567 30-08-2020 21:04:18 18.9 C 29 %
1568 30-08-2020 21:14:18 18.8 C 29 %
1569 30-08-2020 21:24:17 18.9 C 29 %
1570 30-08-2020 21:34:17 18.6 C 30 %
1571 30-08-2020 21:44:17 18.3 C 30 %
1572 30-08-2020 21:54:17 17.9 C 31 %
1573 30-08-2020 22:04:17 17.8 C 31 %
1574 30-08-2020 22:14:17 17.8 C 31 %
1575 30-08-2020 22:24:18 17.5 C 31 %
Sensor: Nr:Datum:Temp:Feuchte:
Aussen-T/F 1576 30-08-2020 22:34:18 17.3 C 32 %
1577 30-08-2020 22:44:18 17.1 C 32 %
1578 30-08-2020 22:54:18 17 C 32 %
1579 30-08-2020 23:04:18 17 C 32 %
1580 30-08-2020 23:14:18 16.7 C 33 %
1581 30-08-2020 23:24:17 16.8 C 33 %
1582 30-08-2020 23:34:17 16.8 C 33 %
1583 30-08-2020 23:44:17 16.7 C 33 %
1584 30-08-2020 23:54:17 16.2 C 34 %
1585 31-08-2020 00:04:17 16.3 C 34 %
1586 31-08-2020 00:14:17 16.3 C 34 %
1587 31-08-2020 00:24:17 15.9 C 35 %
1588 31-08-2020 00:34:17 15.9 C 35 %
1589 31-08-2020 00:44:18 15.8 C 35 %
1590 31-08-2020 00:54:17 15.7 C 35 %
1591 31-08-2020 01:04:17 15.8 C 35 %
1592 31-08-2020 01:14:17 15.9 C 35 %
1593 31-08-2020 01:24:17 16.1 C 35 %
1594 31-08-2020 01:34:17 15.9 C 35 %
1595 31-08-2020 01:44:17 15.4 C 36 %
1596 31-08-2020 01:54:17 15.2 C 36 %
1597 31-08-2020 02:04:17 15.2 C 36 %
1598 31-08-2020 02:14:17 15.5 C 36 %
1599 31-08-2020 02:24:17 15.6 C 36 %
1600 31-08-2020 02:34:17 15.8 C 36 %
Sensor: Nr:Datum:Temp:Feuchte:
Aussen-T/F 1601 31-08-2020 02:44:17 15.7 C 36 %
1602 31-08-2020 02:54:17 15.5 C 36 %
1603 31-08-2020 03:04:17 14.8 C 37 %
1604 31-08-2020 03:14:17 14.2 C 37 %
1605 31-08-2020 03:24:17 13.5 C 39 %
1606 31-08-2020 03:34:17 13.5 C 39 %
1607 31-08-2020 03:44:18 13.3 C 40 %
1608 31-08-2020 03:54:17 13.6 C 40 %
1609 31-08-2020 04:04:18 13.9 C 40 %
1610 31-08-2020 04:14:18 14 C 38 %
1611 31-08-2020 04:24:17 13.6 C 40 %
1612 31-08-2020 04:34:18 13.6 C 40 %
1613 31-08-2020 04:44:18 13.1 C 40 %
1614 31-08-2020 04:54:17 13.1 C 41 %
1615 31-08-2020 05:04:17 12.8 C 41 %
1616 31-08-2020 05:14:17 12.5 C 42 %
1617 31-08-2020 05:24:18 12.5 C 43 %
1618 31-08-2020 05:34:18 12.7 C 43 %
1619 31-08-2020 05:44:18 12.2 C 42 %
1620 31-08-2020 05:54:17 12.7 C 42 %
1621 31-08-2020 06:04:17 12.5 C 42 %
1622 31-08-2020 06:14:17 12.2 C 43 %
1623 31-08-2020 06:24:17 12 C 43 %
1624 31-08-2020 06:34:17 12.4 C 44 %
1625 31-08-2020 06:44:17 12.7 C 44 %
Sensor: Nr:Datum:Temp:Feuchte:
Aussen-T/F 1626 31-08-2020 06:54:17 13 C 42 %
1627 31-08-2020 07:04:17 13.2 C 41 %
1628 31-08-2020 07:14:18 13.4 C 41 %
1629 31-08-2020 07:24:17 13.7 C 40 %
1630 31-08-2020 07:34:18 13.7 C 40 %
1631 31-08-2020 07:44:18 14 C 39 %
1632 31-08-2020 07:54:18 14.3 C 38 %
1633 31-08-2020 08:04:18 14.3 C 38 %
1634 31-08-2020 08:14:18 14.7 C 38 %
1635 31-08-2020 08:24:17 15.2 C 37 %
1636 31-08-2020 08:34:17 15.7 C 36 %
1637 31-08-2020 08:44:18 15.8 C 36 %
1638 31-08-2020 08:54:17 15.7 C 36 %
1639 31-08-2020 09:04:18 16.2 C 35 %
1640 31-08-2020 09:14:18 16.2 C 35 %
1641 31-08-2020 09:24:17 16.3 C 35 %
1642 31-08-2020 09:34:17 16.4 C 35 %
1643 31-08-2020 09:44:18 16.8 C 35 %
1644 31-08-2020 09:54:18 17.2 C 34 %
1645 31-08-2020 10:04:17 17.2 C 34 %
1646 31-08-2020 10:14:17 17.2 C 34 %
1647 31-08-2020 10:24:17 17.4 C 34 %
1648 31-08-2020 10:34:17 17.4 C 34 %
1649 31-08-2020 10:44:17 17.8 C 34 %
1650 31-08-2020 10:54:18 18.1 C 33 %
Sensor: Nr:Datum:Temp:Feuchte:
Aussen-T/F 1651 31-08-2020 11:04:18 18.2 C 32 %
1652 31-08-2020 11:14:18 18.5 C 32 %
1653 31-08-2020 11:24:17 19.2 C 31 %
1654 31-08-2020 11:34:18 20 C 30 %
1655 31-08-2020 11:44:18 20.4 C 30 %
1656 31-08-2020 11:54:17 21 C 28 %
1657 31-08-2020 12:04:18 21.3 C 29 %
1658 31-08-2020 12:14:18 21 C 29 %
1659 31-08-2020 12:24:17 20.3 C 30 %
1660 31-08-2020 12:34:17 21.6 C 28 %
1661 31-08-2020 12:44:17 20.7 C 30 %
1662 31-08-2020 12:54:17 21 C 28 %
1663 31-08-2020 13:04:17 21.8 C 29 %
1664 31-08-2020 13:14:17 21.3 C 29 %
1665 31-08-2020 13:24:17 21.2 C 29 %
1666 31-08-2020 13:34:18 21 C 28 %
1667 31-08-2020 13:44:18 20.4 C 30 %
1668 31-08-2020 13:54:18 20.8 C 30 %
1669 31-08-2020 14:04:18 20.6 C 30 %
1670 31-08-2020 14:14:18 19.3 C 30 %
1671 31-08-2020 14:24:17 17.2 C 36 %
1672 31-08-2020 14:34:17 16.6 C 40 %
1673 31-08-2020 14:44:17 16.3 C 41 %
1674 31-08-2020 14:54:17 16.1 C 42 %
1675 31-08-2020 15:04:18 15.5 C 41 %
Sensor: Nr:Datum:Temp:Feuchte:
Aussen-T/F 1676 31-08-2020 15:14:18 15.6 C 42 %
1677 31-08-2020 15:24:17 16 C 40 %
1678 31-08-2020 15:34:18 16.4 C 40 %
1679 31-08-2020 15:44:18 16.5 C 39 %
1680 31-08-2020 15:54:17 16.6 C 40 %
1681 31-08-2020 16:04:18 16.7 C 39 %
1682 31-08-2020 16:14:18 16.9 C 39 %
1683 31-08-2020 16:24:17 17.7 C 38 %
1684 31-08-2020 16:34:18 17.5 C 37 %
1685 31-08-2020 16:44:18 17.4 C 37 %
1686 31-08-2020 16:54:17 17 C 38 %
1687 31-08-2020 17:04:17 16.6 C 40 %
1688 31-08-2020 17:14:17 16.1 C 40 %
1689 31-08-2020 17:24:17 16 C 41 %
1690 31-08-2020 17:34:17 15.9 C 42 %
1691 31-08-2020 17:44:17 16 C 42 %
1692 31-08-2020 17:54:17 15.9 C 42 %
1693 31-08-2020 18:04:17 15.9 C 43 %
1694 31-08-2020 18:14:18 15.8 C 42 %
1695 31-08-2020 18:24:17 16 C 41 %
1696 31-08-2020 18:34:17 16.1 C 40 %
1697 31-08-2020 18:44:17 15.9 C 40 %
1698 31-08-2020 18:54:17 15.7 C 42 %
1699 31-08-2020 19:04:18 15.6 C 43 %
1700 31-08-2020 19:14:18 15.1 C 43 %
Sensor: Nr:Datum:Temp:Feuchte:
Aussen-T/F 1701 31-08-2020 19:24:17 14.8 C 43 %
1702 31-08-2020 19:34:17 14.8 C 43 %
1703 31-08-2020 19:44:17 14.8 C 43 %
1704 31-08-2020 19:54:17 14.7 C 43 %
1705 31-08-2020 20:04:18 14.7 C 43 %
1706 31-08-2020 20:14:18 14.5 C 43 %
1707 31-08-2020 20:24:17 14.5 C 43 %
1708 31-08-2020 20:34:18 14.4 C 43 %
1709 31-08-2020 20:44:18 14.4 C 42 %
1710 31-08-2020 20:54:18 14.4 C 42 %
1711 31-08-2020 21:04:18 14.3 C 42 %
1712 31-08-2020 21:14:18 14.2 C 42 %
1713 31-08-2020 21:24:18 14.2 C 42 %
1714 31-08-2020 21:34:17 14.2 C 42 %
1715 31-08-2020 21:44:17 14.2 C 42 %
1716 31-08-2020 21:54:17 14.2 C 42 %
1717 31-08-2020 22:04:17 14.2 C 42 %
1718 31-08-2020 22:14:17 14.2 C 42 %
1719 31-08-2020 22:24:17 14.2 C 42 %
1720 31-08-2020 22:34:17 14.2 C 42 %
1721 31-08-2020 22:44:17 14.1 C 42 %
1722 31-08-2020 22:54:18 14.2 C 42 %
1723 31-08-2020 23:04:17 14.3 C 42 %
1724 31-08-2020 23:14:17 14.2 C 42 %
1725 31-08-2020 23:24:17 14.1 C 42 %
Sensor: Nr:Datum:Temp:Feuchte:
Aussen-T/F 1726 31-08-2020 23:34:17 14 C 42 %
1727 31-08-2020 23:44:17 13.9 C 42 %
1728 31-08-2020 23:54:18 13.9 C 42 %
1729 01-09-2020 00:04:17 13.8 C 42 %
1730 01-09-2020 00:14:17 13.8 C 42 %
1731 01-09-2020 00:24:17 13.8 C 42 %
1732 01-09-2020 00:34:17 13.8 C 42 %
1733 01-09-2020 00:44:18 13.8 C 42 %
1734 01-09-2020 00:54:17 13.8 C 42 %
1735 01-09-2020 01:04:17 13.8 C 42 %
1736 01-09-2020 01:14:17 13.8 C 42 %
1737 01-09-2020 01:24:18 13.7 C 41 %
1738 01-09-2020 01:34:17 13.7 C 41 %
1739 01-09-2020 01:44:18 13.8 C 41 %
1740 01-09-2020 01:54:17 13.6 C 41 %
1741 01-09-2020 02:04:18 13.5 C 41 %
1742 01-09-2020 02:14:18 13.5 C 41 %
1743 01-09-2020 02:24:17 13.4 C 41 %
1744 01-09-2020 02:34:17 13.2 C 41 %
1745 01-09-2020 02:44:17 12.8 C 42 %
1746 01-09-2020 02:54:17 12.6 C 42 %
1747 01-09-2020 03:04:18 12.9 C 42 %
1748 01-09-2020 03:14:18 12.9 C 42 %
1749 01-09-2020 03:24:17 13.1 C 41 %
1750 01-09-2020 03:34:18 13 C 41 %
Sensor: Nr:Datum:Temp:Feuchte:
Aussen-T/F 1751 01-09-2020 03:44:18 12.9 C 42 %
1752 01-09-2020 03:54:17 12.7 C 42 %
1753 01-09-2020 04:04:18 12.8 C 42 %
1754 01-09-2020 04:14:18 12.8 C 42 %
1755 01-09-2020 04:24:17 12.7 C 42 %
1756 01-09-2020 04:34:17 12.6 C 42 %
1757 01-09-2020 04:44:17 12.5 C 42 %
1758 01-09-2020 04:54:18 12.5 C 42 %
1759 01-09-2020 05:04:17 12.5 C 42 %
1760 01-09-2020 05:14:17 12.4 C 42 %
1761 01-09-2020 05:24:17 12.2 C 42 %
1762 01-09-2020 05:34:17 12.1 C 42 %
1763 01-09-2020 05:44:17 12 C 42 %
1764 01-09-2020 05:54:17 12 C 42 %
1765 01-09-2020 06:04:17 11.9 C 42 %
1766 01-09-2020 06:14:17 11.8 C 42 %
1767 01-09-2020 06:24:17 11.8 C 42 %
1768 01-09-2020 06:34:17 11.8 C 42 %
1769 01-09-2020 06:44:17 11.9 C 42 %
1770 01-09-2020 06:54:18 12.1 C 42 %
1771 01-09-2020 07:04:17 12.2 C 41 %
1772 01-09-2020 07:14:17 12.2 C 41 %
1773 01-09-2020 07:24:17 12.3 C 41 %
1774 01-09-2020 07:34:17 12.3 C 41 %
1775 01-09-2020 07:44:17 12 C 41 %
Sensor: Nr:Datum:Temp:Feuchte:
Aussen-T/F 1776 01-09-2020 07:54:18 12.7 C 42 %
1777 01-09-2020 08:04:18 12.8 C 42 %
1778 01-09-2020 08:14:18 13.1 C 41 %
1779 01-09-2020 08:24:17 13.3 C 41 %
1780 01-09-2020 08:34:17 13.4 C 41 %
1781 01-09-2020 08:44:17 13.7 C 41 %
1782 01-09-2020 08:54:17 13.8 C 42 %
1783 01-09-2020 09:04:17 13.9 C 42 %
1784 01-09-2020 09:14:17 14.1 C 42 %
1785 01-09-2020 09:24:17 14.3 C 40 %
1786 01-09-2020 09:34:17 14.7 C 41 %
1787 01-09-2020 09:44:17 14.9 C 40 %
1788 01-09-2020 09:54:18 15.1 C 40 %
1789 01-09-2020 10:04:17 15.4 C 38 %
1790 01-09-2020 10:14:17 15.6 C 37 %
1791 01-09-2020 10:24:17 15.7 C 37 %
1792 01-09-2020 10:34:18 15.7 C 36 %
1793 01-09-2020 10:44:18 16.3 C 35 %
1794 01-09-2020 10:54:17 16.8 C 35 %
1795 01-09-2020 11:04:17 17.3 C 34 %
1796 01-09-2020 11:14:17 17.6 C 33 %
1797 01-09-2020 11:24:17 18.1 C 33 %
1798 01-09-2020 11:34:17 18 C 32 %
1799 01-09-2020 11:44:17 18.8 C 32 %
1800 01-09-2020 11:54:17 18.1 C 31 %
Sensor: Nr:Datum:Temp:Feuchte:
Aussen-T/F 1801 01-09-2020 12:04:17 18.1 C 31 %
1802 01-09-2020 12:14:18 18.1 C 32 %
1803 01-09-2020 12:24:17 19.1 C 31 %
1804 01-09-2020 12:34:17 19.4 C 30 %
1805 01-09-2020 12:44:17 19.4 C 31 %
1806 01-09-2020 12:54:17 19.8 C 30 %
1807 01-09-2020 13:04:17 19.6 C 30 %
1808 01-09-2020 13:14:17 19.2 C 30 %
1809 01-09-2020 13:24:17 20.6 C 29 %
1810 01-09-2020 13:34:17 21 C 27 %
1811 01-09-2020 13:44:17 21.3 C 26 %
1812 01-09-2020 13:54:17 21 C 25 %
1813 01-09-2020 14:04:17 21.3 C 25 %
1814 01-09-2020 14:14:17 20.8 C 25 %
1815 01-09-2020 14:24:17 20.7 C 26 %
1816 01-09-2020 14:34:17 22.7 C 24 %
1817 01-09-2020 14:44:17 23.5 C 22 %
1818 01-09-2020 14:54:17 22.4 C 21 %
1819 01-09-2020 15:04:18 22.9 C 21 %
1820 01-09-2020 15:14:18 22.8 C 21 %
1821 01-09-2020 15:24:17 22.9 C 23 %
1822 01-09-2020 15:34:18 26 C 20 %
1823 01-09-2020 15:44:18 23.9 C 20 %
1824 01-09-2020 15:54:17 21.1 C 23 %
1825 01-09-2020 16:04:17 19.7 C 26 %
Sensor: Nr:Datum:Temp:Feuchte:
Aussen-T/F 1826 01-09-2020 16:14:17 17.5 C 32 %
1827 01-09-2020 16:24:17 17 C 35 %
1828 01-09-2020 16:34:17 16.8 C 34 %
1829 01-09-2020 16:44:17 17.7 C 32 %
1830 01-09-2020 16:54:17 17.7 C 32 %
1831 01-09-2020 17:04:18 17.6 C 32 %
1832 01-09-2020 17:14:18 17.6 C 32 %
1833 01-09-2020 17:24:18 17.4 C 32 %
1834 01-09-2020 17:34:18 16.7 C 33 %
1835 01-09-2020 17:44:18 16.6 C 34 %
1836 01-09-2020 17:54:17 16.2 C 35 %
1837 01-09-2020 18:04:17 16 C 35 %
1838 01-09-2020 18:14:17 16.1 C 35 %
1839 01-09-2020 18:24:17 16.1 C 35 %
1840 01-09-2020 18:34:17 15.8 C 35 %
1841 01-09-2020 18:44:18 15.8 C 35 %
1842 01-09-2020 18:54:17 15.8 C 35 %
1843 01-09-2020 19:04:17 15.8 C 36 %
1844 01-09-2020 19:14:17 16.5 C 35 %
1845 01-09-2020 19:24:18 16.7 C 35 %
1846 01-09-2020 19:34:17 16.6 C 35 %
1847 01-09-2020 19:44:17 16.2 C 35 %
1848 01-09-2020 19:54:17 15.5 C 36 %
1849 01-09-2020 20:04:17 14.5 C 38 %
1850 01-09-2020 20:14:17 14.5 C 38 %
Sensor: Nr:Datum:Temp:Feuchte:
Aussen-T/F 1851 01-09-2020 20:24:17 14.5 C 37 %
1852 01-09-2020 20:34:18 14.4 C 38 %
1853 01-09-2020 20:44:18 14.1 C 37 %
1854 01-09-2020 20:54:18 14.1 C 38 %
1855 01-09-2020 21:04:18 14.2 C 37 %
1856 01-09-2020 21:14:18 14.2 C 38 %
1857 01-09-2020 21:24:18 14.1 C 37 %
1858 01-09-2020 21:34:17 14 C 38 %
1859 01-09-2020 21:44:17 14 C 38 %
1860 01-09-2020 21:54:17 13.9 C 40 %
1861 01-09-2020 22:04:17 13.8 C 40 %
1862 01-09-2020 22:14:17 13.4 C 40 %
1863 01-09-2020 22:24:18 13.1 C 40 %
1864 01-09-2020 22:34:17 12.8 C 41 %
1865 01-09-2020 22:44:17 12.8 C 42 %
1866 01-09-2020 22:54:17 13 C 41 %
1867 01-09-2020 23:04:17 13.2 C 41 %
1868 01-09-2020 23:14:17 13.1 C 41 %
1869 01-09-2020 23:24:17 13.1 C 41 %
1870 01-09-2020 23:34:17 13.1 C 41 %
1871 01-09-2020 23:44:17 13.1 C 41 %
1872 01-09-2020 23:54:17 13.2 C 41 %
1873 02-09-2020 00:04:18 13.2 C 41 %
1874 02-09-2020 00:14:18 13.1 C 41 %
1875 02-09-2020 00:24:17 13.2 C 41 %
Sensor: Nr:Datum:Temp:Feuchte:
Aussen-T/F 1876 02-09-2020 00:34:18 13 C 41 %
1877 02-09-2020 00:44:18 13.1 C 41 %
1878 02-09-2020 00:54:17 13.1 C 41 %
1879 02-09-2020 01:04:18 13.2 C 41 %
1880 02-09-2020 01:14:18 13.1 C 41 %
1881 02-09-2020 01:24:17 13.1 C 41 %
1882 02-09-2020 01:34:18 13.1 C 41 %
1883 02-09-2020 01:44:18 13 C 41 %
1884 02-09-2020 01:54:17 12.9 C 42 %
1885 02-09-2020 02:04:18 12.8 C 42 %
1886 02-09-2020 02:14:18 12.6 C 42 %
1887 02-09-2020 02:24:17 12.3 C 43 %
1888 02-09-2020 02:34:17 12.2 C 43 %
1889 02-09-2020 02:44:17 12.4 C 43 %
1890 02-09-2020 02:54:17 12.9 C 41 %
1891 02-09-2020 03:04:18 12.9 C 41 %
1892 02-09-2020 03:14:18 13 C 40 %
1893 02-09-2020 03:24:17 12.8 C 42 %
1894 02-09-2020 03:34:17 12.8 C 42 %
1895 02-09-2020 03:44:17 12.9 C 41 %
1896 02-09-2020 03:54:17 12.8 C 42 %
1897 02-09-2020 04:04:17 12.5 C 42 %
1898 02-09-2020 04:14:17 12.3 C 43 %
1899 02-09-2020 04:24:17 12.3 C 44 %
1900 02-09-2020 04:34:18 12.2 C 44 %
Sensor: Nr:Datum:Temp:Feuchte:
Aussen-T/F 1901 02-09-2020 04:44:18 12.3 C 44 %
1902 02-09-2020 04:54:17 12.2 C 44 %
1903 02-09-2020 05:04:17 12.1 C 44 %
1904 02-09-2020 05:14:17 12.2 C 44 %
1905 02-09-2020 05:24:17 12.1 C 44 %
1906 02-09-2020 05:34:17 12.2 C 44 %
1907 02-09-2020 05:44:17 12.2 C 44 %
1908 02-09-2020 05:54:17 12.3 C 44 %
1909 02-09-2020 06:14:17 12.2 C 43 %
1910 02-09-2020 06:14:18 12.1 C 44 %
1911 02-09-2020 06:24:18 12 C 44 %
1912 02-09-2020 06:44:17 11.7 C 44 %
1913 02-09-2020 06:44:17 11.6 C 45 %
1914 02-09-2020 06:54:17 11.2 C 45 %
1915 02-09-2020 07:04:18 11.2 C 45 %
1916 02-09-2020 07:14:18 11.3 C 44 %
1917 02-09-2020 07:24:18 11.1 C 44 %
1918 02-09-2020 07:34:18 11 C 45 %
1919 02-09-2020 07:44:18 11 C 45 %
1920 02-09-2020 07:54:17 11.2 C 44 %
1921 02-09-2020 08:04:18 11.1 C 44 %
1922 02-09-2020 08:14:18 11.1 C 44 %
1923 02-09-2020 08:25:17 11.1 C 44 %
1924 02-09-2020 08:34:17 11.2 C 45 %
1925 02-09-2020 08:44:17 11.5 C 45 %
Sensor: Nr:Datum:Temp:Feuchte:
Aussen-T/F 1926 02-09-2020 08:54:17 12.2 C 43 %
1927 02-09-2020 09:04:17 12.8 C 42 %
1928 02-09-2020 09:14:17 13 C 40 %
1929 02-09-2020 09:24:17 13.5 C 40 %
1930 02-09-2020 09:34:17 14.1 C 36 %
1931 02-09-2020 09:44:17 14.6 C 36 %
1932 02-09-2020 09:54:17 15 C 36 %
1933 02-09-2020 10:04:18 15.2 C 35 %
1934 02-09-2020 10:14:18 15.1 C 35 %
1935 02-09-2020 10:24:17 15.2 C 35 %
1936 02-09-2020 10:34:18 15.4 C 35 %
1937 02-09-2020 10:44:18 15.8 C 34 %
1938 02-09-2020 10:54:17 16.2 C 33 %
1939 02-09-2020 11:04:18 17.1 C 32 %
1940 02-09-2020 11:14:18 17.4 C 32 %
1941 02-09-2020 11:24:17 18 C 30 %
1942 02-09-2020 11:35:17 18 C 30 %
1943 02-09-2020 11:45:17 17.7 C 31 %
1944 02-09-2020 11:55:17 18.1 C 30 %
1945 02-09-2020 12:04:18 18 C 30 %
1946 02-09-2020 12:14:18 17 C 32 %
1947 02-09-2020 12:25:17 16.5 C 34 %
1948 02-09-2020 12:34:18 16.6 C 34 %
1949 02-09-2020 12:44:18 17.6 C 31 %
1950 02-09-2020 12:55:17 18.6 C 30 %
Sensor: Nr:Datum:Temp:Feuchte:
Aussen-T/F 1951 02-09-2020 13:04:18 18.8 C 28 %
1952 02-09-2020 13:14:18 19 C 27 %
1953 02-09-2020 13:24:18 19.1 C 26 %
1954 02-09-2020 13:35:17 19.1 C 27 %
1955 02-09-2020 13:45:17 18.3 C 30 %
1956 02-09-2020 13:55:17 18.9 C 27 %
1957 02-09-2020 14:05:17 19.8 C 26 %
1958 02-09-2020 14:15:17 19.8 C 26 %
1959 02-09-2020 14:25:17 20.6 C 25 %
1960 02-09-2020 14:34:18 26 C 20 %
1961 02-09-2020 14:44:18 29.2 C 20 %
1962 02-09-2020 14:55:17 26.5 C 20 %
1963 02-09-2020 15:05:18 27 C 20 %
1964 02-09-2020 15:15:18 27.5 C 20 %
1965 02-09-2020 15:24:18 28.8 C 20 %
1966 02-09-2020 15:34:18 28 C 20 %
1967 02-09-2020 15:44:18 27 C 20 %
1968 02-09-2020 15:55:17 29.6 C 20 %
1969 02-09-2020 16:05:18 26.5 C 20 %
1970 02-09-2020 16:15:17 28.5 C 20 %
1971 02-09-2020 16:25:17 27.1 C 20 %
1972 02-09-2020 16:44:18 23.8 C 20 %
1973 02-09-2020 16:45:18 27.6 C 20 %
1974 02-09-2020 16:55:18 29.7 C 20 %
1975 02-09-2020 17:05:17 23.6 C 20 %
Sensor: Nr:Datum:Temp:Feuchte:
Aussen-T/F 1976 02-09-2020 17:15:17 26.8 C 20 %
1977 02-09-2020 17:25:17 28.3 C 20 %
1978 02-09-2020 17:35:18 26.5 C 20 %
1979 02-09-2020 17:45:17 22.8 C 20 %
1980 02-09-2020 17:55:17 20.3 C 24 %
1981 02-09-2020 18:05:18 19.5 C 26 %
1982 02-09-2020 18:15:17 19.7 C 26 %
1983 02-09-2020 18:25:17 19.6 C 27 %
1984 02-09-2020 18:35:17 19.9 C 27 %
1985 02-09-2020 18:45:17 19.7 C 27 %
1986 02-09-2020 18:55:17 19.4 C 27 %
1987 02-09-2020 19:05:17 19.2 C 26 %
1988 02-09-2020 19:15:17 18.7 C 28 %
1989 02-09-2020 19:25:17 18.3 C 27 %
1990 02-09-2020 19:35:17 17.5 C 28 %
1991 02-09-2020 19:45:17 17.3 C 28 %
1992 02-09-2020 19:55:17 17.2 C 28 %
1993 02-09-2020 20:05:17 16.7 C 28 %
1994 02-09-2020 20:15:17 16.6 C 28 %
1995 02-09-2020 20:25:17 16.3 C 28 %
1996 02-09-2020 20:35:17 15.9 C 29 %
1997 02-09-2020 20:45:17 15.8 C 30 %
1998 02-09-2020 20:55:17 15.5 C 30 %
1999 02-09-2020 21:05:18 15.5 C 30 %
2000 02-09-2020 21:15:18 14.5 C 32 %
Sensor: Nr:Datum:Temp:Feuchte:
Aussen-T/F 2001 02-09-2020 21:25:18 13.8 C 34 %
2002 02-09-2020 21:35:17 14.2 C 33 %
2003 02-09-2020 21:45:17 14.2 C 33 %
2004 02-09-2020 21:55:17 14.2 C 35 %
2005 02-09-2020 22:05:17 14.1 C 35 %
2006 02-09-2020 22:15:17 14.3 C 35 %
2007 02-09-2020 22:25:17 14.4 C 35 %
2008 02-09-2020 22:35:18 14.2 C 35 %
2009 02-09-2020 22:45:18 13.8 C 36 %
2010 02-09-2020 22:55:18 13.7 C 36 %
2011 02-09-2020 23:05:18 13.7 C 36 %
2012 02-09-2020 23:15:17 13.6 C 36 %
2013 02-09-2020 23:25:17 13.2 C 35 %
2014 02-09-2020 23:35:17 13 C 35 %
2015 02-09-2020 23:45:18 12.8 C 36 %
2016 02-09-2020 23:55:18 12.4 C 36 %
2017 03-09-2020 00:05:18 12.3 C 37 %
2018 03-09-2020 00:15:18 11.8 C 38 %
2019 03-09-2020 00:25:18 11.5 C 39 %
2020 03-09-2020 00:35:17 11.5 C 39 %
2021 03-09-2020 00:45:17 11.4 C 39 %
2022 03-09-2020 00:55:17 11.3 C 39 %
2023 03-09-2020 01:05:17 11.2 C 39 %
2024 03-09-2020 01:15:18 11.3 C 39 %
2025 03-09-2020 01:25:18 10.9 C 40 %
Sensor: Nr:Datum:Temp:Feuchte:
Aussen-T/F 2026 03-09-2020 01:35:17 10.6 C 41 %
2027 03-09-2020 01:45:17 10.4 C 41 %
2028 03-09-2020 01:55:17 10.4 C 41 %
2029 03-09-2020 02:05:18 10.1 C 41 %
2030 03-09-2020 02:15:18 9.9 C 42 %
2031 03-09-2020 02:25:18 10 C 42 %
2032 03-09-2020 02:35:18 9.7 C 43 %
2033 03-09-2020 02:45:17 10.1 C 43 %
2034 03-09-2020 02:55:17 9.9 C 44 %
2035 03-09-2020 03:05:17 10.1 C 43 %
2036 03-09-2020 03:15:17 9.9 C 42 %
2037 03-09-2020 03:25:17 9.7 C 43 %
2038 03-09-2020 03:35:18 10 C 42 %
2039 03-09-2020 03:45:17 10.2 C 42 %
2040 03-09-2020 03:55:17 9.8 C 43 %
2041 03-09-2020 04:05:17 9.7 C 44 %
2042 03-09-2020 04:15:17 9.7 C 44 %
2043 03-09-2020 04:25:17 9.8 C 45 %
2044 03-09-2020 04:35:17 9.9 C 44 %
2045 03-09-2020 04:45:17 9.7 C 44 %
2046 03-09-2020 04:55:17 9.6 C 45 %
2047 03-09-2020 05:05:18 9.5 C 43 %
2048 03-09-2020 05:15:17 9.5 C 44 %
2049 03-09-2020 05:25:17 9.7 C 44 %
2050 03-09-2020 05:35:17 9.8 C 44 %
Sensor: Nr:Datum:Temp:Feuchte:
Aussen-T/F 2051 03-09-2020 05:45:17 9.9 C 44 %
2052 03-09-2020 05:55:17 9.9 C 44 %
2053 03-09-2020 06:05:17 10.1 C 43 %
2054 03-09-2020 06:15:17 10 C 43 %
2055 03-09-2020 06:25:17 9.9 C 44 %
2056 03-09-2020 06:35:17 10 C 43 %
2057 03-09-2020 06:45:18 10 C 43 %
2058 03-09-2020 06:55:18 10.2 C 43 %
2059 03-09-2020 07:05:18 10.3 C 43 %
2060 03-09-2020 07:15:18 10.4 C 42 %
2061 03-09-2020 07:25:18 10.5 C 43 %
2062 03-09-2020 07:35:18 10.6 C 42 %
2063 03-09-2020 07:45:17 10.7 C 42 %
2064 03-09-2020 07:55:17 11.1 C 40 %
2065 03-09-2020 08:05:17 11.2 C 40 %
2066 03-09-2020 08:15:17 11.5 C 39 %
2067 03-09-2020 08:25:17 12.1 C 38 %
2068 03-09-2020 08:35:17 12.3 C 37 %
2069 03-09-2020 08:45:18 12.4 C 37 %
2070 03-09-2020 08:55:18 12.4 C 37 %
2071 03-09-2020 09:05:17 12.6 C 37 %
2072 03-09-2020 09:15:17 13.3 C 36 %
2073 03-09-2020 09:25:17 13.7 C 36 %
2074 03-09-2020 09:35:17 14 C 35 %
2075 03-09-2020 09:45:18 14.4 C 35 %
Sensor: Nr:Datum:Temp:Feuchte:
Aussen-T/F 2076 03-09-2020 09:55:18 14.6 C 35 %
2077 03-09-2020 10:05:18 14.9 C 34 %
2078 03-09-2020 10:15:17 15.5 C 33 %
2079 03-09-2020 10:25:17 16.3 C 32 %
2080 03-09-2020 10:35:18 16.7 C 32 %
2081 03-09-2020 10:45:17 17 C 31 %
2082 03-09-2020 10:55:18 17.7 C 31 %
2083 03-09-2020 11:05:17 18.7 C 30 %
2084 03-09-2020 11:15:17 19.6 C 29 %
2085 03-09-2020 11:25:17 19.2 C 28 %
2086 03-09-2020 11:35:18 20 C 28 %
2087 03-09-2020 11:45:17 19.5 C 28 %
2088 03-09-2020 11:55:17 19.6 C 28 %
2089 03-09-2020 12:05:17 20.4 C 27 %
2090 03-09-2020 12:15:18 20.7 C 27 %
2091 03-09-2020 12:25:18 21.3 C 26 %
2092 03-09-2020 12:35:17 21.8 C 26 %
2093 03-09-2020 12:45:17 21.3 C 25 %
2094 03-09-2020 12:55:17 20.5 C 26 %
2095 03-09-2020 13:05:18 19.8 C 27 %
2096 03-09-2020 13:15:17 20 C 26 %
2097 03-09-2020 13:25:17 18.8 C 28 %
2098 03-09-2020 13:35:17 17.6 C 31 %
2099 03-09-2020 13:45:17 17.1 C 33 %
2100 03-09-2020 13:55:17 17.1 C 34 %
Sensor: Nr:Datum:Temp:Feuchte:
Aussen-T/F 2101 03-09-2020 14:05:17 17.5 C 32 %
2102 03-09-2020 14:15:18 17.5 C 32 %
2103 03-09-2020 14:25:18 17.4 C 32 %
2104 03-09-2020 14:35:17 17.9 C 32 %
2105 03-09-2020 14:45:18 18.2 C 31 %
2106 03-09-2020 14:55:18 18.1 C 31 %
2107 03-09-2020 15:05:17 17.8 C 32 %
2108 03-09-2020 15:15:17 17.2 C 34 %
2109 03-09-2020 15:25:17 17.3 C 34 %
2110 03-09-2020 15:35:18 18 C 32 %
2111 03-09-2020 15:45:17 18.3 C 31 %
2112 03-09-2020 15:55:17 16.3 C 35 %
2113 03-09-2020 16:05:18 15.6 C 37 %
2114 03-09-2020 16:15:17 15.7 C 40 %
2115 03-09-2020 16:25:17 15.8 C 40 %
2116 03-09-2020 16:35:18 15.8 C 40 %
2117 03-09-2020 16:45:18 15.5 C 41 %
2118 03-09-2020 16:55:18 15.6 C 40 %
2119 03-09-2020 17:05:18 15.8 C 41 %
2120 03-09-2020 17:15:17 15.5 C 39 %
2121 03-09-2020 17:25:17 16 C 39 %
2122 03-09-2020 17:35:17 16.3 C 39 %
2123 03-09-2020 17:45:17 16.2 C 39 %
2124 03-09-2020 17:55:17 16.2 C 38 %
2125 03-09-2020 18:05:17 16.4 C 38 %
Sensor: Nr:Datum:Temp:Feuchte:
Aussen-T/F 2126 03-09-2020 18:15:18 16.5 C 39 %
2127 03-09-2020 18:25:18 16.5 C 40 %
2128 03-09-2020 18:35:17 16.2 C 40 %
2129 03-09-2020 18:45:18 16.1 C 40 %
2130 03-09-2020 18:55:18 16.3 C 41 %
2131 03-09-2020 19:05:18 15.7 C 41 %
2132 03-09-2020 19:15:17 15.5 C 42 %
2133 03-09-2020 19:25:17 15.5 C 42 %
2134 03-09-2020 19:35:17 15.4 C 42 %
2135 03-09-2020 19:45:18 15.4 C 42 %
2136 03-09-2020 19:55:18 15.4 C 42 %
2137 03-09-2020 20:05:18 15.3 C 42 %
2138 03-09-2020 20:15:18 15.3 C 42 %
2139 03-09-2020 20:25:18 15.2 C 41 %
2140 03-09-2020 20:35:17 15.2 C 41 %
2141 03-09-2020 20:45:17 15.1 C 41 %
2142 03-09-2020 20:55:17 15.1 C 41 %
2143 03-09-2020 21:05:17 15.1 C 40 %
2144 03-09-2020 21:15:17 15.3 C 40 %
2145 03-09-2020 21:25:17 15.4 C 40 %
2146 03-09-2020 21:35:18 15.5 C 40 %
2147 03-09-2020 21:45:17 15.6 C 39 %
2148 03-09-2020 21:55:17 15.6 C 40 %
2149 03-09-2020 22:05:17 15.8 C 39 %
2150 03-09-2020 22:15:18 16 C 38 %
Sensor: Nr:Datum:Temp:Feuchte:
Aussen-T/F 2151 03-09-2020 22:25:18 15.8 C 40 %
2152 03-09-2020 22:35:18 15.8 C 40 %
2153 03-09-2020 22:45:18 15.9 C 40 %
2154 03-09-2020 22:55:18 15.7 C 40 %
2155 03-09-2020 23:05:17 15.6 C 40 %
2156 03-09-2020 23:15:17 15.7 C 40 %
2157 03-09-2020 23:25:17 15.7 C 40 %
2158 03-09-2020 23:35:17 15.7 C 40 %
2159 03-09-2020 23:45:17 15.9 C 40 %
2160 03-09-2020 23:55:17 15.7 C 40 %
2161 04-09-2020 00:05:17 15.7 C 40 %
2162 04-09-2020 00:15:17 15.6 C 41 %
2163 04-09-2020 00:25:18 15.6 C 41 %
2164 04-09-2020 00:35:17 15.8 C 40 %
2165 04-09-2020 00:45:17 15.9 C 41 %
2166 04-09-2020 00:55:17 15.8 C 40 %
2167 04-09-2020 01:05:18 15.7 C 41 %
2168 04-09-2020 01:15:18 15.5 C 41 %
2169 04-09-2020 01:25:18 15.6 C 40 %
2170 04-09-2020 01:35:17 15.9 C 40 %
2171 04-09-2020 01:45:17 15.9 C 39 %
2172 04-09-2020 01:55:17 15.6 C 40 %
2173 04-09-2020 02:05:17 15.7 C 39 %
2174 04-09-2020 02:15:18 15.6 C 39 %
2175 04-09-2020 02:25:18 16 C 38 %
Sensor: Nr:Datum:Temp:Feuchte:
Aussen-T/F 2176 04-09-2020 02:35:18 16.4 C 37 %
2177 04-09-2020 02:45:17 16.7 C 37 %
2178 04-09-2020 02:55:17 16.7 C 37 %
2179 04-09-2020 03:05:18 16.5 C 38 %
2180 04-09-2020 03:15:17 16.7 C 37 %
2181 04-09-2020 03:25:17 16.6 C 38 %
2182 04-09-2020 03:35:18 16.8 C 37 %
2183 04-09-2020 03:45:17 16.7 C 37 %
2184 04-09-2020 03:55:17 16.7 C 37 %
2185 04-09-2020 04:05:17 16.6 C 37 %
2186 04-09-2020 04:15:17 16.7 C 36 %
2187 04-09-2020 04:25:17 16.6 C 38 %
2188 04-09-2020 04:35:17 16.5 C 38 %
2189 04-09-2020 04:45:18 16.4 C 38 %
2190 04-09-2020 04:55:18 16.7 C 37 %
2191 04-09-2020 05:05:17 16.6 C 37 %
2192 04-09-2020 05:15:17 16.6 C 37 %
2193 04-09-2020 05:25:17 16.5 C 38 %
2194 04-09-2020 05:35:18 16.4 C 38 %
2195 04-09-2020 05:45:17 16.4 C 38 %
2196 04-09-2020 05:55:18 16.3 C 39 %
2197 04-09-2020 06:05:18 16.5 C 37 %
2198 04-09-2020 06:15:18 16.9 C 36 %
2199 04-09-2020 06:25:18 16.8 C 37 %
2200 04-09-2020 06:35:17 16.8 C 36 %
Sensor: Nr:Datum:Temp:Feuchte:
Aussen-T/F 2201 04-09-2020 06:45:17 16.7 C 37 %
2202 04-09-2020 06:55:17 16.6 C 37 %
2203 04-09-2020 07:05:17 16.8 C 36 %
2204 04-09-2020 07:15:18 16.8 C 37 %
2205 04-09-2020 07:25:18 16.7 C 37 %
2206 04-09-2020 07:35:18 16.7 C 37 %
2207 04-09-2020 07:45:18 16.8 C 37 %
2208 04-09-2020 07:55:18 16.8 C 37 %
2209 04-09-2020 08:05:18 17 C 37 %
2210 04-09-2020 08:15:17 17.2 C 36 %
2211 04-09-2020 08:25:17 17.4 C 36 %
2212 04-09-2020 08:35:17 17.7 C 35 %
2213 04-09-2020 08:45:18 17.9 C 35 %
2214 04-09-2020 08:55:18 18.2 C 34 %
2215 04-09-2020 09:05:17 18.7 C 34 %
2216 04-09-2020 09:15:17 19.2 C 32 %
2217 04-09-2020 09:25:17 19.3 C 32 %
2218 04-09-2020 09:35:18 19.2 C 33 %
2219 04-09-2020 09:45:17 19.2 C 33 %
2220 04-09-2020 09:55:17 19.2 C 32 %
2221 04-09-2020 10:05:17 19.4 C 32 %
2222 04-09-2020 10:15:17 19.7 C 32 %
2223 04-09-2020 10:25:17 19.8 C 32 %
2224 04-09-2020 10:35:18 19.9 C 33 %
2225 04-09-2020 10:45:17 20.2 C 32 %
Sensor: Nr:Datum:Temp:Feuchte:
Aussen-T/F 2226 04-09-2020 10:55:17 20.4 C 32 %
2227 04-09-2020 11:05:17 20.7 C 32 %
2228 04-09-2020 11:15:17 21.5 C 30 %
2229 04-09-2020 11:25:17 22.1 C 29 %
2230 04-09-2020 11:35:18 21.9 C 29 %
2231 04-09-2020 11:45:17 22.1 C 28 %
2232 04-09-2020 11:55:17 22.3 C 27 %
2233 04-09-2020 12:05:18 23 C 26 %
2234 04-09-2020 12:15:17 23.3 C 26 %
2235 04-09-2020 12:25:17 23.3 C 26 %
2236 04-09-2020 12:35:17 23.9 C 26 %
2237 04-09-2020 12:45:17 24.2 C 26 %
2238 04-09-2020 12:55:17 24.7 C 25 %
2239 04-09-2020 13:05:18 24.9 C 25 %
2240 04-09-2020 13:15:17 25.4 C 25 %
2241 04-09-2020 13:25:18 25.7 C 24 %
2242 04-09-2020 13:35:17 26.5 C 23 %
2243 04-09-2020 13:45:17 26.8 C 23 %
2244 04-09-2020 13:55:17 27 C 23 %
2245 04-09-2020 14:05:17 26.8 C 23 %
2246 04-09-2020 14:15:17 26.8 C 23 %
2247 04-09-2020 14:25:17 26.9 C 23 %
2248 04-09-2020 14:35:17 27.6 C 22 %
2249 04-09-2020 14:45:18 28.4 C 21 %
2250 04-09-2020 14:55:18 27 C 22 %
Sensor: Nr:Datum:Temp:Feuchte:
Aussen-T/F 2251 04-09-2020 15:05:18 26.4 C 22 %
2252 04-09-2020 15:15:17 26.4 C 22 %
2253 04-09-2020 15:25:17 26.8 C 22 %
2254 04-09-2020 15:35:17 27.4 C 22 %
2255 04-09-2020 15:45:17 27.2 C 22 %
2256 04-09-2020 15:55:17 27.4 C 22 %
2257 04-09-2020 16:05:17 27.9 C 21 %
2258 04-09-2020 16:15:17 28.2 C 21 %
2259 04-09-2020 16:25:17 27.4 C 21 %
2260 04-09-2020 16:35:17 28.4 C 21 %
2261 04-09-2020 16:45:17 29.6 C 21 %
2262 04-09-2020 16:55:17 29.6 C 20 %
2263 04-09-2020 17:05:17 33.2 C 20 %
2264 04-09-2020 17:15:17 31.4 C 20 %
2265 04-09-2020 17:25:17 32.4 C 20 %
2266 04-09-2020 17:35:17 28.4 C 20 %
2267 04-09-2020 17:45:17 27.2 C 22 %
2268 04-09-2020 17:55:17 26.3 C 24 %
2269 04-09-2020 18:05:18 25.7 C 24 %
2270 04-09-2020 18:15:17 25.5 C 24 %
2271 04-09-2020 18:25:17 25.7 C 25 %
2272 04-09-2020 18:35:17 25.6 C 25 %
2273 04-09-2020 18:45:17 24.8 C 26 %
2274 04-09-2020 18:55:17 24.2 C 26 %
2275 04-09-2020 19:05:17 24 C 27 %
Sensor: Nr:Datum:Temp:Feuchte:
Aussen-T/F 2276 04-09-2020 19:15:17 23.7 C 28 %
2277 04-09-2020 19:25:17 23.3 C 28 %
2278 04-09-2020 19:35:18 23.1 C 28 %
2279 04-09-2020 19:45:18 22.8 C 30 %
2280 04-09-2020 19:55:18 22.1 C 31 %
2281 04-09-2020 20:05:18 21.7 C 32 %
2282 04-09-2020 20:15:17 20.6 C 35 %
2283 04-09-2020 20:25:17 20.1 C 35 %
2284 04-09-2020 20:35:18 19.7 C 36 %
2285 04-09-2020 20:45:17 19.7 C 37 %
2286 04-09-2020 20:55:17 19.9 C 37 %
2287 04-09-2020 21:05:17 20 C 36 %
2288 04-09-2020 21:15:17 20.3 C 35 %
2289 04-09-2020 21:25:17 20.2 C 35 %
2290 04-09-2020 21:35:18 20 C 35 %
2291 04-09-2020 21:45:17 20 C 35 %
2292 04-09-2020 21:55:17 20 C 35 %
2293 04-09-2020 22:05:18 19.8 C 36 %
2294 04-09-2020 22:15:18 19.7 C 36 %
2295 04-09-2020 22:25:18 19.1 C 37 %
2296 04-09-2020 22:35:18 18.5 C 38 %
2297 04-09-2020 22:45:18 18.6 C 38 %
2298 04-09-2020 22:55:18 18.7 C 38 %
2299 04-09-2020 23:05:17 19 C 37 %
2300 04-09-2020 23:15:18 18.9 C 38 %
Sensor: Nr:Datum:Temp:Feuchte:
Aussen-T/F 2301 04-09-2020 23:25:18 18.8 C 38 %
2302 04-09-2020 23:35:18 18.7 C 38 %
2303 04-09-2020 23:45:17 18.5 C 38 %
2304 04-09-2020 23:55:18 18.2 C 39 %
2305 05-09-2020 00:05:18 17.7 C 40 %
2306 05-09-2020 00:15:17 17.3 C 40 %
2307 05-09-2020 00:25:17 17.4 C 40 %
2308 05-09-2020 00:35:17 17.2 C 40 %
2309 05-09-2020 00:45:17 16.9 C 41 %
2310 05-09-2020 00:55:17 16.8 C 41 %
2311 05-09-2020 01:05:17 16.5 C 41 %
2312 05-09-2020 01:15:17 16.4 C 42 %
2313 05-09-2020 01:25:17 15.8 C 42 %
2314 05-09-2020 01:35:17 15.6 C 42 %
2315 05-09-2020 01:45:17 15.4 C 42 %
2316 05-09-2020 01:55:17 15.6 C 42 %
2317 05-09-2020 02:05:17 15.3 C 42 %
2318 05-09-2020 02:15:17 15.3 C 42 %
2319 05-09-2020 02:25:17 15.4 C 42 %
2320 05-09-2020 02:35:18 15.6 C 42 %
2321 05-09-2020 02:45:17 15.6 C 42 %
2322 05-09-2020 02:55:17 15.5 C 42 %
2323 05-09-2020 03:05:18 15.7 C 42 %
2324 05-09-2020 03:15:17 15.7 C 42 %
2325 05-09-2020 03:25:17 15.8 C 42 %
Sensor: Nr:Datum:Temp:Feuchte:
Aussen-T/F 2326 05-09-2020 03:35:17 16.1 C 41 %
2327 05-09-2020 03:45:17 16.3 C 41 %
2328 05-09-2020 03:55:17 16.2 C 41 %
2329 05-09-2020 04:05:18 16.4 C 41 %
2330 05-09-2020 04:15:18 16.6 C 41 %
2331 05-09-2020 04:25:18 16.6 C 41 %
2332 05-09-2020 04:35:18 16.6 C 41 %
2333 05-09-2020 04:45:17 16.7 C 41 %
2334 05-09-2020 04:55:17 16.8 C 41 %
2335 05-09-2020 05:05:18 16.8 C 41 %
2336 05-09-2020 05:15:17 16.9 C 41 %
2337 05-09-2020 05:25:17 16.8 C 41 %
2338 05-09-2020 05:35:17 16.8 C 41 %
2339 05-09-2020 05:45:17 16.8 C 41 %
2340 05-09-2020 05:55:18 16.9 C 42 %
2341 05-09-2020 06:05:17 16.8 C 41 %
2342 05-09-2020 06:15:17 16.9 C 40 %
2343 05-09-2020 06:25:17 16.8 C 37 %
2344 05-09-2020 06:35:18 16.6 C 35 %
2345 05-09-2020 06:45:18 16.4 C 34 %
2346 05-09-2020 06:55:18 16.2 C 34 %
2347 05-09-2020 07:05:17 16 C 34 %
2348 05-09-2020 07:15:17 15.9 C 35 %
2349 05-09-2020 07:25:18 15.8 C 35 %
2350 05-09-2020 07:35:18 15.7 C 35 %
Sensor: Nr:Datum:Temp:Feuchte:
Aussen-T/F 2351 05-09-2020 07:45:17 15.6 C 35 %
2352 05-09-2020 07:55:17 15.5 C 35 %
2353 05-09-2020 08:05:17 15.6 C 35 %
2354 05-09-2020 08:15:17 15.5 C 35 %
2355 05-09-2020 08:25:17 15.5 C 35 %
2356 05-09-2020 08:35:18 15.4 C 35 %
2357 05-09-2020 08:45:18 15.5 C 35 %
2358 05-09-2020 08:55:18 16 C 35 %
2359 05-09-2020 09:05:18 16.7 C 34 %
2360 05-09-2020 09:15:17 17 C 33 %
2361 05-09-2020 09:25:17 16.5 C 33 %
2362 05-09-2020 09:35:18 16 C 34 %
2363 05-09-2020 09:45:17 16.8 C 34 %
2364 05-09-2020 09:55:17 16.4 C 33 %
2365 05-09-2020 10:05:17 16.3 C 34 %
2366 05-09-2020 10:15:17 16.5 C 34 %
2367 05-09-2020 10:25:17 17.5 C 32 %
2368 05-09-2020 10:35:17 18 C 31 %
2369 05-09-2020 10:45:17 17.2 C 33 %
2370 05-09-2020 10:55:17 17.4 C 32 %
2371 05-09-2020 11:05:17 18.3 C 31 %
2372 05-09-2020 11:15:17 18.8 C 31 %
2373 05-09-2020 11:25:17 18.9 C 31 %
2374 05-09-2020 11:35:17 19.5 C 30 %
2375 05-09-2020 11:45:17 18.9 C 30 %
Sensor: Nr:Datum:Temp:Feuchte:
Aussen-T/F 2376 05-09-2020 11:55:17 18.7 C 30 %
2377 05-09-2020 12:05:17 18.8 C 30 %
2378 05-09-2020 12:15:17 19.2 C 30 %
2379 05-09-2020 12:25:18 18.8 C 30 %
2380 05-09-2020 12:35:18 19.7 C 29 %
2381 05-09-2020 12:45:17 19 C 29 %
2382 05-09-2020 12:55:17 19.3 C 30 %
2383 05-09-2020 13:05:17 19.6 C 29 %
2384 05-09-2020 13:15:17 19.8 C 29 %
2385 05-09-2020 13:25:17 19.8 C 29 %
2386 05-09-2020 13:35:17 19.7 C 29 %
2387 05-09-2020 13:45:17 19.2 C 29 %
2388 05-09-2020 13:55:17 20 C 28 %
2389 05-09-2020 14:05:18 19.8 C 28 %
2390 05-09-2020 14:15:17 20 C 27 %
2391 05-09-2020 14:25:18 20.4 C 27 %
2392 05-09-2020 14:35:18 19.4 C 28 %
2393 05-09-2020 14:45:17 19.3 C 29 %
2394 05-09-2020 14:55:17 18.7 C 30 %
2395 05-09-2020 15:05:17 17.9 C 30 %
2396 05-09-2020 15:15:17 18.1 C 30 %
2397 05-09-2020 15:25:17 18 C 30 %
2398 05-09-2020 15:35:17 19 C 29 %
2399 05-09-2020 15:45:17 21.6 C 26 %
2400 05-09-2020 15:55:17 19.3 C 27 %
Sensor: Nr:Datum:Temp:Feuchte:
Aussen-T/F 2401 05-09-2020 16:05:17 19.1 C 27 %
2402 05-09-2020 16:15:18 19.4 C 27 %
2403 05-09-2020 16:25:18 20.5 C 26 %
2404 05-09-2020 16:35:18 21.1 C 25 %
2405 05-09-2020 16:45:17 20 C 26 %
2406 05-09-2020 16:55:17 20 C 26 %
2407 05-09-2020 17:05:17 20.4 C 26 %
2408 05-09-2020 17:15:17 20.8 C 25 %
2409 05-09-2020 17:25:17 21.1 C 25 %
2410 05-09-2020 17:35:17 20.5 C 25 %
2411 05-09-2020 17:45:17 21.3 C 23 %
2412 05-09-2020 17:55:17 20 C 25 %
2413 05-09-2020 18:05:18 19.8 C 25 %
2414 05-09-2020 18:15:17 20 C 25 %
2415 05-09-2020 18:25:17 20.2 C 24 %
2416 05-09-2020 18:35:17 19.8 C 24 %
2417 05-09-2020 18:45:17 19.5 C 23 %
2418 05-09-2020 18:55:17 18.6 C 25 %
2419 05-09-2020 19:05:17 18.7 C 24 %
2420 05-09-2020 19:15:17 18.9 C 26 %
2421 05-09-2020 19:25:17 18.6 C 25 %
2422 05-09-2020 19:35:17 18 C 26 %
2423 05-09-2020 19:45:17 16.5 C 26 %
2424 05-09-2020 19:55:17 16.5 C 27 %
2425 05-09-2020 20:05:17 16.6 C 26 %
Sensor: Nr:Datum:Temp:Feuchte:
Aussen-T/F 2426 05-09-2020 20:15:18 16.8 C 26 %
2427 05-09-2020 20:25:18 16.3 C 27 %
2428 05-09-2020 20:35:17 15.6 C 30 %
2429 05-09-2020 20:45:17 14.8 C 31 %
2430 05-09-2020 20:55:17 14.8 C 31 %
2431 05-09-2020 21:05:17 14.4 C 32 %
2432 05-09-2020 21:15:18 14.2 C 32 %
2433 05-09-2020 21:25:18 14 C 32 %
2434 05-09-2020 21:35:18 14 C 32 %
2435 05-09-2020 21:45:17 13.6 C 33 %
2436 05-09-2020 21:55:17 13.8 C 33 %
2437 05-09-2020 22:05:17 13.8 C 33 %
2438 05-09-2020 22:15:17 14.1 C 32 %
2439 05-09-2020 22:25:17 13.9 C 33 %
2440 05-09-2020 22:35:18 14.1 C 32 %
2441 05-09-2020 22:45:18 13.7 C 33 %
2442 05-09-2020 22:55:18 13.3 C 34 %
2443 05-09-2020 23:05:17 13.2 C 34 %
2444 05-09-2020 23:15:17 13.1 C 34 %
2445 05-09-2020 23:25:17 13 C 35 %
2446 05-09-2020 23:35:18 13 C 35 %
2447 05-09-2020 23:45:17 12.9 C 35 %
2448 05-09-2020 23:55:17 13 C 35 %
2449 06-09-2020 00:05:17 12.9 C 35 %
2450 06-09-2020 00:15:18 12.7 C 35 %
Sensor: Nr:Datum:Temp:Feuchte:
Aussen-T/F 2451 06-09-2020 00:25:18 12.2 C 36 %
2452 06-09-2020 00:35:18 11.9 C 38 %
2453 06-09-2020 00:45:17 11.8 C 38 %
2454 06-09-2020 00:55:17 11.7 C 39 %
2455 06-09-2020 01:05:17 11.5 C 39 %
2456 06-09-2020 01:15:18 11.6 C 39 %
2457 06-09-2020 01:25:18 11.5 C 39 %
2458 06-09-2020 01:35:18 11.1 C 40 %
2459 06-09-2020 01:45:17 10.8 C 41 %
2460 06-09-2020 01:55:17 10.6 C 40 %
2461 06-09-2020 02:05:18 10.4 C 40 %
2462 06-09-2020 02:15:18 10.2 C 41 %
2463 06-09-2020 02:25:18 10.1 C 41 %
2464 06-09-2020 02:35:17 10 C 41 %
2465 06-09-2020 02:45:18 9.9 C 41 %
2466 06-09-2020 02:55:18 9.6 C 42 %
2467 06-09-2020 03:05:18 9.3 C 43 %
2468 06-09-2020 03:15:17 9.3 C 43 %
2469 06-09-2020 03:25:17 9.2 C 44 %
2470 06-09-2020 03:35:17 8.7 C 44 %
2471 06-09-2020 03:45:17 8.7 C 45 %
2472 06-09-2020 03:55:17 8.5 C 45 %
2473 06-09-2020 04:05:18 8.9 C 46 %
2474 06-09-2020 04:15:18 8.7 C 45 %
2475 06-09-2020 04:25:18 8.6 C 45 %
Sensor: Nr:Datum:Temp:Feuchte:
Aussen-T/F 2476 06-09-2020 04:35:18 8.4 C 45 %
2477 06-09-2020 04:45:17 8.5 C 45 %
2478 06-09-2020 04:55:17 8.5 C 45 %
2479 06-09-2020 05:05:18 8.4 C 45 %
2480 06-09-2020 05:15:17 8.2 C 45 %
2481 06-09-2020 05:25:17 8.4 C 45 %
2482 06-09-2020 05:35:17 8.3 C 46 %
2483 06-09-2020 05:45:17 7.9 C 46 %
2484 06-09-2020 05:55:17 7.9 C 46 %
2485 06-09-2020 06:05:18 7.6 C 46 %
2486 06-09-2020 06:15:17 7.5 C 46 %
2487 06-09-2020 06:25:17 7.5 C 46 %
2488 06-09-2020 06:35:18 7.7 C 46 %
2489 06-09-2020 06:45:17 7.6 C 46 %
2490 06-09-2020 06:55:18 7.4 C 46 %
2491 06-09-2020 07:05:18 7.5 C 46 %
2492 06-09-2020 07:15:18 7.9 C 46 %
2493 06-09-2020 07:25:18 7.6 C 46 %
2494 06-09-2020 07:35:17 7.8 C 46 %
2495 06-09-2020 07:45:17 7.6 C 46 %
2496 06-09-2020 07:55:18 7.5 C 46 %
2497 06-09-2020 08:05:18 7.6 C 46 %
2498 06-09-2020 08:15:17 7.6 C 46 %
2499 06-09-2020 08:25:17 7.8 C 46 %
2500 06-09-2020 08:35:17 8 C 46 %
Sensor: Nr:Datum:Temp:Feuchte:
Aussen-T/F 2501 06-09-2020 08:45:17 8.3 C 46 %
2502 06-09-2020 08:55:17 8.4 C 45 %
2503 06-09-2020 09:05:17 8.7 C 45 %
2504 06-09-2020 09:15:17 8.8 C 45 %
2505 06-09-2020 09:25:17 9.1 C 44 %
2506 06-09-2020 09:35:17 9.3 C 44 %
2507 06-09-2020 09:45:17 9.5 C 44 %
2508 06-09-2020 09:55:17 10.1 C 42 %
2509 06-09-2020 10:05:17 10.2 C 42 %
2510 06-09-2020 10:15:17 10.7 C 41 %
2511 06-09-2020 10:25:18 11.5 C 39 %
2512 06-09-2020 10:35:18 12 C 38 %
2513 06-09-2020 10:45:17 12.7 C 38 %
2514 06-09-2020 10:55:17 13.2 C 36 %
2515 06-09-2020 11:05:17 14.1 C 36 %
2516 06-09-2020 11:15:17 15 C 33 %
2517 06-09-2020 11:25:17 15.4 C 32 %
2518 06-09-2020 11:35:18 16.2 C 30 %
2519 06-09-2020 11:45:18 16.5 C 29 %
2520 06-09-2020 11:55:18 16.7 C 29 %
2521 06-09-2020 12:05:18 16.6 C 29 %
2522 06-09-2020 12:15:18 17.2 C 28 %
2523 06-09-2020 12:25:18 17.1 C 28 %
2524 06-09-2020 12:35:18 17.1 C 27 %
2525 06-09-2020 12:45:18 17.4 C 27 %
Sensor: Nr:Datum:Temp:Feuchte:
Aussen-T/F 2526 06-09-2020 12:55:18 17.4 C 27 %
2527 06-09-2020 13:05:18 17.7 C 27 %
2528 06-09-2020 13:15:17 18.1 C 26 %
2529 06-09-2020 13:25:18 17.7 C 26 %
2530 06-09-2020 13:35:18 17.9 C 26 %
2531 06-09-2020 13:45:17 19 C 25 %
2532 06-09-2020 13:55:17 19.3 C 24 %
2533 06-09-2020 14:05:17 19.8 C 23 %
2534 06-09-2020 14:15:18 21.1 C 22 %
2535 06-09-2020 14:25:18 21.1 C 21 %
2536 06-09-2020 14:35:18 21.6 C 21 %
2537 06-09-2020 14:45:17 24.2 C 20 %
2538 06-09-2020 14:55:17 21.6 C 20 %
2539 06-09-2020 15:05:18 20.9 C 21 %
2540 06-09-2020 15:15:17 21 C 20 %
2541 06-09-2020 15:25:17 24.3 C 20 %
2542 06-09-2020 15:35:18 21.3 C 20 %
2543 06-09-2020 15:45:17 21 C 20 %
2544 06-09-2020 15:55:17 19.3 C 21 %
2545 06-09-2020 16:05:17 19 C 21 %
2546 06-09-2020 16:15:17 18.9 C 22 %
2547 06-09-2020 16:25:17 18.8 C 22 %
2548 06-09-2020 16:35:18 19.1 C 21 %
2549 06-09-2020 16:45:17 19.3 C 21 %
2550 06-09-2020 16:55:17 19.6 C 21 %
Sensor: Nr:Datum:Temp:Feuchte:
Aussen-T/F 2551 06-09-2020 17:05:18 19.6 C 21 %
2552 06-09-2020 17:15:17 19.8 C 21 %
2553 06-09-2020 17:25:18 19.4 C 21 %
2554 06-09-2020 17:35:17 18.9 C 23 %
2555 06-09-2020 17:45:17 18.7 C 23 %
2556 06-09-2020 17:55:17 18.6 C 23 %
2557 06-09-2020 18:05:18 18.7 C 23 %
2558 06-09-2020 18:15:17 19.3 C 22 %
2559 06-09-2020 18:25:17 19.5 C 21 %
2560 06-09-2020 18:35:17 19.1 C 21 %
2561 06-09-2020 18:45:18 18.7 C 22 %
2562 06-09-2020 18:55:18 18.5 C 22 %
2563 06-09-2020 19:05:18 18.2 C 22 %
2564 06-09-2020 19:15:17 17.9 C 23 %
2565 06-09-2020 19:25:18 17.4 C 25 %
2566 06-09-2020 19:35:17 16.7 C 26 %
2567 06-09-2020 19:45:17 15.4 C 28 %
2568 06-09-2020 19:55:17 15.1 C 28 %
2569 06-09-2020 20:05:17 14.5 C 30 %
2570 06-09-2020 20:15:17 14.6 C 29 %
2571 06-09-2020 20:25:17 14.2 C 29 %
2572 06-09-2020 20:35:18 13.8 C 30 %
2573 06-09-2020 20:45:17 13.5 C 30 %
2574 06-09-2020 20:55:17 13.3 C 31 %
2575 06-09-2020 21:05:18 13 C 31 %
Sensor: Nr:Datum:Temp:Feuchte:
Aussen-T/F 2576 06-09-2020 21:15:17 12.4 C 34 %
2577 06-09-2020 21:25:18 12.4 C 34 %
2578 06-09-2020 21:35:18 12.3 C 35 %
2579 06-09-2020 21:45:18 12.1 C 35 %
2580 06-09-2020 21:55:18 12 C 35 %
2581 06-09-2020 22:05:17 12.2 C 35 %
2582 06-09-2020 22:15:17 12.2 C 35 %
2583 06-09-2020 22:25:17 12.3 C 35 %
2584 06-09-2020 22:35:18 12.4 C 35 %
2585 06-09-2020 22:45:18 12.4 C 35 %
2586 06-09-2020 22:55:18 12.3 C 35 %
2587 06-09-2020 23:05:19 12.3 C 35 %
2588 06-09-2020 23:15:18 12.5 C 35 %
2589 06-09-2020 23:25:18 12.4 C 35 %
2590 06-09-2020 23:35:18 12.9 C 35 %
2591 06-09-2020 23:45:18 12.9 C 35 %
2592 06-09-2020 23:55:18 12.7 C 35 %
2593 07-09-2020 00:05:18 12.6 C 35 %
2594 07-09-2020 00:15:18 12.6 C 35 %
2595 07-09-2020 00:25:18 12.6 C 35 %
2596 07-09-2020 00:35:18 12.5 C 35 %
2597 07-09-2020 00:45:18 12.5 C 35 %
2598 07-09-2020 00:55:18 12.4 C 35 %
2599 07-09-2020 01:05:18 12.2 C 36 %
2600 07-09-2020 01:15:18 12.2 C 36 %
Sensor: Nr:Datum:Temp:Feuchte:
Aussen-T/F 2601 07-09-2020 01:25:18 11.9 C 37 %
2602 07-09-2020 01:35:18 11.5 C 37 %
2603 07-09-2020 01:45:17 11.2 C 37 %
2604 07-09-2020 01:55:18 11 C 37 %
2605 07-09-2020 02:05:18 10.3 C 39 %
2606 07-09-2020 02:15:18 10.1 C 40 %
2607 07-09-2020 02:25:18 9.7 C 41 %
2608 07-09-2020 02:35:18 9.6 C 41 %
2609 07-09-2020 02:45:17 9.3 C 41 %
2610 07-09-2020 02:55:18 8.9 C 42 %
2611 07-09-2020 03:05:17 8.9 C 42 %
2612 07-09-2020 03:15:17 9.2 C 42 %
2613 07-09-2020 03:25:18 8.7 C 43 %
2614 07-09-2020 03:35:18 8.8 C 43 %
2615 07-09-2020 03:45:18 8.4 C 43 %
2616 07-09-2020 03:55:18 8.3 C 44 %
2617 07-09-2020 04:05:18 8.5 C 45 %
2618 07-09-2020 04:15:18 8.3 C 44 %
2619 07-09-2020 04:25:18 8.3 C 44 %
2620 07-09-2020 04:35:17 8 C 44 %
2621 07-09-2020 04:45:18 7.9 C 45 %
2622 07-09-2020 04:55:18 8 C 45 %
2623 07-09-2020 05:05:18 7.9 C 45 %
2624 07-09-2020 05:15:18 7.9 C 45 %
2625 07-09-2020 05:25:18 7.8 C 45 %
Sensor: Nr:Datum:Temp:Feuchte:
Aussen-T/F 2626 07-09-2020 05:35:18 7.5 C 45 %
2627 07-09-2020 05:45:18 7.7 C 46 %
2628 07-09-2020 05:55:18 7.4 C 46 %
2629 07-09-2020 06:05:18 7.5 C 46 %
2630 07-09-2020 06:15:17 7.2 C 46 %
2631 07-09-2020 06:25:17 7.4 C 46 %
2632 07-09-2020 06:35:18 7.2 C 46 %
2633 07-09-2020 06:45:18 7.3 C 46 %
2634 07-09-2020 06:55:18 7.3 C 46 %
2635 07-09-2020 07:05:18 7.1 C 46 %
2636 07-09-2020 07:15:18 6.9 C 47 %
2637 07-09-2020 07:25:18 7.1 C 46 %
2638 07-09-2020 07:35:18 7.1 C 46 %
2639 07-09-2020 07:45:18 7.4 C 46 %
2640 07-09-2020 07:55:18 7.4 C 46 %
2641 07-09-2020 08:05:18 7.5 C 46 %
2642 07-09-2020 08:15:18 7.6 C 46 %
2643 07-09-2020 08:25:18 7.7 C 46 %
2644 07-09-2020 08:35:18 8.1 C 45 %
2645 07-09-2020 08:45:18 8.1 C 45 %
2646 07-09-2020 08:55:18 8.3 C 45 %
2647 07-09-2020 09:05:18 8.5 C 45 %
2648 07-09-2020 09:15:18 8.7 C 45 %
2649 07-09-2020 09:25:18 9.1 C 44 %
2650 07-09-2020 09:35:18 9.5 C 43 %
Sensor: Nr:Datum:Temp:Feuchte:
Aussen-T/F 2651 07-09-2020 09:45:18 9.7 C 42 %
2652 07-09-2020 09:55:18 10.3 C 41 %
2653 07-09-2020 10:05:18 10.4 C 41 %
2654 07-09-2020 10:15:17 10.8 C 41 %
2655 07-09-2020 10:25:17 11.1 C 40 %
2656 07-09-2020 10:35:18 11.6 C 40 %
2657 07-09-2020 10:45:17 12.3 C 39 %
2658 07-09-2020 10:55:17 13 C 37 %
2659 07-09-2020 11:05:17 14.2 C 35 %
2660 07-09-2020 11:15:17 14.3 C 35 %
2661 07-09-2020 11:25:17 14.9 C 35 %
2662 07-09-2020 11:35:17 16 C 32 %
2663 07-09-2020 11:45:17 15.5 C 33 %
2664 07-09-2020 11:55:17 16.5 C 31 %
2665 07-09-2020 12:05:17 16.5 C 31 %
2666 07-09-2020 12:15:17 17.2 C 30 %
2667 07-09-2020 12:25:17 16.8 C 30 %
2668 07-09-2020 12:35:18 16.9 C 30 %
2669 07-09-2020 12:45:17 16.9 C 30 %
2670 07-09-2020 12:55:17 17.3 C 29 %
2671 07-09-2020 13:05:17 17.4 C 29 %
2672 07-09-2020 13:15:17 17.5 C 28 %
2673 07-09-2020 13:25:17 17.8 C 28 %
2674 07-09-2020 13:35:17 17.9 C 28 %
2675 07-09-2020 13:45:18 18 C 26 %
Sensor: Nr:Datum:Temp:Feuchte:
Aussen-T/F 2676 07-09-2020 13:55:18 18.3 C 26 %
2677 07-09-2020 14:05:17 18.9 C 25 %
2678 07-09-2020 14:15:17 19.7 C 25 %
2679 07-09-2020 14:25:17 20.2 C 23 %
2680 07-09-2020 14:35:17 25.5 C 20 %
2681 07-09-2020 14:45:17 24.4 C 20 %
2682 07-09-2020 14:55:17 25.1 C 20 %
2683 07-09-2020 15:05:17 25.7 C 20 %
2684 07-09-2020 15:15:17 26 C 20 %
2685 07-09-2020 15:25:17 27.5 C 20 %
2686 07-09-2020 15:35:18 28.3 C 20 %
2687 07-09-2020 15:45:17 29.3 C 20 %
2688 07-09-2020 15:55:17 27.5 C 20 %
2689 07-09-2020 16:05:17 28.5 C 20 %
2690 07-09-2020 16:15:17 28.8 C 20 %
2691 07-09-2020 16:25:17 30.5 C 20 %
2692 07-09-2020 16:35:17 28.9 C 20 %
2693 07-09-2020 16:45:18 26.3 C 20 %
2694 07-09-2020 16:55:18 23.4 C 20 %
2695 07-09-2020 17:05:18 24.9 C 20 %
2696 07-09-2020 17:15:18 26.9 C 20 %
2697 07-09-2020 17:25:18 27.3 C 20 %
2698 07-09-2020 17:35:17 27.5 C 20 %
2699 07-09-2020 17:45:17 26.2 C 20 %
2700 07-09-2020 17:55:17 23.7 C 20 %
Sensor: Nr:Datum:Temp:Feuchte:
Aussen-T/F 2701 07-09-2020 18:05:17 22.3 C 20 %
2702 07-09-2020 18:15:18 20.6 C 22 %
2703 07-09-2020 18:25:18 20.7 C 23 %
2704 07-09-2020 18:35:18 21.5 C 21 %
2705 07-09-2020 18:45:17 21.5 C 20 %
2706 07-09-2020 18:55:17 21.3 C 20 %
2707 07-09-2020 19:05:17 20.7 C 22 %
2708 07-09-2020 19:15:17 19.5 C 25 %
2709 07-09-2020 19:25:17 18.8 C 25 %
2710 07-09-2020 19:35:17 18.3 C 25 %
2711 07-09-2020 19:45:18 17.9 C 26 %
2712 07-09-2020 19:55:18 17.7 C 25 %
2713 07-09-2020 20:05:18 17.3 C 26 %
2714 07-09-2020 20:15:17 16.6 C 26 %
2715 07-09-2020 20:25:17 16.1 C 27 %
2716 07-09-2020 20:35:17 15.5 C 28 %
2717 07-09-2020 20:45:17 14.9 C 30 %
2718 07-09-2020 20:55:17 14.9 C 30 %
2719 07-09-2020 21:05:18 14.5 C 31 %
2720 07-09-2020 21:15:17 13.8 C 32 %
2721 07-09-2020 21:25:17 13.1 C 33 %
2722 07-09-2020 21:35:18 12.9 C 34 %
2723 07-09-2020 21:45:17 12.6 C 35 %
2724 07-09-2020 21:55:17 12.4 C 35 %
2725 07-09-2020 22:05:17 12.4 C 35 %
Sensor: Nr:Datum:Temp:Feuchte:
Aussen-T/F 2726 07-09-2020 22:15:18 12.1 C 35 %
2727 07-09-2020 22:25:18 11.9 C 36 %
2728 07-09-2020 22:35:17 11.6 C 37 %
2729 07-09-2020 22:45:17 11.5 C 37 %
2730 07-09-2020 22:55:17 11.4 C 37 %
2731 07-09-2020 23:05:18 11.4 C 37 %
2732 07-09-2020 23:15:17 11.1 C 37 %
2733 07-09-2020 23:25:17 11.2 C 37 %
2734 07-09-2020 23:35:17 10.9 C 38 %
2735 07-09-2020 23:45:18 10.9 C 39 %
2736 07-09-2020 23:55:18 10.9 C 39 %
2737 08-09-2020 00:05:17 10.5 C 39 %
2738 08-09-2020 00:15:18 10.2 C 39 %
2739 08-09-2020 00:25:18 10.2 C 39 %
2740 08-09-2020 00:35:17 10.1 C 40 %
2741 08-09-2020 00:45:18 10.2 C 40 %
2742 08-09-2020 00:55:18 9.9 C 40 %
2743 08-09-2020 01:05:17 9.9 C 41 %
2744 08-09-2020 01:15:17 10.2 C 40 %
2745 08-09-2020 01:25:17 9.8 C 40 %
2746 08-09-2020 01:35:18 9.4 C 41 %
2747 08-09-2020 01:45:17 9.5 C 41 %
2748 08-09-2020 01:55:17 9.5 C 41 %
2749 08-09-2020 02:05:18 9.3 C 42 %
2750 08-09-2020 02:15:17 9.2 C 42 %
Sensor: Nr:Datum:Temp:Feuchte:
Aussen-T/F 2751 08-09-2020 02:25:17 9 C 42 %
2752 08-09-2020 02:35:18 9.2 C 42 %
2753 08-09-2020 02:45:17 9.1 C 41 %
2754 08-09-2020 02:55:17 9.1 C 42 %
2755 08-09-2020 03:05:17 9.1 C 42 %
2756 08-09-2020 03:15:17 9.2 C 42 %
2757 08-09-2020 03:25:17 8.7 C 42 %
2758 08-09-2020 03:35:18 8.5 C 43 %
2759 08-09-2020 03:45:17 8.8 C 43 %
2760 08-09-2020 03:55:17 8.5 C 42 %
2761 08-09-2020 04:05:18 8.6 C 43 %
2762 08-09-2020 04:15:17 8.4 C 43 %
2763 08-09-2020 04:25:18 8.4 C 44 %
2764 08-09-2020 04:35:17 8.2 C 44 %
2765 08-09-2020 04:45:17 8.1 C 45 %
2766 08-09-2020 04:55:17 8 C 44 %
2767 08-09-2020 05:05:17 8.1 C 45 %
2768 08-09-2020 05:15:17 8.2 C 45 %
2769 08-09-2020 05:25:17 8.1 C 44 %
2770 08-09-2020 05:35:17 8 C 44 %
2771 08-09-2020 05:45:17 8 C 44 %
2772 08-09-2020 05:55:17 7.8 C 45 %
2773 08-09-2020 06:05:17 7.5 C 45 %
2774 08-09-2020 06:15:17 7.6 C 46 %
2775 08-09-2020 06:25:17 7.7 C 45 %
Sensor: Nr:Datum:Temp:Feuchte:
Aussen-T/F 2776 08-09-2020 06:35:17 7.7 C 45 %
2777 08-09-2020 06:45:17 7.5 C 44 %
2778 08-09-2020 06:55:17 7.4 C 45 %
2779 08-09-2020 07:05:18 7.5 C 46 %
2780 08-09-2020 07:15:18 7.6 C 45 %
2781 08-09-2020 07:25:18 7.8 C 46 %
2782 08-09-2020 07:35:18 8.1 C 45 %
2783 08-09-2020 07:45:17 8.1 C 44 %
2784 08-09-2020 07:55:17 8.4 C 44 %
2785 08-09-2020 08:05:18 8.5 C 44 %
2786 08-09-2020 08:15:18 8.7 C 44 %
2787 08-09-2020 08:25:18 8.8 C 44 %
2788 08-09-2020 08:35:17 9 C 43 %
2789 08-09-2020 08:45:18 9.1 C 43 %
2790 08-09-2020 08:55:18 9.2 C 43 %
2791 08-09-2020 09:05:18 9.3 C 42 %
2792 08-09-2020 09:15:17 9.9 C 42 %
2793 08-09-2020 09:25:17 10.1 C 40 %
2794 08-09-2020 09:35:18 10.5 C 40 %
2795 08-09-2020 09:45:17 10.9 C 40 %
2796 08-09-2020 09:55:17 11.3 C 39 %
2797 08-09-2020 10:05:18 11.6 C 39 %
2798 08-09-2020 10:15:17 12.2 C 37 %
2799 08-09-2020 10:25:17 13.1 C 36 %
2800 08-09-2020 10:35:18 14.1 C 35 %
Sensor: Nr:Datum:Temp:Feuchte:
Aussen-T/F 2801 08-09-2020 10:45:17 14.6 C 34 %
2802 08-09-2020 10:55:17 15.8 C 32 %
2803 08-09-2020 11:05:17 17.1 C 30 %
2804 08-09-2020 11:15:17 17.3 C 30 %
2805 08-09-2020 11:25:18 18.7 C 28 %
2806 08-09-2020 11:35:18 19.4 C 27 %
2807 08-09-2020 11:45:17 19.6 C 27 %
2808 08-09-2020 11:55:17 20.4 C 26 %
2809 08-09-2020 12:05:17 21.2 C 25 %
2810 08-09-2020 12:15:17 21.6 C 25 %
2811 08-09-2020 12:25:17 21 C 25 %
2812 08-09-2020 12:35:17 21.4 C 25 %
2813 08-09-2020 12:45:17 21.3 C 24 %
2814 08-09-2020 12:55:17 21.6 C 24 %
2815 08-09-2020 13:05:18 21.6 C 24 %
2816 08-09-2020 13:15:17 21.7 C 24 %
2817 08-09-2020 13:25:17 22.1 C 23 %
2818 08-09-2020 13:35:18 22.4 C 23 %
2819 08-09-2020 13:45:17 22.3 C 22 %
2820 08-09-2020 13:55:17 22.8 C 22 %
2821 08-09-2020 14:05:18 22.6 C 22 %
2822 08-09-2020 14:15:17 23.4 C 21 %
2823 08-09-2020 14:25:17 25.7 C 20 %
2824 08-09-2020 14:35:18 28.3 C 20 %
2825 08-09-2020 14:45:17 27.7 C 20 %
Sensor: Nr:Datum:Temp:Feuchte:
Aussen-T/F 2826 08-09-2020 14:55:17 27.9 C 20 %
2827 08-09-2020 15:05:17 29.2 C 20 %
2828 08-09-2020 15:15:17 30.2 C 20 %
2829 08-09-2020 15:25:17 27.8 C 20 %
2830 08-09-2020 15:35:18 29 C 20 %
2831 08-09-2020 15:45:17 30.4 C 20 %
2832 08-09-2020 15:55:17 31.2 C 20 %
2833 08-09-2020 16:05:18 32 C 20 %
2834 08-09-2020 16:15:18 32.8 C 20 %
2835 08-09-2020 16:25:18 32.2 C 20 %
2836 08-09-2020 16:35:18 31.4 C 20 %
2837 08-09-2020 16:45:17 33.3 C 20 %
2838 08-09-2020 16:55:17 30.7 C 20 %
2839 08-09-2020 17:05:17 31.7 C 20 %
2840 08-09-2020 17:15:17 31.7 C 20 %
2841 08-09-2020 17:25:17 32.3 C 20 %
2842 08-09-2020 17:35:17 30.2 C 20 %
2843 08-09-2020 17:45:17 29.5 C 20 %
2844 08-09-2020 17:55:17 27.4 C 20 %
2845 08-09-2020 18:05:18 27.1 C 20 %
2846 08-09-2020 18:15:17 26.8 C 20 %
2847 08-09-2020 18:25:17 26.6 C 20 %
2848 08-09-2020 18:35:18 26.4 C 20 %
2849 08-09-2020 18:45:17 25.9 C 20 %
2850 08-09-2020 18:55:17 25.6 C 20 %
Sensor: Nr:Datum:Temp:Feuchte:
Aussen-T/F 2851 08-09-2020 19:05:18 25.1 C 20 %
2852 08-09-2020 19:15:18 24.5 C 21 %
2853 08-09-2020 19:25:18 24.2 C 21 %
2854 08-09-2020 19:35:18 23.6 C 22 %
2855 08-09-2020 19:45:17 22 C 25 %
2856 08-09-2020 19:55:17 21.4 C 26 %
2857 08-09-2020 20:05:17 20.6 C 28 %
2858 08-09-2020 20:15:17 20.1 C 28 %
2859 08-09-2020 20:25:17 19.9 C 29 %
2860 08-09-2020 20:35:17 19.3 C 30 %
2861 08-09-2020 20:45:17 19.3 C 30 %
2862 08-09-2020 20:55:17 19.1 C 30 %
2863 08-09-2020 21:05:17 19.1 C 30 %
2864 08-09-2020 21:15:17 18.9 C 31 %
2865 08-09-2020 21:25:17 19.1 C 30 %
2866 08-09-2020 21:35:18 19 C 30 %
2867 08-09-2020 21:45:17 18.4 C 31 %
2868 08-09-2020 21:55:17 18.1 C 32 %
2869 08-09-2020 22:05:18 18.3 C 31 %
2870 08-09-2020 22:15:18 17.8 C 33 %
2871 08-09-2020 22:25:18 17.6 C 33 %
2872 08-09-2020 22:35:17 17.2 C 33 %
2873 08-09-2020 22:45:17 17.1 C 33 %
2874 08-09-2020 22:55:17 16.6 C 35 %
2875 08-09-2020 23:05:17 16 C 36 %
Sensor: Nr:Datum:Temp:Feuchte:
Aussen-T/F 2876 08-09-2020 23:15:17 15.7 C 36 %
2877 08-09-2020 23:25:17 15.5 C 37 %
2878 08-09-2020 23:35:18 15.2 C 37 %
2879 08-09-2020 23:45:17 15.2 C 38 %
2880 08-09-2020 23:55:17 15 C 38 %
2881 09-09-2020 00:05:18 14.8 C 39 %
2882 09-09-2020 00:15:17 14.6 C 40 %
2883 09-09-2020 00:25:17 14.5 C 40 %
2884 09-09-2020 00:35:18 14.4 C 40 %
2885 09-09-2020 00:45:17 14.3 C 40 %
2886 09-09-2020 00:55:17 14.1 C 40 %
2887 09-09-2020 01:05:18 14 C 40 %
2888 09-09-2020 01:15:17 14 C 41 %
2889 09-09-2020 01:25:17 13.8 C 42 %
2890 09-09-2020 01:35:17 14 C 41 %
2891 09-09-2020 01:45:17 13.9 C 41 %
2892 09-09-2020 01:55:17 13.7 C 41 %
2893 09-09-2020 02:05:18 13.6 C 42 %
2894 09-09-2020 02:15:17 13.5 C 42 %
2895 09-09-2020 02:25:17 13.3 C 42 %
2896 09-09-2020 02:35:18 13.3 C 42 %
2897 09-09-2020 02:45:17 13.1 C 42 %
2898 09-09-2020 02:55:17 13.2 C 43 %
2899 09-09-2020 03:05:18 13.1 C 42 %
2900 09-09-2020 03:15:17 12.8 C 43 %
Sensor: Nr:Datum:Temp:Feuchte:
Aussen-T/F 2901 09-09-2020 03:25:17 12.7 C 44 %
2902 09-09-2020 03:35:17 12.7 C 44 %
2903 09-09-2020 03:45:17 12.5 C 44 %
2904 09-09-2020 03:55:17 12.4 C 44 %
2905 09-09-2020 04:05:18 12.3 C 44 %
2906 09-09-2020 04:15:17 12.4 C 44 %
2907 09-09-2020 04:25:17 12.4 C 44 %
2908 09-09-2020 04:35:17 12.3 C 44 %
2909 09-09-2020 04:45:17 12.3 C 44 %
2910 09-09-2020 04:55:17 12.3 C 44 %
2911 09-09-2020 05:05:17 12.2 C 44 %
2912 09-09-2020 05:15:17 12.3 C 44 %
2913 09-09-2020 05:25:17 12 C 44 %
2914 09-09-2020 05:35:17 12.2 C 44 %
2915 09-09-2020 05:45:17 12.1 C 44 %
2916 09-09-2020 05:55:18 12 C 43 %
2917 09-09-2020 06:05:18 12.1 C 44 %
2918 09-09-2020 06:15:17 11.7 C 45 %
2919 09-09-2020 06:25:17 11.7 C 45 %
2920 09-09-2020 06:35:17 11.8 C 45 %
2921 09-09-2020 06:45:17 11.7 C 45 %
2922 09-09-2020 06:55:17 11.6 C 45 %
2923 09-09-2020 07:05:18 11.7 C 45 %
2924 09-09-2020 07:15:18 11.8 C 45 %
2925 09-09-2020 07:25:18 11.8 C 45 %
Sensor: Nr:Datum:Temp:Feuchte:
Aussen-T/F 2926 09-09-2020 07:35:18 12.1 C 44 %
2927 09-09-2020 07:45:17 12 C 43 %
2928 09-09-2020 07:55:18 11.9 C 44 %
2929 09-09-2020 08:05:17 12.1 C 43 %
2930 09-09-2020 08:15:17 12.3 C 44 %
2931 09-09-2020 08:25:17 12.5 C 44 %
2932 09-09-2020 08:35:18 12.6 C 44 %
2933 09-09-2020 08:45:17 12.8 C 43 %
2934 09-09-2020 08:55:17 13 C 42 %
2935 09-09-2020 09:05:17 13.1 C 42 %
2936 09-09-2020 09:15:17 13.4 C 42 %
2937 09-09-2020 09:25:17 13.7 C 42 %
2938 09-09-2020 09:35:18 14.2 C 41 %
2939 09-09-2020 09:45:18 15.6 C 38 %
2940 09-09-2020 09:55:18 16.3 C 37 %
2941 09-09-2020 10:05:17 16.8 C 38 %
2942 09-09-2020 10:15:17 18 C 35 %
2943 09-09-2020 10:25:18 19.1 C 32 %
2944 09-09-2020 10:35:17 20.6 C 31 %
2945 09-09-2020 10:45:18 21.1 C 29 %
2946 09-09-2020 10:55:18 21.6 C 29 %
2947 09-09-2020 11:05:18 22 C 27 %
2948 09-09-2020 11:15:17 22.3 C 27 %
2949 09-09-2020 11:25:17 22.9 C 27 %
2950 09-09-2020 11:35:18 23.8 C 26 %
Sensor: Nr:Datum:Temp:Feuchte:
Aussen-T/F 2951 09-09-2020 11:45:18 24.3 C 25 %
2952 09-09-2020 11:55:18 24 C 25 %
2953 09-09-2020 12:05:18 23.7 C 26 %
2954 09-09-2020 12:15:17 23.4 C 26 %
2955 09-09-2020 12:25:17 23.4 C 26 %
2956 09-09-2020 12:35:18 23.3 C 25 %
2957 09-09-2020 12:45:17 23.7 C 26 %
2958 09-09-2020 12:55:17 23.4 C 26 %
2959 09-09-2020 13:05:18 23.5 C 26 %
2960 09-09-2020 13:15:17 23.6 C 26 %
2961 09-09-2020 13:25:17 23.2 C 26 %
2962 09-09-2020 13:35:17 23.4 C 26 %
2963 09-09-2020 13:45:17 23.3 C 26 %
2964 09-09-2020 13:55:17 23.6 C 26 %
2965 09-09-2020 14:05:18 23.5 C 26 %
2966 09-09-2020 14:15:17 24.2 C 25 %
2967 09-09-2020 14:25:17 25.5 C 24 %
2968 09-09-2020 14:35:18 26.1 C 23 %
2969 09-09-2020 14:45:17 25.4 C 23 %
2970 09-09-2020 14:55:17 26.7 C 23 %
2971 09-09-2020 15:05:17 29.8 C 20 %
2972 09-09-2020 15:15:17 29.8 C 20 %
2973 09-09-2020 15:25:17 26.2 C 21 %
2974 09-09-2020 15:35:18 25.6 C 22 %
2975 09-09-2020 15:45:18 24.7 C 23 %
Sensor: Nr:Datum:Temp:Feuchte:
Aussen-T/F 2976 09-09-2020 15:55:18 24.6 C 23 %
2977 09-09-2020 16:05:17 24.6 C 24 %
2978 09-09-2020 16:15:17 24.8 C 23 %
2979 09-09-2020 16:25:17 24.7 C 23 %
2980 09-09-2020 16:35:18 25.1 C 23 %
2981 09-09-2020 16:45:18 24.9 C 24 %
2982 09-09-2020 16:55:18 24.8 C 23 %
2983 09-09-2020 17:05:18 25.2 C 22 %
2984 09-09-2020 17:15:17 25.6 C 22 %
2985 09-09-2020 17:25:17 25.3 C 22 %
2986 09-09-2020 17:35:18 26 C 21 %
2987 09-09-2020 17:45:18 25.1 C 23 %
2988 09-09-2020 17:55:18 25.6 C 23 %
2989 09-09-2020 18:05:18 24.5 C 24 %
2990 09-09-2020 18:15:17 24.3 C 24 %
2991 09-09-2020 18:25:17 23.9 C 25 %
2992 09-09-2020 18:35:18 23.7 C 26 %
2993 09-09-2020 18:45:17 23.9 C 26 %
2994 09-09-2020 18:55:18 23.6 C 25 %
2995 09-09-2020 19:05:18 22.9 C 28 %
2996 09-09-2020 19:15:18 22.4 C 28 %
2997 09-09-2020 19:25:18 21.8 C 30 %
2998 09-09-2020 19:35:17 21.9 C 30 %
2999 09-09-2020 19:45:17 21.7 C 30 %
3000 09-09-2020 19:55:17 21.6 C 30 %
Sensor: Nr:Datum:Temp:Feuchte:
Aussen-T/F 3001 09-09-2020 20:05:18 21.4 C 30 %
3002 09-09-2020 20:15:17 21.1 C 30 %
3003 09-09-2020 20:25:17 20.4 C 31 %
3004 09-09-2020 20:35:18 20.2 C 32 %
3005 09-09-2020 20:45:18 19.9 C 32 %
3006 09-09-2020 20:55:18 19.8 C 32 %
3007 09-09-2020 21:05:17 19.7 C 32 %
3008 09-09-2020 21:15:18 19.6 C 32 %
3009 09-09-2020 21:25:18 19.7 C 32 %
3010 09-09-2020 21:35:18 19.7 C 32 %
3011 09-09-2020 21:45:17 19.7 C 32 %
3012 09-09-2020 21:55:17 19.8 C 32 %
3013 09-09-2020 22:05:17 19.8 C 32 %
3014 09-09-2020 22:15:17 20 C 32 %
3015 09-09-2020 22:25:17 19.9 C 32 %
3016 09-09-2020 22:35:17 19.7 C 33 %
3017 09-09-2020 22:45:18 19.7 C 33 %
3018 09-09-2020 22:55:18 19.8 C 33 %
3019 09-09-2020 23:05:18 19.9 C 32 %
3020 09-09-2020 23:15:17 19.9 C 32 %
3021 09-09-2020 23:25:17 20.4 C 31 %
3022 09-09-2020 23:35:17 20.7 C 31 %
3023 09-09-2020 23:45:17 20.8 C 31 %
3024 09-09-2020 23:55:17 20.9 C 31 %
3025 10-09-2020 00:05:18 20.6 C 32 %
Sensor: Nr:Datum:Temp:Feuchte:
Aussen-T/F 3026 10-09-2020 00:15:17 20.1 C 34 %
3027 10-09-2020 00:25:17 19.9 C 35 %
3028 10-09-2020 00:35:18 19.8 C 35 %
3029 10-09-2020 00:45:17 19.6 C 35 %
3030 10-09-2020 00:55:17 18.8 C 38 %
3031 10-09-2020 01:05:17 18.3 C 40 %
3032 10-09-2020 01:15:17 18.1 C 40 %
3033 10-09-2020 01:25:17 18 C 40 %
3034 10-09-2020 01:35:17 18 C 40 %
3035 10-09-2020 01:45:17 17.8 C 41 %
3036 10-09-2020 01:55:17 17.6 C 41 %
3037 10-09-2020 02:05:17 17.5 C 41 %
3038 10-09-2020 02:15:18 17.4 C 40 %
3039 10-09-2020 02:25:18 17.3 C 38 %
3040 10-09-2020 02:35:18 17.3 C 37 %
3041 10-09-2020 02:45:17 17.2 C 37 %
3042 10-09-2020 02:55:17 17.2 C 37 %
3043 10-09-2020 03:05:17 17.2 C 37 %
3044 10-09-2020 03:15:17 17 C 37 %
3045 10-09-2020 03:25:17 17 C 37 %
3046 10-09-2020 03:35:18 17 C 37 %
3047 10-09-2020 03:45:17 17 C 37 %
3048 10-09-2020 03:55:17 16.9 C 37 %
3049 10-09-2020 04:05:17 16.8 C 38 %
3050 10-09-2020 04:15:17 16.6 C 38 %
Sensor: Nr:Datum:Temp:Feuchte:
Aussen-T/F 3051 10-09-2020 04:25:17 16.6 C 37 %
3052 10-09-2020 04:35:17 16.6 C 36 %
3053 10-09-2020 04:45:17 16.6 C 36 %
3054 10-09-2020 04:55:17 16.6 C 35 %
3055 10-09-2020 05:05:17 16.6 C 35 %
3056 10-09-2020 05:15:17 16.5 C 35 %
3057 10-09-2020 05:25:17 16.3 C 35 %
3058 10-09-2020 05:35:17 16.3 C 35 %
3059 10-09-2020 05:45:17 16.1 C 36 %
3060 10-09-2020 05:55:17 16.2 C 36 %
3061 10-09-2020 06:05:17 16.2 C 36 %
3062 10-09-2020 06:15:17 16.1 C 35 %
3063 10-09-2020 06:25:17 16.2 C 35 %
3064 10-09-2020 06:35:17 15.8 C 36 %
3065 10-09-2020 06:45:18 15.7 C 36 %
3066 10-09-2020 06:55:18 15.5 C 36 %
3067 10-09-2020 07:05:17 15.2 C 37 %
3068 10-09-2020 07:15:18 15.2 C 37 %
3069 10-09-2020 07:25:18 15.3 C 36 %
3070 10-09-2020 07:35:18 15.4 C 36 %
3071 10-09-2020 07:45:17 15.4 C 36 %
3072 10-09-2020 07:55:17 15.4 C 36 %
3073 10-09-2020 08:05:17 15.4 C 36 %
3074 10-09-2020 08:15:17 15.5 C 36 %
3075 10-09-2020 08:25:17 15.7 C 36 %
Sensor: Nr:Datum:Temp:Feuchte:
Aussen-T/F 3076 10-09-2020 08:35:17 15.7 C 36 %
3077 10-09-2020 08:45:17 15.6 C 36 %
3078 10-09-2020 08:55:17 15.8 C 36 %
3079 10-09-2020 09:05:17 15.8 C 36 %
3080 10-09-2020 09:15:17 16.2 C 35 %
3081 10-09-2020 09:25:17 16.1 C 35 %
3082 10-09-2020 09:35:17 16.6 C 35 %
3083 10-09-2020 09:45:17 17 C 34 %
3084 10-09-2020 09:55:17 16.7 C 34 %
3085 10-09-2020 10:05:17 16.3 C 33 %
3086 10-09-2020 10:15:17 16.4 C 33 %
3087 10-09-2020 10:25:17 16.3 C 32 %
3088 10-09-2020 10:35:17 16.6 C 32 %
3089 10-09-2020 10:45:17 17 C 32 %
3090 10-09-2020 10:55:17 18.1 C 30 %
3091 10-09-2020 11:05:18 18.2 C 30 %
3092 10-09-2020 11:15:17 17.9 C 31 %
3093 10-09-2020 11:25:17 18.1 C 30 %
3094 10-09-2020 11:35:17 17.8 C 30 %
3095 10-09-2020 11:45:17 17.7 C 30 %
3096 10-09-2020 11:55:17 17.8 C 30 %
3097 10-09-2020 12:05:17 18.7 C 29 %
3098 10-09-2020 12:15:17 18.9 C 29 %
3099 10-09-2020 12:25:17 19.2 C 28 %
3100 10-09-2020 12:35:17 18.8 C 27 %
Sensor: Nr:Datum:Temp:Feuchte:
Aussen-T/F 3101 10-09-2020 12:45:17 18.3 C 28 %
3102 10-09-2020 12:55:18 18.1 C 27 %
3103 10-09-2020 13:05:18 18.5 C 27 %
3104 10-09-2020 13:15:17 18.3 C 27 %
3105 10-09-2020 13:25:17 18.5 C 27 %
3106 10-09-2020 13:35:18 18.5 C 27 %
3107 10-09-2020 13:45:17 19 C 26 %
3108 10-09-2020 13:55:17 19.3 C 26 %
3109 10-09-2020 14:05:18 19.6 C 26 %
3110 10-09-2020 14:15:17 20.3 C 26 %
3111 10-09-2020 14:25:17 21.8 C 25 %
3112 10-09-2020 14:35:17 24.2 C 21 %
3113 10-09-2020 14:45:17 24.7 C 20 %
3114 10-09-2020 14:55:17 24.1 C 20 %
3115 10-09-2020 15:05:17 26.2 C 20 %
3116 10-09-2020 15:15:18 27.1 C 20 %
3117 10-09-2020 15:25:18 27.9 C 20 %
3118 10-09-2020 15:35:18 27.6 C 20 %
3119 10-09-2020 15:45:17 27 C 20 %
3120 10-09-2020 15:55:17 26.7 C 20 %
3121 10-09-2020 16:05:17 26.2 C 20 %
3122 10-09-2020 16:15:17 28.6 C 20 %
3123 10-09-2020 16:25:17 29.3 C 20 %
3124 10-09-2020 16:35:17 29 C 20 %
3125 10-09-2020 16:45:17 26.8 C 20 %
Sensor: Nr:Datum:Temp:Feuchte:
Aussen-T/F 3126 10-09-2020 16:55:17 26.3 C 20 %
3127 10-09-2020 17:05:17 23.9 C 20 %
3128 10-09-2020 17:15:17 24.3 C 20 %
3129 10-09-2020 17:25:17 25.9 C 20 %
3130 10-09-2020 17:35:18 25.8 C 20 %
3131 10-09-2020 17:45:17 24.4 C 20 %
3132 10-09-2020 17:55:17 23 C 20 %
3133 10-09-2020 18:05:17 22.5 C 20 %
3134 10-09-2020 18:15:17 22.1 C 20 %
3135 10-09-2020 18:25:17 22.1 C 20 %
3136 10-09-2020 18:35:18 21.6 C 21 %
3137 10-09-2020 18:45:18 21.5 C 21 %
3138 10-09-2020 18:55:18 21.2 C 22 %
3139 10-09-2020 19:05:18 21.2 C 21 %
3140 10-09-2020 19:15:17 21 C 21 %
3141 10-09-2020 19:25:17 20.9 C 22 %
3142 10-09-2020 19:35:17 20.7 C 21 %
3143 10-09-2020 19:45:17 20.1 C 23 %
3144 10-09-2020 19:55:17 19 C 24 %
3145 10-09-2020 20:05:17 17.8 C 26 %
3146 10-09-2020 20:15:17 17.3 C 26 %
3147 10-09-2020 20:25:17 17 C 26 %
3148 10-09-2020 20:35:18 16.9 C 26 %
3149 10-09-2020 20:45:17 16.9 C 26 %
3150 10-09-2020 20:55:17 16.7 C 26 %
Sensor: Nr:Datum:Temp:Feuchte:
Aussen-T/F 3151 10-09-2020 21:05:17 16.5 C 27 %
3152 10-09-2020 21:15:17 16.4 C 27 %
3153 10-09-2020 21:25:17 15.9 C 27 %
3154 10-09-2020 21:35:17 15.7 C 28 %
3155 10-09-2020 21:45:17 15.1 C 29 %
3156 10-09-2020 21:55:17 15.2 C 29 %
3157 10-09-2020 22:05:17 14.7 C 30 %
3158 10-09-2020 22:15:17 14.3 C 31 %
3159 10-09-2020 22:25:17 14 C 31 %
3160 10-09-2020 22:35:17 13.5 C 32 %
3161 10-09-2020 22:45:18 13 C 33 %
3162 10-09-2020 22:55:18 12.8 C 34 %
3163 10-09-2020 23:05:17 12.5 C 34 %
3164 10-09-2020 23:15:18 12.4 C 35 %
3165 10-09-2020 23:25:18 12.1 C 35 %
3166 10-09-2020 23:35:17 11.8 C 36 %
3167 10-09-2020 23:45:17 11.8 C 36 %
3168 10-09-2020 23:55:17 11.8 C 36 %
3169 11-09-2020 00:05:18 11.8 C 36 %
3170 11-09-2020 00:15:17 11.8 C 36 %
3171 11-09-2020 00:25:17 12.1 C 35 %
3172 11-09-2020 00:35:18 12.2 C 35 %
3173 11-09-2020 00:45:17 12.1 C 35 %
3174 11-09-2020 00:55:17 12.1 C 36 %
3175 11-09-2020 01:05:18 12.1 C 35 %
Sensor: Nr:Datum:Temp:Feuchte:
Aussen-T/F 3176 11-09-2020 01:15:17 12 C 36 %
3177 11-09-2020 01:25:17 12.1 C 35 %
3178 11-09-2020 01:35:18 11.7 C 36 %
3179 11-09-2020 01:45:17 11.2 C 37 %
3180 11-09-2020 01:55:17 11.2 C 37 %
3181 11-09-2020 02:05:18 10.9 C 38 %
3182 11-09-2020 02:15:18 10.9 C 39 %
3183 11-09-2020 02:25:18 10.7 C 39 %
3184 11-09-2020 02:35:18 10.9 C 39 %
3185 11-09-2020 02:45:17 10.2 C 39 %
3186 11-09-2020 02:55:17 9.9 C 40 %
3187 11-09-2020 03:05:17 10.3 C 40 %
3188 11-09-2020 03:15:17 9.8 C 40 %
3189 11-09-2020 03:25:17 9.7 C 41 %
3190 11-09-2020 03:35:18 9.6 C 41 %
3191 11-09-2020 03:45:17 9.5 C 41 %
3192 11-09-2020 03:55:17 9.3 C 41 %
3193 11-09-2020 04:05:18 9.4 C 42 %
3194 11-09-2020 04:15:17 9 C 42 %
3195 11-09-2020 04:25:17 9 C 43 %
3196 11-09-2020 04:35:17 8.7 C 43 %
3197 11-09-2020 04:45:17 8.7 C 44 %
3198 11-09-2020 04:55:17 8.8 C 43 %
3199 11-09-2020 05:05:18 8.7 C 44 %
3200 11-09-2020 05:15:17 8.4 C 44 %
Sensor: Nr:Datum:Temp:Feuchte:
Aussen-T/F 3201 11-09-2020 05:25:17 8.2 C 44 %
3202 11-09-2020 05:35:18 8.2 C 45 %
3203 11-09-2020 05:45:18 8 C 45 %
3204 11-09-2020 05:55:18 8 C 45 %
3205 11-09-2020 06:05:17 8 C 45 %
3206 11-09-2020 06:15:18 7.9 C 45 %
3207 11-09-2020 06:25:18 7.9 C 45 %
3208 11-09-2020 06:35:17 7.9 C 46 %
3209 11-09-2020 06:45:17 7.7 C 46 %
3210 11-09-2020 06:55:17 7.8 C 46 %
3211 11-09-2020 07:05:17 7.9 C 46 %
3212 11-09-2020 07:15:18 7.9 C 46 %
3213 11-09-2020 07:25:18 8.1 C 45 %
3214 11-09-2020 07:35:18 8 C 45 %
3215 11-09-2020 07:45:17 8 C 45 %
3216 11-09-2020 07:55:17 8.2 C 45 %
3217 11-09-2020 08:05:17 8.1 C 45 %
3218 11-09-2020 08:15:18 8.3 C 45 %
3219 11-09-2020 08:25:18 8.4 C 45 %
3220 11-09-2020 08:35:17 8.5 C 45 %
3221 11-09-2020 08:45:18 8.7 C 45 %
3222 11-09-2020 08:55:18 9 C 45 %
3223 11-09-2020 09:05:17 9.3 C 43 %
3224 11-09-2020 09:15:17 9.6 C 43 %
3225 11-09-2020 09:25:17 9.8 C 43 %
Sensor: Nr:Datum:Temp:Feuchte:
Aussen-T/F 3226 11-09-2020 09:35:18 10.1 C 42 %
3227 11-09-2020 09:45:17 10.4 C 42 %
3228 11-09-2020 09:55:18 10.7 C 42 %
3229 11-09-2020 10:05:18 11.2 C 40 %
3230 11-09-2020 10:15:17 11.6 C 40 %
3231 11-09-2020 10:25:17 12 C 39 %
3232 11-09-2020 10:35:17 12.5 C 38 %
3233 11-09-2020 10:45:17 13.1 C 37 %
3234 11-09-2020 10:55:17 13.7 C 37 %
3235 11-09-2020 11:05:18 14.3 C 35 %
3236 11-09-2020 11:15:17 14.8 C 34 %
3237 11-09-2020 11:25:17 15.5 C 32 %
3238 11-09-2020 11:35:17 16.3 C 31 %
3239 11-09-2020 11:45:17 16.8 C 31 %
3240 11-09-2020 11:55:17 17.4 C 30 %
3241 11-09-2020 12:05:17 17.9 C 30 %
3242 11-09-2020 12:15:17 18.4 C 29 %
3243 11-09-2020 12:25:17 19.3 C 26 %
3244 11-09-2020 12:35:17 18.7 C 27 %
3245 11-09-2020 12:45:17 18.7 C 27 %
3246 11-09-2020 12:55:18 19 C 26 %
3247 11-09-2020 13:05:17 19.6 C 26 %
3248 11-09-2020 13:15:17 19.7 C 25 %
3249 11-09-2020 13:25:17 20 C 25 %
3250 11-09-2020 13:35:18 20.1 C 25 %
Sensor: Nr:Datum:Temp:Feuchte:
Aussen-T/F 3251 11-09-2020 13:45:17 20.3 C 25 %
3252 11-09-2020 13:55:17 20.8 C 25 %
3253 11-09-2020 14:05:18 21 C 24 %
3254 11-09-2020 14:15:18 21.6 C 24 %
3255 11-09-2020 14:25:18 23.6 C 21 %
3256 11-09-2020 14:35:17 24.6 C 20 %
3257 11-09-2020 14:45:17 25.5 C 20 %
3258 11-09-2020 14:55:17 24.9 C 20 %
3259 11-09-2020 15:05:18 27.3 C 20 %
3260 11-09-2020 15:15:17 27.7 C 20 %
3261 11-09-2020 15:25:17 26.9 C 20 %
3262 11-09-2020 15:35:18 28 C 20 %
3263 11-09-2020 15:45:17 28.2 C 20 %
3264 11-09-2020 15:55:18 27.3 C 20 %
3265 11-09-2020 16:05:17 28.6 C 20 %
3266 11-09-2020 16:15:18 27.6 C 20 %
3267 11-09-2020 16:25:18 27.3 C 20 %
3268 11-09-2020 16:35:17 28.2 C 20 %
3269 11-09-2020 16:45:17 27.5 C 20 %
3270 11-09-2020 16:55:17 26.5 C 20 %
3271 11-09-2020 17:05:17 27.5 C 20 %
3272 11-09-2020 17:15:17 26.8 C 20 %
3273 11-09-2020 17:25:17 26.7 C 20 %
3274 11-09-2020 17:35:17 27.1 C 20 %
3275 11-09-2020 17:45:18 25.6 C 20 %
Sensor: Nr:Datum:Temp:Feuchte:
Aussen-T/F 3276 11-09-2020 17:55:18 24.8 C 20 %
3277 11-09-2020 18:05:18 24.1 C 20 %
3278 11-09-2020 18:15:17 24 C 20 %
3279 11-09-2020 18:25:17 23.9 C 20 %
3280 11-09-2020 18:35:17 23 C 21 %
3281 11-09-2020 18:45:17 22.5 C 23 %
3282 11-09-2020 18:55:17 21.9 C 25 %
3283 11-09-2020 19:05:18 21.2 C 25 %
3284 11-09-2020 19:15:17 20.7 C 25 %
3285 11-09-2020 19:25:17 20 C 26 %
3286 11-09-2020 19:35:17 19.8 C 26 %
3287 11-09-2020 19:45:17 19.4 C 26 %
3288 11-09-2020 19:55:17 19.2 C 26 %
3289 11-09-2020 20:05:17 18.7 C 27 %
3290 11-09-2020 20:15:17 18.3 C 27 %
3291 11-09-2020 20:25:17 17.6 C 29 %
3292 11-09-2020 20:35:17 17.4 C 30 %
3293 11-09-2020 20:45:17 16.9 C 30 %
3294 11-09-2020 20:55:17 17.1 C 30 %
3295 11-09-2020 21:05:18 16.6 C 30 %
3296 11-09-2020 21:15:17 16 C 31 %
3297 11-09-2020 21:25:17 15.8 C 32 %
3298 11-09-2020 21:35:17 15.4 C 32 %
3299 11-09-2020 21:45:17 15 C 33 %
3300 11-09-2020 21:55:17 14.8 C 34 %
Sensor: Nr:Datum:Temp:Feuchte:
Aussen-T/F 3301 11-09-2020 22:05:17 14.7 C 34 %
3302 11-09-2020 22:15:18 14.5 C 35 %
3303 11-09-2020 22:25:18 14.8 C 35 %
3304 11-09-2020 22:35:17 14.3 C 35 %
3305 11-09-2020 22:45:18 14 C 35 %
3306 11-09-2020 22:55:18 13.7 C 36 %
3307 11-09-2020 23:05:17 13.7 C 37 %
3308 11-09-2020 23:15:17 13.4 C 37 %
3309 11-09-2020 23:25:17 13.2 C 37 %
3310 11-09-2020 23:35:18 13.1 C 37 %
3311 11-09-2020 23:45:18 12.9 C 38 %
3312 11-09-2020 23:55:18 13 C 37 %
3313 12-09-2020 00:05:18 12.7 C 39 %
3314 12-09-2020 00:15:17 12.4 C 39 %
3315 12-09-2020 00:25:17 12.2 C 39 %
3316 12-09-2020 00:35:18 12.3 C 39 %
3317 12-09-2020 00:45:17 12.3 C 39 %
3318 12-09-2020 00:55:17 12.4 C 40 %
3319 12-09-2020 01:05:17 12.3 C 40 %
3320 12-09-2020 01:15:17 12.1 C 40 %
3321 12-09-2020 01:25:17 12.1 C 40 %
3322 12-09-2020 01:35:17 12.1 C 39 %
3323 12-09-2020 01:45:17 12 C 40 %
3324 12-09-2020 01:55:17 11.7 C 40 %
3325 12-09-2020 02:05:18 11.3 C 41 %
Sensor: Nr:Datum:Temp:Feuchte:
Aussen-T/F 3326 12-09-2020 02:15:17 11.3 C 42 %
3327 12-09-2020 02:25:17 11.1 C 41 %
3328 12-09-2020 02:35:18 11.1 C 42 %
3329 12-09-2020 02:45:18 11.2 C 43 %
3330 12-09-2020 02:55:18 11.2 C 42 %
3331 12-09-2020 03:05:17 11 C 42 %
3332 12-09-2020 03:15:17 10.7 C 43 %
3333 12-09-2020 03:25:18 10.7 C 44 %
3334 12-09-2020 03:35:17 10.8 C 44 %
3335 12-09-2020 03:45:17 10.7 C 43 %
3336 12-09-2020 03:55:18 10.5 C 44 %
3337 12-09-2020 04:05:18 10.7 C 44 %
3338 12-09-2020 04:15:17 10.4 C 44 %
3339 12-09-2020 04:25:17 10.2 C 44 %
3340 12-09-2020 04:35:18 10.3 C 45 %
3341 12-09-2020 04:45:17 10.3 C 45 %
3342 12-09-2020 04:55:17 10.2 C 45 %
3343 12-09-2020 05:05:17 10 C 45 %
3344 12-09-2020 05:15:18 9.8 C 45 %
3345 12-09-2020 05:25:18 9.8 C 45 %
3346 12-09-2020 05:35:17 9.7 C 45 %
3347 12-09-2020 05:45:17 9.6 C 45 %
3348 12-09-2020 05:55:17 9.6 C 46 %
3349 12-09-2020 06:05:17 9.8 C 46 %
3350 12-09-2020 06:15:17 9.6 C 45 %
Sensor: Nr:Datum:Temp:Feuchte:
Aussen-T/F 3351 12-09-2020 06:25:17 9.6 C 46 %
3352 12-09-2020 06:35:17 9.5 C 45 %
3353 12-09-2020 06:45:18 9.9 C 46 %
3354 12-09-2020 06:55:18 9.7 C 45 %
3355 12-09-2020 07:05:17 9.4 C 45 %
3356 12-09-2020 07:15:18 9.6 C 46 %
3357 12-09-2020 07:25:18 9.7 C 46 %
3358 12-09-2020 07:35:17 9.8 C 45 %
3359 12-09-2020 07:45:17 9.9 C 46 %
3360 12-09-2020 07:55:17 10 C 45 %
3361 12-09-2020 08:05:17 10.1 C 45 %
3362 12-09-2020 08:15:17 10.5 C 45 %
3363 12-09-2020 08:25:17 10.9 C 45 %
3364 12-09-2020 08:35:17 11.3 C 43 %
3365 12-09-2020 08:45:17 12 C 41 %
3366 12-09-2020 08:55:17 12.4 C 40 %
3367 12-09-2020 09:05:18 13.1 C 38 %
3368 12-09-2020 09:15:17 13.5 C 37 %
3369 12-09-2020 09:25:17 13.6 C 37 %
3370 12-09-2020 09:35:18 13.8 C 37 %
3371 12-09-2020 09:45:17 14.3 C 36 %
3372 12-09-2020 09:55:17 14.7 C 36 %
3373 12-09-2020 10:05:18 14.8 C 35 %
3374 12-09-2020 10:15:17 14.9 C 35 %
3375 12-09-2020 10:25:18 15.3 C 35 %
Sensor: Nr:Datum:Temp:Feuchte:
Aussen-T/F 3376 12-09-2020 10:35:18 15.9 C 34 %
3377 12-09-2020 10:45:17 17 C 32 %
3378 12-09-2020 10:55:17 17.5 C 32 %
3379 12-09-2020 11:05:18 17.7 C 32 %
3380 12-09-2020 11:15:17 18.1 C 32 %
3381 12-09-2020 11:25:17 18.3 C 31 %
3382 12-09-2020 11:35:17 18.9 C 31 %
3383 12-09-2020 11:45:17 19.6 C 30 %
3384 12-09-2020 11:55:17 20.5 C 30 %
3385 12-09-2020 12:05:18 20.7 C 30 %
3386 12-09-2020 12:15:17 20.7 C 29 %
3387 12-09-2020 12:25:17 21.8 C 27 %
3388 12-09-2020 12:35:18 22.2 C 26 %
3389 12-09-2020 12:45:17 22.1 C 26 %
3390 12-09-2020 12:55:18 23.6 C 24 %
3391 12-09-2020 13:05:17 24.2 C 23 %
3392 12-09-2020 13:15:18 24.9 C 21 %
3393 12-09-2020 13:25:18 25.3 C 21 %
3394 12-09-2020 13:35:18 25.6 C 21 %
3395 12-09-2020 13:45:17 25.8 C 21 %
3396 12-09-2020 13:55:18 25.7 C 21 %
3397 12-09-2020 14:05:18 25.1 C 22 %
3398 12-09-2020 14:15:17 25.1 C 21 %
3399 12-09-2020 14:25:17 26.6 C 21 %
3400 12-09-2020 14:35:18 26.3 C 21 %
Sensor: Nr:Datum:Temp:Feuchte:
Aussen-T/F 3401 12-09-2020 14:45:17 27.8 C 20 %
3402 12-09-2020 14:55:17 28.2 C 20 %
3403 12-09-2020 15:05:18 30.4 C 20 %
3404 12-09-2020 15:15:18 28.9 C 20 %
3405 12-09-2020 15:25:18 29.5 C 20 %
3406 12-09-2020 15:35:17 29.8 C 20 %
3407 12-09-2020 15:45:17 31.5 C 20 %
3408 12-09-2020 15:55:17 29.4 C 20 %
3409 12-09-2020 16:05:18 31.4 C 20 %
3410 12-09-2020 16:15:17 32.6 C 20 %
3411 12-09-2020 16:25:18 28.4 C 20 %
3412 12-09-2020 16:35:17 29.2 C 20 %
3413 12-09-2020 16:45:17 28.8 C 20 %
3414 12-09-2020 16:55:17 30.2 C 20 %
3415 12-09-2020 17:05:18 29.7 C 20 %
3416 12-09-2020 17:15:18 29.8 C 20 %
3417 12-09-2020 17:25:18 28.7 C 20 %
3418 12-09-2020 17:35:18 29 C 20 %
3419 12-09-2020 17:45:17 26.6 C 20 %
3420 12-09-2020 17:55:17 25.3 C 20 %
3421 12-09-2020 18:05:18 25.2 C 21 %
3422 12-09-2020 18:15:17 24.9 C 21 %
3423 12-09-2020 18:25:17 24.9 C 21 %
3424 12-09-2020 18:35:18 24.4 C 21 %
3425 12-09-2020 18:45:17 24.1 C 21 %
Sensor: Nr:Datum:Temp:Feuchte:
Aussen-T/F 3426 12-09-2020 18:55:17 23.8 C 22 %
3427 12-09-2020 19:05:18 23.5 C 23 %
3428 12-09-2020 19:15:17 23.1 C 23 %
3429 12-09-2020 19:25:17 22 C 25 %
3430 12-09-2020 19:35:17 20.5 C 28 %
3431 12-09-2020 19:45:17 19.9 C 30 %
3432 12-09-2020 19:55:17 19.7 C 29 %
3433 12-09-2020 20:05:18 19.3 C 30 %
3434 12-09-2020 20:15:18 19.2 C 30 %
3435 12-09-2020 20:25:18 19.5 C 29 %
3436 12-09-2020 20:35:17 19.3 C 29 %
3437 12-09-2020 20:45:18 18.2 C 30 %
3438 12-09-2020 20:55:18 18.9 C 29 %
3439 12-09-2020 21:05:18 18.7 C 29 %
3440 12-09-2020 21:15:17 17.9 C 30 %
3441 12-09-2020 21:25:17 18 C 29 %
3442 12-09-2020 21:35:17 17.6 C 30 %
3443 12-09-2020 21:45:18 17.3 C 30 %
3444 12-09-2020 21:55:18 17.1 C 30 %
3445 12-09-2020 22:05:17 17.2 C 30 %
3446 12-09-2020 22:15:17 17.5 C 30 %
3447 12-09-2020 22:25:17 16.8 C 30 %
3448 12-09-2020 22:35:17 16.3 C 31 %
3449 12-09-2020 22:45:18 16.3 C 30 %
3450 12-09-2020 22:55:18 16.4 C 30 %
Sensor: Nr:Datum:Temp:Feuchte:
Aussen-T/F 3451 12-09-2020 23:05:18 16.3 C 30 %
3452 12-09-2020 23:15:18 15.7 C 32 %
3453 12-09-2020 23:25:18 15.7 C 32 %
3454 12-09-2020 23:35:17 15.6 C 32 %
3455 12-09-2020 23:45:17 15.1 C 32 %
3456 12-09-2020 23:55:17 14.6 C 34 %
3457 13-09-2020 00:05:18 14.5 C 34 %
3458 13-09-2020 00:15:17 14 C 35 %
3459 13-09-2020 00:25:17 13.5 C 35 %
3460 13-09-2020 00:35:18 13 C 36 %
3461 13-09-2020 00:45:17 12.9 C 38 %
3462 13-09-2020 00:55:17 12.8 C 38 %
3463 13-09-2020 01:05:18 12.6 C 38 %
3464 13-09-2020 01:15:17 12.5 C 38 %
3465 13-09-2020 01:25:17 12.3 C 38 %
3466 13-09-2020 01:35:18 12.4 C 38 %
3467 13-09-2020 01:45:17 12.5 C 39 %
3468 13-09-2020 01:55:17 12.4 C 39 %
3469 13-09-2020 02:05:17 12.4 C 39 %
3470 13-09-2020 02:15:18 12 C 39 %
3471 13-09-2020 02:25:18 11.7 C 40 %
3472 13-09-2020 02:35:17 11.4 C 41 %
3473 13-09-2020 02:45:17 11.5 C 42 %
3474 13-09-2020 02:55:17 11.4 C 42 %
3475 13-09-2020 03:05:17 11.3 C 41 %
Sensor: Nr:Datum:Temp:Feuchte:
Aussen-T/F 3476 13-09-2020 03:15:17 11.3 C 42 %
3477 13-09-2020 03:25:17 11.1 C 42 %
3478 13-09-2020 03:35:17 11.2 C 42 %
3479 13-09-2020 03:45:17 11.1 C 41 %
3480 13-09-2020 03:55:17 11.2 C 42 %
3481 13-09-2020 04:05:17 11.2 C 42 %
3482 13-09-2020 04:15:17 11.1 C 42 %
3483 13-09-2020 04:25:17 11 C 42 %
3484 13-09-2020 04:35:18 11.2 C 42 %
3485 13-09-2020 04:45:17 10.7 C 43 %
3486 13-09-2020 04:55:17 10.8 C 44 %
3487 13-09-2020 05:05:18 10.7 C 44 %
3488 13-09-2020 05:15:17 10.5 C 43 %
3489 13-09-2020 05:25:17 10.4 C 45 %
3490 13-09-2020 05:35:17 10.1 C 44 %
3491 13-09-2020 05:45:17 10 C 45 %
3492 13-09-2020 05:55:17 9.9 C 45 %
3493 13-09-2020 06:05:17 9.9 C 46 %
3494 13-09-2020 06:15:17 10 C 44 %
3495 13-09-2020 06:25:17 9.7 C 45 %
3496 13-09-2020 06:35:18 10.2 C 45 %
3497 13-09-2020 06:45:18 9.9 C 45 %
3498 13-09-2020 06:55:18 9.7 C 46 %
3499 13-09-2020 07:05:17 9.6 C 46 %
3500 13-09-2020 07:15:18 9.5 C 46 %
Sensor: Nr:Datum:Temp:Feuchte:
Aussen-T/F 3501 13-09-2020 07:25:18 9.8 C 46 %
3502 13-09-2020 07:35:17 10 C 45 %
3503 13-09-2020 07:45:17 10 C 45 %
3504 13-09-2020 07:55:17 10.1 C 45 %
3505 13-09-2020 08:05:18 10.1 C 45 %
3506 13-09-2020 08:15:17 10.4 C 45 %
3507 13-09-2020 08:25:17 10.6 C 45 %
3508 13-09-2020 08:35:18 10.6 C 45 %
3509 13-09-2020 08:45:17 10.9 C 45 %
3510 13-09-2020 08:55:17 11.1 C 43 %
3511 13-09-2020 09:05:18 11.3 C 43 %
3512 13-09-2020 09:15:17 11.5 C 43 %
3513 13-09-2020 09:25:17 11.8 C 43 %
3514 13-09-2020 09:35:17 12.1 C 41 %
3515 13-09-2020 09:45:18 12.4 C 40 %
3516 13-09-2020 09:55:18 12.9 C 40 %
3517 13-09-2020 10:05:18 13 C 40 %
3518 13-09-2020 10:15:17 13.3 C 40 %
3519 13-09-2020 10:25:17 13.7 C 39 %
3520 13-09-2020 10:35:17 14.1 C 37 %
3521 13-09-2020 10:45:18 14.7 C 37 %
3522 13-09-2020 10:55:18 15.2 C 36 %
3523 13-09-2020 11:05:18 15.6 C 35 %
3524 13-09-2020 11:15:18 16.1 C 34 %
3525 13-09-2020 11:25:18 16.7 C 33 %
Sensor: Nr:Datum:Temp:Feuchte:
Aussen-T/F 3526 13-09-2020 11:35:17 17.4 C 32 %
3527 13-09-2020 11:45:17 17.9 C 32 %
3528 13-09-2020 11:55:17 19.5 C 31 %
3529 13-09-2020 12:05:17 18.9 C 31 %
3530 13-09-2020 12:15:17 19 C 31 %
3531 13-09-2020 12:25:17 20.9 C 30 %
3532 13-09-2020 12:35:18 19.9 C 30 %
3533 13-09-2020 12:45:17 20.1 C 29 %
3534 13-09-2020 12:55:17 20.7 C 29 %
3535 13-09-2020 13:05:18 20.9 C 28 %
3536 13-09-2020 13:15:17 21.3 C 27 %
3537 13-09-2020 13:25:17 21.7 C 27 %
3538 13-09-2020 13:35:18 22.1 C 25 %
3539 13-09-2020 13:45:17 22.3 C 26 %
3540 13-09-2020 13:55:18 22.7 C 25 %
3541 13-09-2020 14:05:18 22.9 C 25 %
3542 13-09-2020 14:15:17 23.8 C 24 %
3543 13-09-2020 14:25:17 25 C 22 %
3544 13-09-2020 14:35:17 26 C 20 %
3545 13-09-2020 14:45:17 27 C 20 %
3546 13-09-2020 14:55:17 27.8 C 20 %
3547 13-09-2020 15:05:17 28.7 C 20 %
3548 13-09-2020 15:15:18 29.1 C 20 %
3549 13-09-2020 15:25:18 31.8 C 20 %
3550 13-09-2020 15:35:17 34.4 C 20 %
Sensor: Nr:Datum:Temp:Feuchte:
Aussen-T/F 3551 13-09-2020 15:45:17 32.6 C 20 %
3552 13-09-2020 15:55:17 32.5 C 20 %
3553 13-09-2020 16:05:17 31.3 C 20 %
3554 13-09-2020 16:15:17 30.8 C 20 %
3555 13-09-2020 16:25:17 33 C 20 %
3556 13-09-2020 16:35:17 32.5 C 20 %
3557 13-09-2020 16:45:18 32.5 C 20 %
3558 13-09-2020 16:55:18 33 C 20 %
3559 13-09-2020 17:05:17 32.6 C 20 %
3560 13-09-2020 17:15:17 32.2 C 20 %
3561 13-09-2020 17:25:17 32.1 C 20 %
3562 13-09-2020 17:35:18 32.4 C 20 %
3563 13-09-2020 17:45:17 30.9 C 20 %
3564 13-09-2020 17:55:17 28.8 C 20 %
3565 13-09-2020 18:05:17 27 C 20 %
3566 13-09-2020 18:15:18 26.1 C 20 %
3567 13-09-2020 18:25:18 25.1 C 20 %
3568 13-09-2020 18:35:18 24.6 C 21 %
3569 13-09-2020 18:45:17 24.5 C 21 %
3570 13-09-2020 18:55:17 24.3 C 21 %
3571 13-09-2020 19:05:17 23.8 C 21 %
3572 13-09-2020 19:15:17 23.6 C 21 %
3573 13-09-2020 19:25:17 23.4 C 21 %
3574 13-09-2020 19:35:17 23 C 21 %
3575 13-09-2020 19:45:17 22.4 C 22 %
Sensor: Nr:Datum:Temp:Feuchte:
Aussen-T/F 3576 13-09-2020 19:55:17 21.7 C 24 %
3577 13-09-2020 20:05:18 20.7 C 25 %
3578 13-09-2020 20:15:17 20.2 C 26 %
3579 13-09-2020 20:25:17 20.3 C 26 %
3580 13-09-2020 20:35:17 19.5 C 27 %
3581 13-09-2020 20:45:17 18.9 C 28 %
3582 13-09-2020 20:55:17 19.1 C 27 %
3583 13-09-2020 21:05:17 18.5 C 28 %
3584 13-09-2020 21:15:17 18.2 C 28 %
3585 13-09-2020 21:25:17 17.9 C 30 %
3586 13-09-2020 21:35:18 17.2 C 30 %
3587 13-09-2020 21:45:17 16.8 C 31 %
3588 13-09-2020 21:55:17 16.8 C 31 %
3589 13-09-2020 22:05:18 16.6 C 31 %
3590 13-09-2020 22:15:17 16.1 C 31 %
3591 13-09-2020 22:25:17 15.9 C 32 %
3592 13-09-2020 22:35:18 15.8 C 32 %
3593 13-09-2020 22:45:18 15.4 C 33 %
3594 13-09-2020 22:55:18 15.1 C 33 %
3595 13-09-2020 23:05:17 15 C 34 %
3596 13-09-2020 23:15:17 14.7 C 35 %
3597 13-09-2020 23:25:18 14.4 C 35 %
3598 13-09-2020 23:35:18 14.4 C 35 %
3599 13-09-2020 23:45:17 14.4 C 35 %
3600 13-09-2020 23:55:17 14.4 C 36 %
Sensor: Nr:Datum:Temp:Feuchte:
Aussen-T/F 3601 14-09-2020 00:05:18 14.1 C 36 %
3602 14-09-2020 00:15:17 14 C 36 %
3603 14-09-2020 00:25:17 14 C 36 %
3604 14-09-2020 00:35:18 13.8 C 36 %
3605 14-09-2020 00:45:17 13.8 C 37 %
3606 14-09-2020 00:55:17 13.5 C 36 %
3607 14-09-2020 01:05:17 13.4 C 37 %
3608 14-09-2020 01:15:18 13.4 C 37 %
3609 14-09-2020 01:25:18 13.1 C 37 %
3610 14-09-2020 01:35:18 13 C 38 %
3611 14-09-2020 01:45:17 12.7 C 39 %
3612 14-09-2020 01:55:17 12.5 C 39 %
3613 14-09-2020 02:05:17 12.4 C 40 %
3614 14-09-2020 02:15:17 12.3 C 40 %
3615 14-09-2020 02:25:17 12.2 C 40 %
3616 14-09-2020 02:35:17 12.1 C 40 %
3617 14-09-2020 02:45:17 12.2 C 40 %
3618 14-09-2020 02:55:17 12 C 40 %
3619 14-09-2020 03:05:18 12 C 40 %
3620 14-09-2020 03:15:17 12 C 41 %
3621 14-09-2020 03:25:17 11.7 C 42 %
3622 14-09-2020 03:35:17 11.5 C 42 %
3623 14-09-2020 03:45:17 11.5 C 42 %
3624 14-09-2020 03:55:17 11.2 C 42 %
3625 14-09-2020 04:05:17 11.1 C 43 %
Sensor: Nr:Datum:Temp:Feuchte:
Aussen-T/F 3626 14-09-2020 04:15:18 11.2 C 43 %
3627 14-09-2020 04:25:18 11 C 42 %
3628 14-09-2020 04:35:18 10.8 C 44 %
3629 14-09-2020 04:45:17 10.9 C 44 %
3630 14-09-2020 04:55:17 10.8 C 44 %
3631 14-09-2020 05:05:17 10.7 C 44 %
3632 14-09-2020 05:15:17 10.7 C 45 %
3633 14-09-2020 05:25:17 10.8 C 44 %
3634 14-09-2020 05:35:18 10.5 C 44 %
3635 14-09-2020 05:45:17 10.5 C 45 %
3636 14-09-2020 05:55:17 10.3 C 45 %
3637 14-09-2020 06:05:17 10.3 C 45 %
3638 14-09-2020 06:15:17 10.2 C 45 %
3639 14-09-2020 06:25:17 10.2 C 45 %
3640 14-09-2020 06:35:18 10.1 C 45 %
3641 14-09-2020 06:45:17 9.9 C 45 %
3642 14-09-2020 06:55:17 10.1 C 45 %
3643 14-09-2020 07:05:17 10.3 C 45 %
3644 14-09-2020 07:15:17 10.1 C 45 %
3645 14-09-2020 07:25:17 10 C 45 %
3646 14-09-2020 07:35:18 10.2 C 45 %
3647 14-09-2020 07:45:17 10.4 C 45 %
3648 14-09-2020 07:55:17 10.6 C 45 %
3649 14-09-2020 08:05:17 10.7 C 45 %
3650 14-09-2020 08:15:17 10.7 C 45 %
Sensor: Nr:Datum:Temp:Feuchte:
Aussen-T/F 3651 14-09-2020 08:25:17 10.8 C 45 %
3652 14-09-2020 08:35:17 11 C 44 %
3653 14-09-2020 08:45:17 11.1 C 44 %
3654 14-09-2020 08:55:18 11.4 C 45 %
3655 14-09-2020 09:05:18 11.8 C 44 %
3656 14-09-2020 09:15:17 11.9 C 44 %
3657 14-09-2020 09:25:17 12.2 C 43 %
3658 14-09-2020 09:35:17 12.4 C 43 %
3659 14-09-2020 09:45:17 12.7 C 43 %
3660 14-09-2020 09:55:17 13.1 C 40 %
3661 14-09-2020 10:05:17 13.5 C 40 %
3662 14-09-2020 10:15:17 14.2 C 38 %
3663 14-09-2020 10:25:17 14.7 C 38 %
3664 14-09-2020 10:35:18 15 C 37 %
3665 14-09-2020 10:45:17 15.7 C 36 %
3666 14-09-2020 10:55:17 16.3 C 36 %
3667 14-09-2020 11:05:17 17.1 C 35 %
3668 14-09-2020 11:15:17 17.8 C 34 %
3669 14-09-2020 11:25:17 18.4 C 33 %
3670 14-09-2020 11:35:17 19.1 C 32 %
3671 14-09-2020 11:45:18 20.2 C 31 %
3672 14-09-2020 11:55:18 21.8 C 29 %
3673 14-09-2020 12:05:18 21.4 C 29 %
3674 14-09-2020 12:15:18 22.1 C 28 %
3675 14-09-2020 12:25:18 22.9 C 28 %
Sensor: Nr:Datum:Temp:Feuchte:
Aussen-T/F 3676 14-09-2020 12:35:17 23.3 C 27 %
3677 14-09-2020 12:45:17 23.8 C 26 %
3678 14-09-2020 12:55:18 25 C 25 %
3679 14-09-2020 13:05:18 25.4 C 24 %
3680 14-09-2020 13:15:18 25.8 C 24 %
3681 14-09-2020 13:25:18 26.2 C 23 %
3682 14-09-2020 13:35:18 26.3 C 23 %
3683 14-09-2020 13:45:17 26.9 C 22 %
3684 14-09-2020 13:55:17 27.2 C 22 %
3685 14-09-2020 14:05:17 28 C 21 %
3686 14-09-2020 14:15:17 28.9 C 20 %
3687 14-09-2020 14:25:17 29.3 C 20 %
3688 14-09-2020 14:35:18 31 C 20 %
3689 14-09-2020 14:45:18 31.5 C 20 %
3690 14-09-2020 14:55:18 31.1 C 20 %
3691 14-09-2020 15:05:17 31.8 C 20 %
3692 14-09-2020 15:15:17 32.3 C 20 %
3693 14-09-2020 15:25:17 34.8 C 20 %
3694 14-09-2020 15:35:18 34.8 C 20 %
3695 14-09-2020 15:45:18 33.3 C 20 %
3696 14-09-2020 15:55:18 33.3 C 20 %
3697 14-09-2020 16:05:17 32.6 C 20 %
3698 14-09-2020 16:15:17 32.8 C 20 %
3699 14-09-2020 16:25:17 32.5 C 20 %
3700 14-09-2020 16:35:18 32.9 C 20 %
Sensor: Nr:Datum:Temp:Feuchte:
Aussen-T/F 3701 14-09-2020 16:45:17 30.2 C 20 %
3702 14-09-2020 16:55:17 30.5 C 20 %
3703 14-09-2020 17:05:18 28.3 C 20 %
3704 14-09-2020 17:16:17 28.5 C 20 %
3705 14-09-2020 17:25:17 30.5 C 20 %
3706 14-09-2020 17:35:18 32.1 C 20 %
3707 14-09-2020 17:46:17 31.3 C 20 %
3708 14-09-2020 17:56:17 30 C 20 %
3709 14-09-2020 18:05:17 29.6 C 20 %
3710 14-09-2020 18:15:17 28.9 C 20 %
3711 14-09-2020 18:25:17 28.2 C 20 %
3712 14-09-2020 18:35:17 27.5 C 20 %
3713 14-09-2020 18:45:17 27 C 20 %
3714 14-09-2020 18:55:17 26.2 C 20 %
3715 14-09-2020 19:06:17 25.5 C 20 %
3716 14-09-2020 19:16:17 24.9 C 20 %
3717 14-09-2020 19:26:17 24.5 C 20 %
3718 14-09-2020 19:35:18 24.1 C 20 %
3719 14-09-2020 19:45:18 23.8 C 20 %
3720 14-09-2020 19:55:18 23.8 C 20 %
3721 14-09-2020 20:05:18 22.8 C 22 %
3722 14-09-2020 20:16:17 22 C 23 %
3723 14-09-2020 20:26:17 21.2 C 25 %
3724 14-09-2020 20:36:17 20.7 C 26 %
3725 14-09-2020 20:46:17 20.4 C 27 %
Sensor: Nr:Datum:Temp:Feuchte:
Aussen-T/F 3726 14-09-2020 20:56:17 20.3 C 27 %
3727 14-09-2020 21:05:18 20 C 28 %
3728 14-09-2020 21:15:18 19.5 C 29 %
3729 14-09-2020 21:25:18 19.4 C 30 %
3730 14-09-2020 21:35:18 19.1 C 30 %
3731 14-09-2020 21:45:18 19 C 30 %
3732 14-09-2020 21:55:18 18.4 C 30 %
3733 14-09-2020 22:06:17 18.3 C 31 %
3734 14-09-2020 22:15:17 18.1 C 31 %
3735 14-09-2020 22:25:18 17.9 C 32 %
3736 14-09-2020 22:35:18 17.7 C 32 %
3737 14-09-2020 22:45:18 17.4 C 33 %
3738 14-09-2020 22:55:18 17.1 C 33 %
3739 14-09-2020 23:06:17 16.8 C 34 %
3740 14-09-2020 23:16:17 16.5 C 35 %
3741 14-09-2020 23:26:17 16.6 C 35 %
3742 14-09-2020 23:35:18 16.6 C 35 %
3743 14-09-2020 23:45:18 16.5 C 35 %
3744 14-09-2020 23:55:18 16.2 C 35 %
3745 15-09-2020 00:06:17 15.9 C 35 %
3746 15-09-2020 00:16:17 15.9 C 36 %
3747 15-09-2020 00:26:17 15.7 C 36 %
3748 15-09-2020 00:35:18 15.4 C 36 %
3749 15-09-2020 00:46:17 15.3 C 36 %
3750 15-09-2020 00:56:17 15.4 C 36 %
Sensor: Nr:Datum:Temp:Feuchte:
Aussen-T/F 3751 15-09-2020 01:06:18 15.2 C 36 %
3752 15-09-2020 01:16:17 14.9 C 37 %
3753 15-09-2020 01:26:17 14.8 C 38 %
3754 15-09-2020 01:36:18 14.8 C 38 %
3755 15-09-2020 01:46:18 14.8 C 38 %
3756 15-09-2020 01:56:18 14.7 C 38 %
3757 15-09-2020 02:06:18 14.4 C 38 %
3758 15-09-2020 02:16:18 14.3 C 38 %
3759 15-09-2020 02:26:18 14.1 C 39 %
3760 15-09-2020 02:36:18 14.1 C 39 %
3761 15-09-2020 02:46:17 13.9 C 40 %
3762 15-09-2020 02:56:17 13.7 C 40 %
3763 15-09-2020 03:06:18 13.8 C 41 %
3764 15-09-2020 03:16:17 13.7 C 40 %
3765 15-09-2020 03:26:17 13.6 C 41 %
3766 15-09-2020 03:36:17 13.3 C 41 %
3767 15-09-2020 03:46:17 13.3 C 42 %
3768 15-09-2020 03:56:17 13.3 C 41 %
3769 15-09-2020 04:06:17 13 C 41 %
3770 15-09-2020 04:16:18 12.8 C 42 %
3771 15-09-2020 04:26:18 12.8 C 42 %
3772 15-09-2020 04:36:17 12.8 C 43 %
3773 15-09-2020 04:46:17 12.4 C 43 %
3774 15-09-2020 04:56:17 12.5 C 43 %
3775 15-09-2020 05:06:17 12.5 C 44 %
Sensor: Nr:Datum:Temp:Feuchte:
Aussen-T/F 3776 15-09-2020 05:16:17 12.5 C 43 %
3777 15-09-2020 05:26:17 12.4 C 44 %
3778 15-09-2020 05:36:18 12.4 C 44 %
3779 15-09-2020 05:46:17 12.2 C 43 %
3780 15-09-2020 05:56:18 12 C 43 %
3781 15-09-2020 06:06:18 11.9 C 45 %
3782 15-09-2020 06:16:17 11.9 C 45 %
3783 15-09-2020 06:26:17 11.8 C 45 %
3784 15-09-2020 06:36:17 11.7 C 45 %
3785 15-09-2020 06:46:17 11.7 C 45 %
3786 15-09-2020 06:56:17 11.5 C 45 %
3787 15-09-2020 07:06:17 11.4 C 45 %
3788 15-09-2020 07:16:17 11.5 C 45 %
3789 15-09-2020 07:26:17 11.6 C 45 %
3790 15-09-2020 07:36:17 11.7 C 45 %
3791 15-09-2020 07:46:17 12 C 44 %
3792 15-09-2020 07:56:17 11.9 C 45 %
3793 15-09-2020 08:06:17 12 C 44 %
3794 15-09-2020 08:16:17 12.1 C 44 %
3795 15-09-2020 08:26:18 12.2 C 44 %
3796 15-09-2020 08:36:18 12.4 C 44 %
3797 15-09-2020 08:46:18 12.5 C 44 %
3798 15-09-2020 08:56:18 13 C 43 %
3799 15-09-2020 09:06:18 13.2 C 43 %
3800 15-09-2020 09:16:17 13.5 C 43 %
Sensor: Nr:Datum:Temp:Feuchte:
Aussen-T/F 3801 15-09-2020 09:26:17 13.7 C 43 %
3802 15-09-2020 09:36:18 14 C 42 %
3803 15-09-2020 09:46:18 14.3 C 42 %
3804 15-09-2020 09:56:18 14.7 C 42 %
3805 15-09-2020 10:06:18 15.2 C 40 %
3806 15-09-2020 10:16:17 15.6 C 40 %
3807 15-09-2020 10:26:17 16 C 39 %
3808 15-09-2020 10:36:17 16.6 C 38 %
3809 15-09-2020 10:46:18 17 C 36 %
3810 15-09-2020 10:56:18 17.5 C 36 %
3811 15-09-2020 11:06:18 18.1 C 35 %
3812 15-09-2020 11:16:17 18.5 C 35 %
3813 15-09-2020 11:26:17 19.2 C 34 %
3814 15-09-2020 11:36:18 19.6 C 34 %
3815 15-09-2020 11:46:17 20.8 C 32 %
3816 15-09-2020 11:56:17 21.7 C 30 %
3817 15-09-2020 12:06:18 21.3 C 30 %
3818 15-09-2020 12:16:17 22.6 C 29 %
3819 15-09-2020 12:26:17 22.9 C 29 %
3820 15-09-2020 12:36:17 22.9 C 29 %
3821 15-09-2020 12:46:17 23.1 C 28 %
3822 15-09-2020 12:56:17 23.8 C 28 %
3823 15-09-2020 13:06:17 24.5 C 27 %
3824 15-09-2020 13:16:18 25.3 C 26 %
3825 15-09-2020 13:26:18 26 C 25 %
Sensor: Nr:Datum:Temp:Feuchte:
Aussen-T/F 3826 15-09-2020 13:36:17 26.8 C 22 %
3827 15-09-2020 13:46:18 27.4 C 21 %
3828 15-09-2020 13:56:18 27.9 C 20 %
3829 15-09-2020 14:06:17 28.8 C 20 %
3830 15-09-2020 14:16:18 29.2 C 20 %
3831 15-09-2020 14:26:18 29.9 C 20 %
3832 15-09-2020 14:36:17 31.1 C 20 %
3833 15-09-2020 14:46:17 32.2 C 20 %
3834 15-09-2020 14:56:17 31.5 C 20 %
3835 15-09-2020 15:06:17 32.2 C 20 %
3836 15-09-2020 15:16:18 33.6 C 20 %
3837 15-09-2020 15:26:18 36.1 C 20 %
3838 15-09-2020 15:36:17 36.4 C 20 %
3839 15-09-2020 15:46:17 36.6 C 20 %
3840 15-09-2020 15:56:17 37.6 C 20 %
3841 15-09-2020 16:06:18 37.6 C 20 %
3842 15-09-2020 16:16:17 38 C 20 %
3843 15-09-2020 16:26:17 39 C 20 %
3844 15-09-2020 16:36:17 37.5 C 20 %
3845 15-09-2020 16:46:17 39.2 C 20 %
3846 15-09-2020 16:56:17 38.2 C 20 %
3847 15-09-2020 17:06:17 37.2 C 20 %
3848 15-09-2020 17:16:18 37.7 C 20 %
3849 15-09-2020 17:26:18 36.8 C 20 %
3850 15-09-2020 17:36:17 34.9 C 20 %
Sensor: Nr:Datum:Temp:Feuchte:
Aussen-T/F 3851 15-09-2020 17:46:17 33.3 C 20 %
3852 15-09-2020 17:56:17 32.5 C 20 %
3853 15-09-2020 18:06:18 31.1 C 20 %
3854 15-09-2020 18:16:17 30.1 C 20 %
3855 15-09-2020 18:26:18 29.6 C 20 %
3856 15-09-2020 18:36:18 29 C 20 %
3857 15-09-2020 18:46:17 28.5 C 20 %
3858 15-09-2020 18:56:17 28.1 C 20 %
3859 15-09-2020 19:06:17 27.5 C 20 %
3860 15-09-2020 19:16:17 26.9 C 20 %
3861 15-09-2020 19:26:17 26.8 C 20 %
3862 15-09-2020 19:36:17 26.1 C 20 %
3863 15-09-2020 19:46:17 26 C 20 %
3864 15-09-2020 19:56:17 25.3 C 20 %
3865 15-09-2020 20:06:17 24.6 C 20 %
3866 15-09-2020 20:16:17 24.1 C 20 %
3867 15-09-2020 20:26:17 23.3 C 21 %
3868 15-09-2020 20:36:18 23.4 C 21 %
3869 15-09-2020 20:46:17 23.2 C 21 %
3870 15-09-2020 20:56:17 22.4 C 23 %
3871 15-09-2020 21:06:17 22 C 24 %
3872 15-09-2020 21:16:17 21.6 C 25 %
3873 15-09-2020 21:26:17 21.3 C 25 %
3874 15-09-2020 21:36:18 21.3 C 26 %
3875 15-09-2020 21:46:17 20.8 C 28 %
Sensor: Nr:Datum:Temp:Feuchte:
Aussen-T/F 3876 15-09-2020 21:56:18 20.7 C 28 %
3877 15-09-2020 22:06:17 20.6 C 28 %
3878 15-09-2020 22:16:17 20.6 C 28 %
3879 15-09-2020 22:26:17 20.1 C 28 %
3880 15-09-2020 22:36:17 19.5 C 30 %
3881 15-09-2020 22:46:18 19.3 C 30 %
3882 15-09-2020 22:56:18 18.8 C 31 %
3883 15-09-2020 23:06:18 18.8 C 31 %
3884 15-09-2020 23:16:18 19 C 31 %
3885 15-09-2020 23:26:18 18.5 C 31 %
3886 15-09-2020 23:36:17 18.2 C 32 %
3887 15-09-2020 23:46:18 18.1 C 32 %
3888 15-09-2020 23:56:18 18.2 C 32 %
3889 16-09-2020 00:06:18 18.1 C 32 %
3890 16-09-2020 00:16:17 17.9 C 32 %
3891 16-09-2020 00:26:17 17.7 C 32 %
3892 16-09-2020 00:36:18 17.6 C 33 %
3893 16-09-2020 00:46:17 17.8 C 33 %
3894 16-09-2020 00:56:17 17.7 C 32 %
3895 16-09-2020 01:06:18 17 C 34 %
3896 16-09-2020 01:16:17 16.7 C 34 %
3897 16-09-2020 01:26:17 16.6 C 35 %
3898 16-09-2020 01:36:18 16.2 C 35 %
3899 16-09-2020 01:46:17 16.3 C 35 %
3900 16-09-2020 01:56:17 15.7 C 36 %
Sensor: Nr:Datum:Temp:Feuchte:
Aussen-T/F 3901 16-09-2020 02:06:18 15.6 C 36 %
3902 16-09-2020 02:16:17 15.6 C 37 %
3903 16-09-2020 02:26:17 16.1 C 36 %
3904 16-09-2020 02:36:17 15.6 C 36 %
3905 16-09-2020 02:46:17 15.4 C 37 %
3906 16-09-2020 02:56:17 15.4 C 37 %
3907 16-09-2020 03:06:17 15.1 C 37 %
3908 16-09-2020 03:16:17 15.1 C 37 %
3909 16-09-2020 03:26:17 15.1 C 37 %
3910 16-09-2020 03:36:18 14.9 C 38 %
3911 16-09-2020 03:46:17 14.7 C 39 %
3912 16-09-2020 03:56:17 14.5 C 39 %
3913 16-09-2020 04:06:17 14.8 C 39 %
3914 16-09-2020 04:16:17 14.7 C 39 %
3915 16-09-2020 04:26:17 14.4 C 39 %
3916 16-09-2020 04:36:17 14.5 C 39 %
3917 16-09-2020 04:46:17 14.2 C 40 %
3918 16-09-2020 04:56:17 14.1 C 40 %
3919 16-09-2020 05:06:17 14.1 C 40 %
3920 16-09-2020 05:16:17 13.8 C 41 %
3921 16-09-2020 05:26:17 14 C 41 %
3922 16-09-2020 05:36:18 14.1 C 40 %
3923 16-09-2020 05:46:18 14.2 C 40 %
3924 16-09-2020 05:56:18 14 C 41 %
3925 16-09-2020 06:06:17 13.9 C 41 %
Sensor: Nr:Datum:Temp:Feuchte:
Aussen-T/F 3926 16-09-2020 06:16:17 14 C 40 %
3927 16-09-2020 06:26:17 14 C 40 %
3928 16-09-2020 06:36:18 13.7 C 41 %
3929 16-09-2020 06:46:17 13.7 C 42 %
3930 16-09-2020 06:56:17 13.8 C 42 %
3931 16-09-2020 07:06:17 13.5 C 42 %
3932 16-09-2020 07:16:17 13.8 C 42 %
3933 16-09-2020 07:26:17 13.8 C 41 %
3934 16-09-2020 07:36:17 14.2 C 41 %
3935 16-09-2020 07:46:18 14.3 C 40 %
3936 16-09-2020 07:56:18 14.2 C 40 %
3937 16-09-2020 08:06:17 14.1 C 40 %
3938 16-09-2020 08:16:17 14.1 C 40 %
3939 16-09-2020 08:26:17 14.2 C 41 %
3940 16-09-2020 08:36:17 14.4 C 41 %
3941 16-09-2020 08:46:17 14.8 C 40 %
3942 16-09-2020 08:56:17 15 C 39 %
3943 16-09-2020 09:06:18 15.3 C 38 %
3944 16-09-2020 09:16:17 15.8 C 37 %
3945 16-09-2020 09:26:17 16.2 C 36 %
3946 16-09-2020 09:36:18 16.8 C 36 %
3947 16-09-2020 09:46:17 17.4 C 35 %
3948 16-09-2020 09:56:17 18.2 C 34 %
3949 16-09-2020 10:06:18 19.1 C 33 %
3950 16-09-2020 10:16:17 19.5 C 32 %
Sensor: Nr:Datum:Temp:Feuchte:
Aussen-T/F 3951 16-09-2020 10:26:17 20 C 32 %
3952 16-09-2020 10:36:17 20.5 C 31 %
3953 16-09-2020 10:46:17 20.5 C 31 %
3954 16-09-2020 10:56:17 20.7 C 31 %
3955 16-09-2020 11:06:17 21.2 C 30 %
3956 16-09-2020 11:16:17 21.6 C 30 %
3957 16-09-2020 11:26:17 22.2 C 28 %
3958 16-09-2020 11:36:17 22.9 C 28 %
3959 16-09-2020 11:46:17 23.8 C 26 %
3960 16-09-2020 11:56:17 23.7 C 26 %
3961 16-09-2020 12:06:18 24.1 C 26 %
3962 16-09-2020 12:16:17 25.3 C 25 %
3963 16-09-2020 12:26:17 25.3 C 25 %
3964 16-09-2020 12:36:18 24.9 C 25 %
3965 16-09-2020 12:46:18 25.3 C 25 %
3966 16-09-2020 12:56:18 25.6 C 25 %
3967 16-09-2020 13:06:18 24.9 C 25 %
3968 16-09-2020 13:16:18 25 C 25 %
3969 16-09-2020 13:26:18 24.8 C 25 %
3970 16-09-2020 13:36:17 24.4 C 26 %
3971 16-09-2020 13:46:17 24.1 C 26 %
3972 16-09-2020 13:56:17 24.9 C 26 %
3973 16-09-2020 14:06:18 26.6 C 24 %
3974 16-09-2020 14:16:17 27.8 C 22 %
3975 16-09-2020 14:26:17 29.4 C 20 %
Sensor: Nr:Datum:Temp:Feuchte:
Aussen-T/F 3976 16-09-2020 14:36:18 30 C 20 %
3977 16-09-2020 14:46:17 30.6 C 20 %
3978 16-09-2020 14:56:17 30 C 20 %
3979 16-09-2020 15:06:17 29.9 C 20 %
3980 16-09-2020 15:16:17 29.8 C 20 %
3981 16-09-2020 15:26:17 30 C 20 %
3982 16-09-2020 15:36:17 31.2 C 20 %
3983 16-09-2020 15:46:17 31.5 C 20 %
3984 16-09-2020 15:56:17 32.1 C 20 %
3985 16-09-2020 16:06:18 34.4 C 20 %
3986 16-09-2020 16:16:17 34 C 20 %
3987 16-09-2020 16:26:17 34.3 C 20 %
3988 16-09-2020 16:36:17 34.2 C 20 %
3989 16-09-2020 16:46:17 33.9 C 20 %
3990 16-09-2020 16:56:17 31.5 C 20 %
3991 16-09-2020 17:06:18 31.2 C 20 %
3992 16-09-2020 17:16:18 29.3 C 20 %
3993 16-09-2020 17:26:18 28.1 C 20 %
3994 16-09-2020 17:36:17 27.6 C 21 %
3995 16-09-2020 17:46:17 27.3 C 21 %
3996 16-09-2020 17:56:17 27 C 21 %
3997 16-09-2020 18:06:18 27.3 C 21 %
3998 16-09-2020 18:16:17 27.4 C 21 %
3999 16-09-2020 18:26:17 26.7 C 22 %
4000 16-09-2020 18:36:17 26.4 C 22 %
Sensor: Nr:Datum:Temp:Feuchte:
Aussen-T/F 4001 16-09-2020 18:46:17 26.1 C 22 %
4002 16-09-2020 18:56:17 25.9 C 23 %
4003 16-09-2020 19:06:17 25.4 C 23 %
4004 16-09-2020 19:16:17 25.3 C 24 %
4005 16-09-2020 19:26:17 24.9 C 25 %
4006 16-09-2020 19:36:17 24.4 C 25 %
4007 16-09-2020 19:46:17 23.9 C 26 %
4008 16-09-2020 19:56:17 23.4 C 26 %
4009 16-09-2020 20:06:17 22.8 C 28 %
4010 16-09-2020 20:16:17 22.5 C 28 %
4011 16-09-2020 20:26:17 22 C 28 %
4012 16-09-2020 20:36:17 22.2 C 28 %
4013 16-09-2020 20:46:18 22 C 28 %
4014 16-09-2020 20:56:18 21.6 C 30 %
4015 16-09-2020 21:06:17 21.8 C 30 %
4016 16-09-2020 21:16:17 22.1 C 28 %
4017 16-09-2020 21:26:17 22.4 C 28 %
4018 16-09-2020 21:36:18 21.4 C 30 %
4019 16-09-2020 21:46:17 22.1 C 28 %
4020 16-09-2020 21:56:17 22.3 C 28 %
4021 16-09-2020 22:06:17 22.3 C 28 %
4022 16-09-2020 22:16:17 21.7 C 29 %
4023 16-09-2020 22:26:17 21.5 C 29 %
4024 16-09-2020 22:36:17 21.8 C 29 %
4025 16-09-2020 22:46:18 21.8 C 29 %
Sensor: Nr:Datum:Temp:Feuchte:
Aussen-T/F 4026 16-09-2020 22:56:18 21.4 C 29 %
4027 16-09-2020 23:06:17 20.6 C 30 %
4028 16-09-2020 23:16:17 20.6 C 30 %
4029 16-09-2020 23:26:17 20.1 C 30 %
4030 16-09-2020 23:36:17 20.3 C 30 %
4031 16-09-2020 23:46:18 20.6 C 30 %
4032 16-09-2020 23:56:18 20.2 C 30 %
4033 17-09-2020 00:06:18 20.6 C 30 %
4034 17-09-2020 00:16:18 20.6 C 30 %
4035 17-09-2020 00:26:18 20.6 C 30 %
4036 17-09-2020 00:36:18 20.6 C 30 %
4037 17-09-2020 00:46:17 20.6 C 30 %
4038 17-09-2020 00:56:17 20.4 C 30 %
4039 17-09-2020 01:06:18 20.2 C 30 %
4040 17-09-2020 01:16:17 20 C 30 %
4041 17-09-2020 01:26:17 19.6 C 30 %
4042 17-09-2020 01:36:17 19.6 C 30 %
4043 17-09-2020 01:46:18 19.4 C 30 %
4044 17-09-2020 01:56:18 18.5 C 31 %
4045 17-09-2020 02:06:17 18.1 C 31 %
4046 17-09-2020 02:16:18 18.4 C 31 %
4047 17-09-2020 02:26:18 18.3 C 31 %
4048 17-09-2020 02:36:17 18 C 31 %
4049 17-09-2020 02:46:17 17.6 C 32 %
4050 17-09-2020 02:56:17 17.2 C 33 %
Sensor: Nr:Datum:Temp:Feuchte:
Aussen-T/F 4051 17-09-2020 03:06:17 16.9 C 33 %
4052 17-09-2020 03:16:17 16.6 C 35 %
4053 17-09-2020 03:26:17 16.2 C 35 %
4054 17-09-2020 03:36:18 16.4 C 35 %
4055 17-09-2020 03:46:17 16.6 C 35 %
4056 17-09-2020 03:56:17 16.7 C 35 %
4057 17-09-2020 04:06:18 17.3 C 34 %
4058 17-09-2020 04:16:17 17.4 C 34 %
4059 17-09-2020 04:26:17 17.5 C 34 %
4060 17-09-2020 04:36:17 17.5 C 33 %
4061 17-09-2020 04:46:17 17.5 C 33 %
4062 17-09-2020 04:56:17 17.3 C 33 %
4063 17-09-2020 05:06:18 17 C 33 %
4064 17-09-2020 05:16:18 16.8 C 34 %
4065 17-09-2020 05:26:18 16.9 C 34 %
4066 17-09-2020 05:36:18 17 C 33 %
4067 17-09-2020 05:46:17 17 C 33 %
4068 17-09-2020 05:56:17 17 C 33 %
4069 17-09-2020 06:06:17 17 C 33 %
4070 17-09-2020 06:16:17 16.9 C 34 %
4071 17-09-2020 06:26:17 16.8 C 33 %
4072 17-09-2020 06:36:18 16.8 C 33 %
4073 17-09-2020 06:46:18 16.8 C 33 %
4074 17-09-2020 06:56:18 16.8 C 33 %
4075 17-09-2020 07:06:17 16.8 C 33 %
Sensor: Nr:Datum:Temp:Feuchte:
Aussen-T/F 4076 17-09-2020 07:16:17 16.7 C 33 %
4077 17-09-2020 07:26:17 16.3 C 34 %
4078 17-09-2020 07:36:17 16.3 C 34 %
4079 17-09-2020 07:46:17 16.3 C 34 %
4080 17-09-2020 07:56:17 16.2 C 34 %
4081 17-09-2020 08:06:18 16.3 C 33 %
4082 17-09-2020 08:16:17 16.2 C 33 %
4083 17-09-2020 08:26:17 16.2 C 33 %
4084 17-09-2020 08:36:18 16.2 C 33 %
4085 17-09-2020 08:46:18 15.8 C 33 %
4086 17-09-2020 08:56:18 15.8 C 33 %
4087 17-09-2020 09:06:18 15.7 C 33 %
4088 17-09-2020 09:16:17 15.9 C 33 %
4089 17-09-2020 09:26:17 15.8 C 33 %
4090 17-09-2020 09:36:17 15.9 C 32 %
4091 17-09-2020 09:46:17 16.2 C 32 %
4092 17-09-2020 09:56:17 16.5 C 32 %
4093 17-09-2020 10:06:17 17.2 C 31 %
4094 17-09-2020 10:16:17 16.3 C 30 %
4095 17-09-2020 10:26:17 16 C 29 %
4096 17-09-2020 10:36:18 16.1 C 30 %
4097 17-09-2020 10:46:18 16.1 C 29 %
4098 17-09-2020 10:56:18 16.2 C 29 %
4099 17-09-2020 11:06:17 16.4 C 29 %
4100 17-09-2020 11:16:17 16.6 C 28 %
Sensor: Nr:Datum:Temp:Feuchte:
Aussen-T/F 4101 17-09-2020 11:26:17 16.5 C 28 %
4102 17-09-2020 11:36:18 16.6 C 28 %
4103 17-09-2020 11:46:17 17.5 C 28 %
4104 17-09-2020 11:56:17 17.2 C 28 %
4105 17-09-2020 12:06:18 17.4 C 28 %
4106 17-09-2020 12:16:17 18 C 26 %
4107 17-09-2020 12:26:18 17.5 C 27 %
4108 17-09-2020 12:36:18 17.7 C 27 %
4109 17-09-2020 12:46:17 18.1 C 27 %
4110 17-09-2020 12:56:17 18.3 C 26 %
4111 17-09-2020 13:06:18 18.3 C 26 %
4112 17-09-2020 13:16:17 18.6 C 25 %
4113 17-09-2020 13:26:17 18.8 C 25 %
4114 17-09-2020 13:36:18 19.1 C 24 %
4115 17-09-2020 13:46:17 19.3 C 24 %
4116 17-09-2020 13:56:17 19.8 C 23 %
4117 17-09-2020 14:06:17 20.4 C 21 %
4118 17-09-2020 14:16:17 20.6 C 21 %
4119 17-09-2020 14:26:18 21 C 20 %
4120 17-09-2020 14:36:18 21.3 C 20 %
4121 17-09-2020 14:46:17 21.6 C 20 %
4122 17-09-2020 14:56:17 21.5 C 20 %
4123 17-09-2020 15:06:18 23.3 C 20 %
4124 17-09-2020 15:16:17 22.6 C 20 %
4125 17-09-2020 15:26:17 24.1 C 20 %
Sensor: Nr:Datum:Temp:Feuchte:
Aussen-T/F 4126 17-09-2020 15:36:18 25 C 20 %
4127 17-09-2020 15:46:18 25.8 C 20 %
4128 17-09-2020 15:56:18 26 C 20 %
4129 17-09-2020 16:06:17 25.1 C 20 %
4130 17-09-2020 16:16:18 24.8 C 20 %
4131 17-09-2020 16:26:18 25.5 C 20 %
4132 17-09-2020 16:36:18 24.5 C 20 %
4133 17-09-2020 16:46:18 25.4 C 20 %
4134 17-09-2020 16:56:18 24.7 C 20 %
4135 17-09-2020 17:06:17 24.1 C 20 %
4136 17-09-2020 17:16:17 23.9 C 20 %
4137 17-09-2020 17:26:17 24.1 C 20 %
4138 17-09-2020 17:36:17 23 C 20 %
4139 17-09-2020 17:46:17 21.9 C 20 %
4140 17-09-2020 17:56:17 21.8 C 20 %
4141 17-09-2020 18:06:18 21.6 C 20 %
4142 17-09-2020 18:16:18 21.5 C 20 %
4143 17-09-2020 18:26:18 21.4 C 20 %
4144 17-09-2020 18:36:18 21 C 20 %
4145 17-09-2020 18:46:17 20.8 C 20 %
4146 17-09-2020 18:56:17 20.4 C 20 %
4147 17-09-2020 19:06:18 20 C 20 %
4148 17-09-2020 19:16:18 19.3 C 20 %
4149 17-09-2020 19:26:18 18.3 C 21 %
4150 17-09-2020 19:36:18 17.5 C 22 %
Sensor: Nr:Datum:Temp:Feuchte:
Aussen-T/F 4151 17-09-2020 19:46:17 16.7 C 23 %
4152 17-09-2020 19:56:17 16.4 C 24 %
4153 17-09-2020 20:06:18 16.4 C 24 %
4154 17-09-2020 20:16:17 16.1 C 25 %
4155 17-09-2020 20:26:17 16 C 25 %
4156 17-09-2020 20:36:17 16 C 25 %
4157 17-09-2020 20:46:18 15.7 C 25 %
4158 17-09-2020 20:56:18 15.5 C 25 %
4159 17-09-2020 21:06:17 15.2 C 25 %
4160 17-09-2020 21:16:18 14.8 C 27 %
4161 17-09-2020 21:26:18 14.9 C 27 %
4162 17-09-2020 21:36:18 14.7 C 27 %
4163 17-09-2020 21:46:17 14.7 C 27 %
4164 17-09-2020 21:56:17 15.1 C 27 %
4165 17-09-2020 22:06:17 15.2 C 26 %
4166 17-09-2020 22:16:18 14.7 C 27 %
4167 17-09-2020 22:26:18 13.9 C 29 %
4168 17-09-2020 22:36:18 13.8 C 29 %
4169 17-09-2020 22:46:18 14 C 28 %
4170 17-09-2020 22:56:18 13.7 C 30 %
4171 17-09-2020 23:06:17 13.6 C 30 %
4172 17-09-2020 23:16:17 13.7 C 30 %
4173 17-09-2020 23:26:17 13.2 C 30 %
4174 17-09-2020 23:36:18 13 C 30 %
4175 17-09-2020 23:46:18 12.9 C 31 %
Sensor: Nr:Datum:Temp:Feuchte:
Aussen-T/F 4176 17-09-2020 23:56:18 13 C 30 %
Sensor: Nr:Datum:Temp:Feuchte:
G-T/H 1 20-08-2020 00:03:18 21.2 C 63 %
2 20-08-2020 00:13:18 21.2 C 63 %
3 20-08-2020 00:23:17 21.1 C 63 %
4 20-08-2020 00:33:17 21.2 C 63 %
5 20-08-2020 00:43:17 21.2 C 63 %
6 20-08-2020 00:53:18 21.1 C 63 %
7 20-08-2020 01:03:18 21.2 C 63 %
8 20-08-2020 01:13:18 21.1 C 63 %
9 20-08-2020 01:23:17 21.2 C 63 %
10 20-08-2020 01:33:18 21.1 C 63 %
11 20-08-2020 01:43:18 21.1 C 63 %
12 20-08-2020 01:53:17 21.1 C 63 %
13 20-08-2020 02:03:18 21.1 C 63 %
14 20-08-2020 02:13:18 21.1 C 63 %
15 20-08-2020 02:23:17 21.1 C 63 %
16 20-08-2020 02:33:18 21.1 C 63 %
17 20-08-2020 02:43:18 21.1 C 64 %
18 20-08-2020 02:53:17 21.1 C 64 %
19 20-08-2020 03:03:17 21.1 C 64 %
20 20-08-2020 03:13:18 21.1 C 64 %
21 20-08-2020 03:23:17 21.1 C 64 %
22 20-08-2020 03:33:17 21.1 C 64 %
23 20-08-2020 03:43:17 21.1 C 64 %
24 20-08-2020 03:53:17 21.1 C 64 %
25 20-08-2020 04:03:17 21.1 C 64 %
Sensor: Nr:Datum:Temp:Feuchte:
G-T/H 26 20-08-2020 04:13:17 21 C 64 %
27 20-08-2020 04:23:17 21.1 C 64 %
28 20-08-2020 04:33:17 21 C 64 %
29 20-08-2020 04:43:17 21 C 64 %
30 20-08-2020 04:53:18 21.1 C 64 %
31 20-08-2020 05:03:17 21.1 C 64 %
32 20-08-2020 05:13:17 21 C 64 %
33 20-08-2020 05:23:17 21 C 64 %
34 20-08-2020 05:33:17 21 C 64 %
35 20-08-2020 05:43:17 21 C 64 %
36 20-08-2020 05:53:18 21 C 64 %
37 20-08-2020 06:03:18 21 C 64 %
38 20-08-2020 06:13:18 21 C 64 %
39 20-08-2020 06:23:17 21 C 64 %
40 20-08-2020 06:33:17 20.9 C 65 %
41 20-08-2020 06:43:17 21 C 64 %
42 20-08-2020 06:53:17 21 C 64 %
43 20-08-2020 07:03:17 20.9 C 65 %
44 20-08-2020 07:13:17 20.9 C 65 %
45 20-08-2020 07:23:17 20.9 C 65 %
46 20-08-2020 07:33:17 20.9 C 65 %
47 20-08-2020 07:43:17 20.9 C 65 %
48 20-08-2020 07:53:18 20.9 C 65 %
49 20-08-2020 08:03:17 20.9 C 65 %
50 20-08-2020 08:13:17 20.9 C 65 %
Sensor: Nr:Datum:Temp:Feuchte:
G-T/H 51 20-08-2020 08:23:17 20.9 C 65 %
52 20-08-2020 08:33:17 20.8 C 65 %
53 20-08-2020 08:43:18 20.9 C 65 %
54 20-08-2020 08:53:17 20.9 C 65 %
55 20-08-2020 09:03:18 20.9 C 65 %
56 20-08-2020 09:13:18 20.9 C 65 %
57 20-08-2020 09:23:17 20.8 C 65 %
58 20-08-2020 09:33:17 20.9 C 65 %
59 20-08-2020 09:43:17 20.9 C 65 %
60 20-08-2020 09:53:17 20.9 C 65 %
61 20-08-2020 10:03:18 20.9 C 65 %
62 20-08-2020 10:13:18 20.8 C 65 %
63 20-08-2020 10:23:18 20.8 C 65 %
64 20-08-2020 10:33:18 20.9 C 65 %
65 20-08-2020 10:43:18 20.9 C 65 %
66 20-08-2020 10:53:17 20.9 C 65 %
67 20-08-2020 11:03:17 20.9 C 65 %
68 20-08-2020 11:13:17 20.8 C 65 %
69 20-08-2020 11:23:17 20.9 C 65 %
70 20-08-2020 11:33:18 20.9 C 65 %
71 20-08-2020 11:43:18 20.9 C 65 %
72 20-08-2020 11:53:17 21 C 64 %
73 20-08-2020 12:03:17 21 C 64 %
74 20-08-2020 12:13:17 21 C 64 %
75 20-08-2020 12:23:17 21 C 64 %
Sensor: Nr:Datum:Temp:Feuchte:
G-T/H 76 20-08-2020 12:33:17 21 C 64 %
77 20-08-2020 12:43:17 21.1 C 64 %
78 20-08-2020 12:53:17 21.1 C 64 %
79 20-08-2020 13:03:18 21.1 C 64 %
80 20-08-2020 13:13:18 21.1 C 64 %
81 20-08-2020 13:23:17 21.2 C 64 %
82 20-08-2020 13:33:17 21.2 C 64 %
83 20-08-2020 13:43:17 21.2 C 64 %
84 20-08-2020 13:53:17 21.2 C 64 %
85 20-08-2020 14:03:17 21.3 C 64 %
86 20-08-2020 14:13:17 21.3 C 64 %
87 20-08-2020 14:23:17 21.3 C 64 %
88 20-08-2020 14:33:17 21.3 C 64 %
89 20-08-2020 14:43:17 21.4 C 64 %
90 20-08-2020 14:53:17 21.4 C 65 %
91 20-08-2020 15:03:17 21.5 C 65 %
92 20-08-2020 15:13:17 21.5 C 65 %
93 20-08-2020 15:23:17 21.5 C 65 %
94 20-08-2020 15:33:18 21.5 C 65 %
95 20-08-2020 15:43:18 21.6 C 65 %
96 20-08-2020 15:53:17 21.6 C 65 %
97 20-08-2020 16:03:17 21.6 C 65 %
98 20-08-2020 16:13:17 21.7 C 65 %
99 20-08-2020 16:23:18 21.7 C 65 %
100 20-08-2020 16:33:18 21.7 C 65 %
Sensor: Nr:Datum:Temp:Feuchte:
G-T/H 101 20-08-2020 16:43:18 21.8 C 65 %
102 20-08-2020 16:53:18 21.8 C 65 %
103 20-08-2020 17:03:18 21.9 C 65 %
104 20-08-2020 17:13:18 21.9 C 65 %
105 20-08-2020 17:23:17 21.9 C 65 %
106 20-08-2020 17:33:17 21.9 C 65 %
107 20-08-2020 17:43:17 22 C 64 %
108 20-08-2020 17:53:17 22 C 64 %
109 20-08-2020 18:03:18 22 C 64 %
110 20-08-2020 18:13:18 22 C 64 %
111 20-08-2020 18:23:17 22.1 C 64 %
112 20-08-2020 18:33:18 22.1 C 64 %
113 20-08-2020 18:43:18 22.1 C 64 %
114 20-08-2020 18:53:17 22.2 C 64 %
115 20-08-2020 19:03:18 22.2 C 64 %
116 20-08-2020 19:13:18 22.3 C 64 %
117 20-08-2020 19:23:17 22.3 C 64 %
118 20-08-2020 19:33:17 22.3 C 64 %
119 20-08-2020 19:43:17 22.3 C 64 %
120 20-08-2020 19:53:17 22.3 C 64 %
121 20-08-2020 20:03:18 22.3 C 64 %
122 20-08-2020 20:13:18 22.3 C 64 %
123 20-08-2020 20:23:17 22.3 C 64 %
124 20-08-2020 20:33:17 22.3 C 64 %
125 20-08-2020 20:43:17 22.3 C 64 %
Sensor: Nr:Datum:Temp:Feuchte:
G-T/H 126 20-08-2020 20:53:18 22.3 C 64 %
127 20-08-2020 21:03:18 22.3 C 64 %
128 20-08-2020 21:13:18 22.3 C 64 %
129 20-08-2020 21:23:17 22.3 C 64 %
130 20-08-2020 21:33:17 22.3 C 64 %
131 20-08-2020 21:43:17 22.3 C 64 %
132 20-08-2020 21:53:17 22.3 C 64 %
133 20-08-2020 22:03:17 22.3 C 64 %
134 20-08-2020 22:13:17 22.3 C 64 %
135 20-08-2020 22:23:17 22.3 C 64 %
136 20-08-2020 22:33:17 22.3 C 64 %
137 20-08-2020 22:43:17 22.3 C 64 %
138 20-08-2020 22:53:17 22.3 C 64 %
139 20-08-2020 23:03:17 22.3 C 64 %
140 20-08-2020 23:13:17 22.3 C 64 %
141 20-08-2020 23:23:17 22.3 C 64 %
142 20-08-2020 23:33:18 22.3 C 64 %
143 20-08-2020 23:43:18 22.3 C 64 %
144 20-08-2020 23:53:17 22.3 C 64 %
145 21-08-2020 00:03:17 22.3 C 64 %
146 21-08-2020 00:13:17 22.3 C 64 %
147 21-08-2020 00:23:17 22.3 C 64 %
148 21-08-2020 00:33:17 22.4 C 64 %
149 21-08-2020 00:43:18 22.4 C 64 %
150 21-08-2020 00:53:18 22.4 C 64 %
Sensor: Nr:Datum:Temp:Feuchte:
G-T/H 151 21-08-2020 01:03:18 22.3 C 64 %
152 21-08-2020 01:13:18 22.4 C 64 %
153 21-08-2020 01:23:17 22.4 C 64 %
154 21-08-2020 01:33:17 22.4 C 64 %
155 21-08-2020 01:43:17 22.4 C 64 %
156 21-08-2020 01:53:18 22.4 C 64 %
157 21-08-2020 02:03:18 22.4 C 64 %
158 21-08-2020 02:13:18 22.4 C 64 %
159 21-08-2020 02:23:17 22.4 C 64 %
160 21-08-2020 02:33:17 22.4 C 64 %
161 21-08-2020 02:43:17 22.4 C 64 %
162 21-08-2020 02:53:18 22.3 C 64 %
163 21-08-2020 03:03:17 22.4 C 64 %
164 21-08-2020 03:13:17 22.4 C 64 %
165 21-08-2020 03:23:17 22.4 C 64 %
166 21-08-2020 03:33:17 22.4 C 64 %
167 21-08-2020 03:43:17 22.4 C 64 %
168 21-08-2020 03:53:17 22.4 C 64 %
169 21-08-2020 04:03:17 22.4 C 64 %
170 21-08-2020 04:13:18 22.4 C 64 %
171 21-08-2020 04:23:18 22.4 C 64 %
172 21-08-2020 04:33:18 22.3 C 64 %
173 21-08-2020 04:43:18 22.3 C 64 %
174 21-08-2020 04:53:17 22.3 C 64 %
175 21-08-2020 05:03:17 22.3 C 64 %
Sensor: Nr:Datum:Temp:Feuchte:
G-T/H 176 21-08-2020 05:13:17 22.3 C 64 %
177 21-08-2020 05:23:17 22.3 C 64 %
178 21-08-2020 05:33:17 22.3 C 64 %
179 21-08-2020 05:43:17 22.3 C 64 %
180 21-08-2020 05:53:17 22.3 C 64 %
181 21-08-2020 06:03:18 22.3 C 64 %
182 21-08-2020 06:13:18 22.2 C 64 %
183 21-08-2020 06:23:17 22.3 C 64 %
184 21-08-2020 06:33:17 22.3 C 64 %
185 21-08-2020 06:43:17 22.3 C 64 %
186 21-08-2020 06:53:17 22.2 C 64 %
187 21-08-2020 07:03:17 22.2 C 64 %
188 21-08-2020 07:13:17 22.2 C 64 %
189 21-08-2020 07:23:17 22.2 C 64 %
190 21-08-2020 07:33:17 22.2 C 64 %
191 21-08-2020 07:43:17 22.2 C 64 %
192 21-08-2020 07:53:17 22.2 C 64 %
193 21-08-2020 08:03:17 22.2 C 64 %
194 21-08-2020 08:13:17 22.2 C 64 %
195 21-08-2020 08:23:17 22.2 C 64 %
196 21-08-2020 08:33:17 22.2 C 64 %
197 21-08-2020 08:43:17 22.3 C 64 %
198 21-08-2020 08:53:17 22.3 C 64 %
199 21-08-2020 09:03:17 22.3 C 64 %
200 21-08-2020 09:13:17 22.3 C 64 %
Sensor: Nr:Datum:Temp:Feuchte:
G-T/H 201 21-08-2020 09:23:17 22.3 C 64 %
202 21-08-2020 09:33:18 22.3 C 64 %
203 21-08-2020 09:43:18 22.3 C 64 %
204 21-08-2020 09:53:17 22.3 C 64 %
205 21-08-2020 10:03:18 22.3 C 64 %
206 21-08-2020 10:13:18 22.3 C 64 %
207 21-08-2020 10:23:17 22.4 C 64 %
208 21-08-2020 10:33:18 22.3 C 64 %
209 21-08-2020 10:43:18 22.3 C 64 %
210 21-08-2020 10:53:18 22.4 C 64 %
211 21-08-2020 11:03:17 22.4 C 64 %
212 21-08-2020 11:13:17 23.3 C 63 %
213 21-08-2020 11:23:17 23.7 C 61 %
214 21-08-2020 11:33:17 23.8 C 60 %
215 21-08-2020 11:43:17 23.9 C 60 %
216 21-08-2020 11:53:17 23.9 C 60 %
217 21-08-2020 12:03:18 24 C 59 %
218 21-08-2020 12:13:18 24.1 C 59 %
219 21-08-2020 12:23:18 24.2 C 59 %
220 21-08-2020 12:33:17 24.3 C 59 %
221 21-08-2020 12:43:17 24.4 C 59 %
222 21-08-2020 12:53:17 24.5 C 58 %
223 21-08-2020 13:03:18 24.7 C 58 %
224 21-08-2020 13:13:18 24.8 C 57 %
225 21-08-2020 13:23:17 24.9 C 57 %
Sensor: Nr:Datum:Temp:Feuchte:
G-T/H 226 21-08-2020 13:33:17 25 C 56 %
227 21-08-2020 13:43:17 25 C 56 %
228 21-08-2020 13:53:17 25.1 C 56 %
229 21-08-2020 14:03:17 25.1 C 57 %
230 21-08-2020 14:13:17 25 C 57 %
231 21-08-2020 14:23:17 25.1 C 57 %
232 21-08-2020 14:33:17 25.1 C 59 %
233 21-08-2020 14:43:17 25.3 C 59 %
234 21-08-2020 14:53:17 25.4 C 58 %
235 21-08-2020 15:03:17 25.5 C 57 %
236 21-08-2020 15:13:17 25.7 C 56 %
237 21-08-2020 15:23:17 25.8 C 54 %
238 21-08-2020 15:33:17 25.7 C 53 %
239 21-08-2020 15:43:17 25.8 C 53 %
240 21-08-2020 15:53:17 25.9 C 54 %
241 21-08-2020 16:03:17 25.9 C 54 %
242 21-08-2020 16:13:18 25.9 C 55 %
243 21-08-2020 16:23:18 25.9 C 56 %
244 21-08-2020 16:33:17 25.8 C 58 %
245 21-08-2020 16:43:18 25.9 C 58 %
246 21-08-2020 16:53:17 25.7 C 59 %
247 21-08-2020 17:03:17 25.5 C 61 %
248 21-08-2020 17:13:17 25.5 C 62 %
249 21-08-2020 17:23:17 25.4 C 63 %
250 21-08-2020 17:33:17 25.4 C 63 %
Sensor: Nr:Datum:Temp:Feuchte:
G-T/H 251 21-08-2020 17:43:17 25.4 C 64 %
252 21-08-2020 17:53:17 25.5 C 64 %
253 21-08-2020 18:03:18 25.6 C 63 %
254 21-08-2020 18:13:18 25.7 C 60 %
255 21-08-2020 18:23:17 25.8 C 59 %
256 21-08-2020 18:33:18 26 C 57 %
257 21-08-2020 18:43:18 26.2 C 55 %
258 21-08-2020 18:53:17 26.3 C 54 %
259 21-08-2020 19:03:17 26.3 C 53 %
260 21-08-2020 19:13:18 26.2 C 53 %
261 21-08-2020 19:24:17 25.9 C 55 %
262 21-08-2020 19:33:17 25.8 C 55 %
263 21-08-2020 19:43:18 25.6 C 56 %
264 21-08-2020 19:54:17 25.6 C 57 %
265 21-08-2020 20:03:18 25.8 C 57 %
266 21-08-2020 20:13:18 25.7 C 57 %
267 21-08-2020 20:23:17 25.4 C 58 %
268 21-08-2020 20:33:17 25.2 C 58 %
269 21-08-2020 20:43:17 25.2 C 58 %
270 21-08-2020 20:53:18 25 C 58 %
271 21-08-2020 21:03:18 24.9 C 59 %
272 21-08-2020 21:13:18 24.9 C 58 %
273 21-08-2020 21:23:18 24.9 C 58 %
274 21-08-2020 21:33:17 24.8 C 58 %
275 21-08-2020 21:43:17 24.8 C 58 %
Sensor: Nr:Datum:Temp:Feuchte:
G-T/H 276 21-08-2020 21:53:17 24.7 C 58 %
277 21-08-2020 22:03:17 24.6 C 58 %
278 21-08-2020 22:13:17 24.5 C 59 %
279 21-08-2020 22:23:17 24.4 C 59 %
280 21-08-2020 22:34:17 24.4 C 59 %
281 21-08-2020 22:44:17 24.3 C 59 %
282 21-08-2020 22:53:18 24.3 C 60 %
283 21-08-2020 23:03:18 24.1 C 60 %
284 21-08-2020 23:13:18 24.1 C 60 %
285 21-08-2020 23:24:17 24.1 C 60 %
286 21-08-2020 23:33:18 24 C 60 %
287 21-08-2020 23:43:18 24 C 61 %
288 21-08-2020 23:53:18 24 C 61 %
289 22-08-2020 00:04:17 23.9 C 61 %
290 22-08-2020 00:14:17 23.8 C 62 %
291 22-08-2020 00:24:17 23.8 C 62 %
292 22-08-2020 00:33:18 23.8 C 62 %
293 22-08-2020 00:43:18 23.8 C 62 %
294 22-08-2020 00:53:17 23.7 C 62 %
295 22-08-2020 01:03:18 23.7 C 62 %
296 22-08-2020 01:13:18 23.7 C 62 %
297 22-08-2020 01:23:17 23.7 C 62 %
298 22-08-2020 01:33:18 23.7 C 62 %
299 22-08-2020 01:43:18 23.6 C 62 %
300 22-08-2020 01:53:17 23.5 C 62 %
Sensor: Nr:Datum:Temp:Feuchte:
G-T/H 301 22-08-2020 02:03:18 23.5 C 62 %
302 22-08-2020 02:13:18 23.5 C 62 %
303 22-08-2020 02:23:18 23.5 C 62 %
304 22-08-2020 02:34:17 23.4 C 62 %
305 22-08-2020 02:43:18 23.4 C 62 %
306 22-08-2020 02:54:17 23.4 C 62 %
307 22-08-2020 03:04:18 23.4 C 62 %
308 22-08-2020 03:14:18 23.4 C 62 %
309 22-08-2020 03:24:17 23.3 C 62 %
310 22-08-2020 03:34:17 23.2 C 62 %
311 22-08-2020 03:44:17 23.2 C 62 %
312 22-08-2020 03:54:17 23.2 C 62 %
313 22-08-2020 04:04:17 23.1 C 62 %
314 22-08-2020 04:14:17 23.1 C 62 %
315 22-08-2020 04:24:17 23 C 62 %
316 22-08-2020 04:34:17 23 C 62 %
317 22-08-2020 04:44:17 22.9 C 62 %
318 22-08-2020 04:54:17 22.9 C 62 %
319 22-08-2020 05:04:17 22.9 C 63 %
320 22-08-2020 05:14:17 22.8 C 63 %
321 22-08-2020 05:24:17 22.8 C 63 %
322 22-08-2020 05:34:17 22.8 C 63 %
323 22-08-2020 05:44:17 22.8 C 63 %
324 22-08-2020 05:54:17 22.9 C 63 %
325 22-08-2020 06:04:17 22.8 C 63 %
Sensor: Nr:Datum:Temp:Feuchte:
G-T/H 326 22-08-2020 06:14:17 22.8 C 63 %
327 22-08-2020 06:24:17 22.8 C 63 %
328 22-08-2020 06:34:17 22.8 C 63 %
329 22-08-2020 06:44:17 22.8 C 63 %
330 22-08-2020 06:54:18 22.7 C 63 %
331 22-08-2020 07:04:17 22.7 C 63 %
332 22-08-2020 07:14:17 22.8 C 63 %
333 22-08-2020 07:24:17 22.7 C 63 %
334 22-08-2020 07:34:17 22.7 C 63 %
335 22-08-2020 07:44:17 22.7 C 64 %
336 22-08-2020 07:54:17 22.7 C 64 %
337 22-08-2020 08:04:17 22.7 C 64 %
338 22-08-2020 08:14:17 22.7 C 63 %
339 22-08-2020 08:24:17 22.7 C 63 %
340 22-08-2020 08:34:17 22.7 C 63 %
341 22-08-2020 08:44:18 22.7 C 63 %
342 22-08-2020 08:54:16 22.7 C 62 %
343 22-08-2020 09:04:17 22.7 C 61 %
344 22-08-2020 09:14:17 22.7 C 61 %
345 22-08-2020 09:24:16 22.7 C 59 %
346 22-08-2020 09:34:16 22.7 C 59 %
347 22-08-2020 09:44:16 22.8 C 58 %
348 22-08-2020 09:54:17 22.8 C 57 %
349 22-08-2020 10:04:17 22.7 C 57 %
350 22-08-2020 10:14:17 22.8 C 56 %
Sensor: Nr:Datum:Temp:Feuchte:
G-T/H 351 22-08-2020 10:24:16 22.8 C 56 %
352 22-08-2020 10:34:16 22.7 C 55 %
353 22-08-2020 10:44:16 22.7 C 53 %
354 22-08-2020 10:54:16 22.7 C 53 %
355 22-08-2020 11:04:17 22.7 C 53 %
356 22-08-2020 11:14:17 22.8 C 52 %
357 22-08-2020 11:24:17 22.9 C 52 %
358 22-08-2020 11:34:16 22.9 C 51 %
359 22-08-2020 11:44:16 23 C 50 %
360 22-08-2020 11:54:17 23.1 C 49 %
361 22-08-2020 12:04:16 23.2 C 49 %
362 22-08-2020 12:14:16 23.2 C 48 %
363 22-08-2020 12:24:16 23.2 C 48 %
364 22-08-2020 12:34:17 23.4 C 47 %
365 22-08-2020 12:44:17 23.4 C 47 %
366 22-08-2020 12:54:16 23.6 C 47 %
367 22-08-2020 13:04:16 23.6 C 47 %
368 22-08-2020 13:14:16 23.7 C 46 %
369 22-08-2020 13:24:16 23.7 C 46 %
370 22-08-2020 13:34:17 23.8 C 45 %
371 22-08-2020 13:44:17 23.9 C 45 %
372 22-08-2020 13:54:16 24.1 C 44 %
373 22-08-2020 14:04:16 24.3 C 43 %
374 22-08-2020 14:14:16 24.3 C 42 %
375 22-08-2020 14:24:17 24.2 C 43 %
Sensor: Nr:Datum:Temp:Feuchte:
G-T/H 376 22-08-2020 14:34:17 24.3 C 43 %
377 22-08-2020 14:44:17 24.3 C 42 %
378 22-08-2020 14:54:16 24.5 C 42 %
379 22-08-2020 15:04:16 24.5 C 41 %
380 22-08-2020 15:14:16 24.5 C 41 %
381 22-08-2020 15:24:17 24.4 C 41 %
382 22-08-2020 15:34:17 24.4 C 41 %
383 22-08-2020 15:44:17 24.5 C 40 %
384 22-08-2020 15:54:17 24.5 C 40 %
385 22-08-2020 16:04:16 24.6 C 39 %
386 22-08-2020 16:14:16 24.6 C 39 %
387 22-08-2020 16:24:17 24.7 C 39 %
388 22-08-2020 16:34:17 24.8 C 39 %
389 22-08-2020 16:44:17 24.9 C 39 %
390 22-08-2020 16:54:16 25.1 C 37 %
391 22-08-2020 17:04:16 25.1 C 38 %
392 22-08-2020 17:14:16 25.3 C 37 %
393 22-08-2020 17:24:16 25.1 C 37 %
394 22-08-2020 17:34:16 25 C 37 %
395 22-08-2020 17:44:16 24.9 C 38 %
396 22-08-2020 17:54:16 24.9 C 38 %
397 22-08-2020 18:04:17 24.9 C 38 %
398 22-08-2020 18:14:17 24.8 C 38 %
399 22-08-2020 18:24:16 24.8 C 38 %
400 22-08-2020 18:34:17 24.7 C 38 %
Sensor: Nr:Datum:Temp:Feuchte:
G-T/H 401 22-08-2020 18:44:17 24.7 C 38 %
402 22-08-2020 18:54:16 24.8 C 38 %
403 22-08-2020 19:04:16 24.7 C 38 %
404 22-08-2020 19:14:16 24.5 C 39 %
405 22-08-2020 19:24:16 24.4 C 39 %
406 22-08-2020 19:34:16 24.3 C 39 %
407 22-08-2020 19:44:16 24.3 C 39 %
408 22-08-2020 19:54:16 24.3 C 40 %
409 22-08-2020 20:04:16 24.1 C 40 %
410 22-08-2020 20:14:16 24.1 C 41 %
411 22-08-2020 20:24:16 23.9 C 42 %
412 22-08-2020 20:34:16 23.8 C 42 %
413 22-08-2020 20:44:16 23.7 C 42 %
414 22-08-2020 20:54:16 23.7 C 43 %
415 22-08-2020 21:04:17 23.5 C 43 %
416 22-08-2020 21:14:17 23.3 C 44 %
417 22-08-2020 21:24:16 23.3 C 44 %
418 22-08-2020 21:34:16 23.2 C 45 %
419 22-08-2020 21:44:16 23.1 C 45 %
420 22-08-2020 21:54:16 23 C 45 %
421 22-08-2020 22:04:16 23 C 46 %
422 22-08-2020 22:14:16 23 C 46 %
423 22-08-2020 22:24:16 23.1 C 47 %
424 22-08-2020 22:34:16 23.2 C 47 %
425 22-08-2020 22:44:16 23.2 C 47 %
Sensor: Nr:Datum:Temp:Feuchte:
G-T/H 426 22-08-2020 22:54:16 23.2 C 47 %
427 22-08-2020 23:04:16 23.2 C 48 %
428 22-08-2020 23:14:16 23.2 C 48 %
429 22-08-2020 23:24:16 23.2 C 48 %
430 22-08-2020 23:34:15 23.2 C 48 %
431 22-08-2020 23:44:15 23.2 C 49 %
432 22-08-2020 23:54:16 23.2 C 49 %
433 23-08-2020 00:04:16 23.2 C 49 %
434 23-08-2020 00:14:17 23.2 C 49 %
435 23-08-2020 00:24:16 23.2 C 49 %
436 23-08-2020 00:34:16 23.2 C 50 %
437 23-08-2020 00:44:16 23.2 C 50 %
438 23-08-2020 00:54:16 23.2 C 50 %
439 23-08-2020 01:04:16 23.2 C 50 %
440 23-08-2020 01:14:17 23.1 C 50 %
441 23-08-2020 01:24:16 23.1 C 50 %
442 23-08-2020 01:34:16 23.1 C 50 %
443 23-08-2020 01:44:16 23.1 C 51 %
444 23-08-2020 01:54:16 23.1 C 51 %
445 23-08-2020 02:04:15 23.1 C 51 %
446 23-08-2020 02:14:15 23 C 51 %
447 23-08-2020 02:24:15 23 C 51 %
448 23-08-2020 02:34:16 22.9 C 52 %
449 23-08-2020 02:44:17 23 C 51 %
450 23-08-2020 02:54:17 22.9 C 52 %
Sensor: Nr:Datum:Temp:Feuchte:
G-T/H 451 23-08-2020 03:04:18 22.9 C 52 %
452 23-08-2020 03:14:18 22.9 C 53 %
453 23-08-2020 03:24:17 22.9 C 53 %
454 23-08-2020 03:34:18 22.9 C 53 %
455 23-08-2020 03:44:18 22.9 C 53 %
456 23-08-2020 03:54:17 22.9 C 53 %
457 23-08-2020 04:04:18 22.8 C 53 %
458 23-08-2020 04:14:18 22.8 C 53 %
459 23-08-2020 04:24:17 22.8 C 53 %
460 23-08-2020 04:34:17 22.8 C 53 %
461 23-08-2020 04:44:17 22.8 C 53 %
462 23-08-2020 04:54:17 22.8 C 53 %
463 23-08-2020 05:04:18 22.7 C 53 %
464 23-08-2020 05:14:18 22.7 C 53 %
465 23-08-2020 05:24:17 22.7 C 53 %
466 23-08-2020 05:34:18 22.6 C 54 %
467 23-08-2020 05:44:18 22.6 C 54 %
468 23-08-2020 05:54:17 22.6 C 54 %
469 23-08-2020 06:04:17 22.6 C 54 %
470 23-08-2020 06:14:17 22.6 C 54 %
471 23-08-2020 06:24:18 22.5 C 54 %
472 23-08-2020 06:34:18 22.5 C 54 %
473 23-08-2020 06:44:18 22.5 C 54 %
474 23-08-2020 06:54:18 22.5 C 54 %
475 23-08-2020 07:04:17 22.5 C 54 %
Sensor: Nr:Datum:Temp:Feuchte:
G-T/H 476 23-08-2020 07:14:17 22.4 C 54 %
477 23-08-2020 07:24:17 22.5 C 54 %
478 23-08-2020 07:34:17 22.4 C 54 %
479 23-08-2020 07:44:17 22.4 C 54 %
480 23-08-2020 07:54:17 22.4 C 54 %
481 23-08-2020 08:04:18 22.4 C 54 %
482 23-08-2020 08:14:18 22.4 C 54 %
483 23-08-2020 08:24:17 22.3 C 54 %
484 23-08-2020 08:34:17 22.3 C 54 %
485 23-08-2020 08:44:17 22.3 C 54 %
486 23-08-2020 08:54:17 22.3 C 54 %
487 23-08-2020 09:04:17 <